Darstellungsparameter: Aktuell verwendete Einstellungen:
Skalierung der Graphiken ... ?
xyx+y,   Skalierungsfaktor:      Skalierung: Modus: x, Faktor: 1
Darstellungszeitraum ... ?
Vom - - bis: - -   Zeitraum: 01.03.2020 - 29.03.2020
Min/Max/Avg-Anzeige ... ?
Zeige MMA aktuell
Zeige MMA Monat
Zeige MMA alles
Zeige --A aktuell
Zeige --A Monat
Zeige --A alles
Keine MMA-Anzeige
MMA:
Average (ber die Originaldaten)
MMA-Basis: 01.03.2020 - 29.03.2020
Quicknavigation für Darstellung... ?
Tage:      1T, 2T, 3T, 5T -1T -2T -3T -5T +1T +2T +3T +5T
Wochen: 1W, 2W, 3W -1W -2W -3W +1W +2W +3W
Monate: 1M, 3M, 6M -1M -3M -6M +1M +3M +6M
Jahre:    1J, 3J, 5J, 10J -1J -3J -5J -10J +1J +3J +5J +10J
Nutze für die Darstellung ... ?
Originaldaten oder Mittelwerte auf ...
Stundenbasis Tagesbasis Wochenbasis
Monatsbasis Jahresbasis      Datenbasis: Original-Daten
Darstellen als:
Statistik (Auto) Statistik J:M      Darstellung:
Zur Graphik,    zurück zur Übersicht aller Sensoren.
 
Tabellarische Datenbersicht: ?
 
Sensor: Nr:Datum:Temp:Feuchte:
Aussen-T/F 1 01-03-2020 00:08:18 6.6 C 35 %
2 01-03-2020 00:18:18 6.6 C 35 %
3 01-03-2020 00:28:18 6.3 C 35 %
4 01-03-2020 00:38:18 6.2 C 35 %
5 01-03-2020 00:48:17 6.2 C 35 %
6 01-03-2020 00:58:18 6.2 C 35 %
7 01-03-2020 01:08:17 6.1 C 35 %
8 01-03-2020 01:18:18 6 C 35 %
9 01-03-2020 01:28:18 5.7 C 35 %
10 01-03-2020 01:38:18 5.5 C 36 %
11 01-03-2020 01:48:17 5.8 C 36 %
12 01-03-2020 01:58:17 5.8 C 35 %
13 01-03-2020 02:08:17 5.3 C 36 %
14 01-03-2020 02:18:17 5.8 C 36 %
15 01-03-2020 02:28:17 5.7 C 36 %
16 01-03-2020 02:38:17 5.8 C 36 %
17 01-03-2020 02:48:17 6.2 C 35 %
18 01-03-2020 02:58:17 6.5 C 35 %
19 01-03-2020 03:08:18 6.5 C 35 %
20 01-03-2020 03:18:17 6.6 C 35 %
21 01-03-2020 03:28:17 6.7 C 35 %
22 01-03-2020 03:38:18 6.5 C 35 %
23 01-03-2020 03:48:17 6.4 C 35 %
24 01-03-2020 03:58:17 6.8 C 35 %
25 01-03-2020 04:08:17 6.6 C 35 %
Sensor: Nr:Datum:Temp:Feuchte:
Aussen-T/F 26 01-03-2020 04:18:17 6.9 C 34 %
27 01-03-2020 04:28:17 7 C 33 %
28 01-03-2020 04:38:18 6.9 C 34 %
29 01-03-2020 04:48:17 7.1 C 33 %
30 01-03-2020 04:58:17 7 C 33 %
31 01-03-2020 05:08:17 7.1 C 33 %
32 01-03-2020 05:18:18 6.8 C 34 %
33 01-03-2020 05:28:18 7.2 C 32 %
34 01-03-2020 05:38:18 6.8 C 34 %
35 01-03-2020 05:48:17 6.9 C 34 %
36 01-03-2020 05:58:18 6.6 C 34 %
37 01-03-2020 06:08:18 6.7 C 34 %
38 01-03-2020 06:18:17 6.8 C 34 %
39 01-03-2020 06:28:17 7 C 33 %
40 01-03-2020 06:38:17 7.1 C 33 %
41 01-03-2020 06:48:17 6.4 C 35 %
42 01-03-2020 06:58:17 5.9 C 36 %
43 01-03-2020 07:08:17 5.4 C 38 %
44 01-03-2020 07:18:17 5.4 C 39 %
45 01-03-2020 07:28:18 5.2 C 39 %
46 01-03-2020 07:38:18 5.1 C 41 %
47 01-03-2020 07:48:18 5.2 C 41 %
48 01-03-2020 07:58:18 5.2 C 42 %
49 01-03-2020 08:08:18 5.2 C 42 %
50 01-03-2020 08:18:17 5.3 C 42 %
Sensor: Nr:Datum:Temp:Feuchte:
Aussen-T/F 51 01-03-2020 08:28:17 5 C 40 %
52 01-03-2020 08:38:17 4.7 C 41 %
53 01-03-2020 08:48:17 4 C 41 %
54 01-03-2020 08:58:17 4 C 42 %
55 01-03-2020 09:08:17 4.1 C 42 %
56 01-03-2020 09:18:17 4.3 C 41 %
57 01-03-2020 09:28:17 4.8 C 40 %
58 01-03-2020 09:38:17 4.8 C 41 %
59 01-03-2020 09:48:18 4.7 C 41 %
60 01-03-2020 09:58:18 4.8 C 41 %
61 01-03-2020 10:08:17 5.3 C 40 %
62 01-03-2020 10:18:17 5.7 C 39 %
63 01-03-2020 10:28:17 7.1 C 36 %
64 01-03-2020 10:38:17 7.6 C 36 %
65 01-03-2020 10:48:17 7.8 C 35 %
66 01-03-2020 10:58:17 8 C 34 %
67 01-03-2020 11:08:17 8.1 C 33 %
68 01-03-2020 11:18:17 8.6 C 33 %
69 01-03-2020 11:28:18 10 C 30 %
70 01-03-2020 11:38:18 10.2 C 28 %
71 01-03-2020 11:48:17 8.8 C 29 %
72 01-03-2020 11:58:17 10.2 C 27 %
73 01-03-2020 12:08:17 8.9 C 30 %
74 01-03-2020 12:18:17 9.3 C 28 %
75 01-03-2020 12:28:17 9.7 C 27 %
Sensor: Nr:Datum:Temp:Feuchte:
Aussen-T/F 76 01-03-2020 12:38:18 9.2 C 28 %
77 01-03-2020 12:48:18 11.4 C 26 %
78 01-03-2020 12:58:18 12.3 C 21 %
79 01-03-2020 13:08:18 11.4 C 24 %
80 01-03-2020 13:18:17 10.4 C 25 %
81 01-03-2020 13:28:17 10.4 C 25 %
82 01-03-2020 13:38:17 10.6 C 22 %
83 01-03-2020 13:48:17 10.2 C 22 %
84 01-03-2020 13:58:17 10.8 C 22 %
85 01-03-2020 14:08:18 10.1 C 23 %
86 01-03-2020 14:18:18 9.9 C 25 %
87 01-03-2020 14:28:18 10.9 C 25 %
88 01-03-2020 14:38:18 10.5 C 23 %
89 01-03-2020 14:48:17 10.9 C 25 %
90 01-03-2020 14:58:18 10.1 C 25 %
91 01-03-2020 15:08:18 10.1 C 25 %
92 01-03-2020 15:18:17 12.6 C 20 %
93 01-03-2020 15:28:17 11.9 C 22 %
94 01-03-2020 15:38:18 12 C 20 %
95 01-03-2020 15:48:18 12.8 C 20 %
96 01-03-2020 15:58:18 11.7 C 21 %
97 01-03-2020 16:08:18 10.8 C 25 %
98 01-03-2020 16:18:18 10.5 C 25 %
99 01-03-2020 16:28:18 10.7 C 25 %
100 01-03-2020 16:38:18 10.3 C 30 %
Sensor: Nr:Datum:Temp:Feuchte:
Aussen-T/F 101 01-03-2020 16:48:18 10.2 C 29 %
102 01-03-2020 16:58:18 9.7 C 31 %
103 01-03-2020 17:08:18 8.4 C 35 %
104 01-03-2020 17:18:17 7.8 C 39 %
105 01-03-2020 17:28:17 7.6 C 42 %
106 01-03-2020 17:38:17 7.3 C 43 %
107 01-03-2020 17:48:17 7 C 44 %
108 01-03-2020 17:58:17 6.9 C 45 %
109 01-03-2020 18:08:18 6.8 C 45 %
110 01-03-2020 18:18:18 6.7 C 45 %
111 01-03-2020 18:28:18 6.7 C 45 %
112 01-03-2020 18:38:18 6.7 C 45 %
113 01-03-2020 18:48:18 6.6 C 45 %
114 01-03-2020 18:58:18 6.5 C 45 %
115 01-03-2020 19:08:18 6.5 C 45 %
116 01-03-2020 19:18:17 6.5 C 45 %
117 01-03-2020 19:28:17 6.4 C 45 %
118 01-03-2020 19:38:17 6.3 C 45 %
119 01-03-2020 19:48:17 6.3 C 45 %
120 01-03-2020 19:58:17 6.2 C 45 %
121 01-03-2020 20:08:17 6.3 C 45 %
122 01-03-2020 20:18:17 6.2 C 45 %
123 01-03-2020 20:28:17 6 C 45 %
124 01-03-2020 20:38:17 5.8 C 45 %
125 01-03-2020 20:48:17 5.7 C 45 %
Sensor: Nr:Datum:Temp:Feuchte:
Aussen-T/F 126 01-03-2020 20:58:17 5.6 C 45 %
127 01-03-2020 21:08:17 5.6 C 45 %
128 01-03-2020 21:18:17 5.5 C 45 %
129 01-03-2020 21:28:17 5.4 C 45 %
130 01-03-2020 21:38:17 5.7 C 45 %
131 01-03-2020 21:48:17 5.8 C 45 %
132 01-03-2020 21:58:17 5.9 C 45 %
133 01-03-2020 22:08:17 6 C 45 %
134 01-03-2020 22:18:17 6 C 45 %
135 01-03-2020 22:28:17 6.1 C 45 %
136 01-03-2020 22:38:18 6.2 C 45 %
137 01-03-2020 22:48:17 6.2 C 45 %
138 01-03-2020 22:58:17 6.3 C 45 %
139 01-03-2020 23:08:18 6.4 C 45 %
140 01-03-2020 23:18:18 5.8 C 45 %
141 01-03-2020 23:28:18 4.3 C 40 %
142 01-03-2020 23:38:18 3.1 C 41 %
143 01-03-2020 23:48:18 2.9 C 44 %
144 01-03-2020 23:58:18 3.1 C 44 %
145 02-03-2020 00:08:18 3.3 C 44 %
146 02-03-2020 00:18:17 3.3 C 43 %
147 02-03-2020 00:28:17 3.5 C 43 %
148 02-03-2020 00:38:17 3.5 C 43 %
149 02-03-2020 00:48:17 3.7 C 42 %
150 02-03-2020 00:58:18 3.6 C 42 %
Sensor: Nr:Datum:Temp:Feuchte:
Aussen-T/F 151 02-03-2020 01:08:18 3.7 C 42 %
152 02-03-2020 01:18:17 3.9 C 41 %
153 02-03-2020 01:28:17 3.8 C 42 %
154 02-03-2020 01:38:17 3.8 C 41 %
155 02-03-2020 01:48:18 4 C 40 %
156 02-03-2020 01:58:18 3.5 C 42 %
157 02-03-2020 02:08:18 3.7 C 42 %
158 02-03-2020 02:18:17 3.6 C 42 %
159 02-03-2020 02:28:17 3.5 C 42 %
160 02-03-2020 02:38:17 4 C 40 %
161 02-03-2020 02:48:17 3.8 C 41 %
162 02-03-2020 02:58:18 3.5 C 42 %
163 02-03-2020 03:08:18 3.3 C 43 %
164 02-03-2020 03:18:18 3.4 C 42 %
165 02-03-2020 03:28:18 2.9 C 44 %
166 02-03-2020 03:38:18 2.4 C 45 %
167 02-03-2020 03:48:18 2.9 C 45 %
168 02-03-2020 03:58:18 2.6 C 45 %
169 02-03-2020 04:08:18 2.3 C 45 %
170 02-03-2020 04:18:17 2 C 46 %
171 02-03-2020 04:28:17 2.2 C 46 %
172 02-03-2020 04:38:18 2.3 C 47 %
173 02-03-2020 04:48:18 2.2 C 46 %
174 02-03-2020 04:58:18 1.9 C 48 %
175 02-03-2020 05:08:18 1.7 C 48 %
Sensor: Nr:Datum:Temp:Feuchte:
Aussen-T/F 176 02-03-2020 05:18:17 1.5 C 48 %
177 02-03-2020 05:28:17 1.3 C 48 %
178 02-03-2020 05:38:18 1.4 C 48 %
179 02-03-2020 05:48:18 1.4 C 48 %
180 02-03-2020 05:58:18 1.3 C 48 %
181 02-03-2020 06:08:18 1.1 C 48 %
182 02-03-2020 06:18:18 1.3 C 48 %
183 02-03-2020 06:28:18 1.3 C 48 %
184 02-03-2020 06:38:18 1.4 C 48 %
185 02-03-2020 06:48:17 1.4 C 48 %
186 02-03-2020 06:58:17 1.5 C 48 %
187 02-03-2020 07:08:18 1.5 C 48 %
188 02-03-2020 07:18:18 1.7 C 48 %
189 02-03-2020 07:28:18 1.8 C 48 %
190 02-03-2020 07:38:18 2.1 C 47 %
191 02-03-2020 07:48:18 2.3 C 47 %
192 02-03-2020 07:58:18 2.5 C 47 %
193 02-03-2020 08:08:18 2.5 C 47 %
194 02-03-2020 08:18:17 2.7 C 47 %
195 02-03-2020 08:28:17 3 C 46 %
196 02-03-2020 08:38:18 3.2 C 46 %
197 02-03-2020 08:48:18 3.5 C 46 %
198 02-03-2020 08:58:18 3.8 C 45 %
199 02-03-2020 09:08:17 4.1 C 43 %
200 02-03-2020 09:18:17 4.5 C 42 %
Sensor: Nr:Datum:Temp:Feuchte:
Aussen-T/F 201 02-03-2020 09:28:17 4.9 C 40 %
202 02-03-2020 09:38:17 5.4 C 39 %
203 02-03-2020 09:48:17 5.7 C 39 %
204 02-03-2020 09:58:17 6.1 C 38 %
205 02-03-2020 10:08:17 6.6 C 37 %
206 02-03-2020 10:18:17 6.9 C 36 %
207 02-03-2020 10:28:17 7.4 C 35 %
208 02-03-2020 10:38:18 8.2 C 34 %
209 02-03-2020 10:48:17 8.9 C 34 %
210 02-03-2020 10:58:17 9 C 33 %
211 02-03-2020 11:08:17 9 C 33 %
212 02-03-2020 11:18:17 11.5 C 30 %
213 02-03-2020 11:28:17 13 C 26 %
214 02-03-2020 11:38:17 13.9 C 25 %
215 02-03-2020 11:48:17 11.8 C 27 %
216 02-03-2020 11:58:17 13.6 C 24 %
217 02-03-2020 12:08:17 13.3 C 21 %
218 02-03-2020 12:18:17 13.2 C 21 %
219 02-03-2020 12:28:17 12.3 C 23 %
220 02-03-2020 12:38:18 13 C 23 %
221 02-03-2020 12:48:18 11.8 C 24 %
222 02-03-2020 12:58:18 11.7 C 25 %
223 02-03-2020 13:08:18 12.4 C 23 %
224 02-03-2020 13:18:18 14.7 C 20 %
225 02-03-2020 13:28:18 14.2 C 20 %
Sensor: Nr:Datum:Temp:Feuchte:
Aussen-T/F 226 02-03-2020 13:38:17 15.6 C 20 %
227 02-03-2020 13:48:17 14.1 C 20 %
228 02-03-2020 13:58:17 12.3 C 21 %
229 02-03-2020 14:08:17 11.8 C 23 %
230 02-03-2020 14:18:17 12.1 C 23 %
231 02-03-2020 14:28:17 11.7 C 25 %
232 02-03-2020 14:38:17 11.2 C 25 %
233 02-03-2020 14:48:17 10.9 C 25 %
234 02-03-2020 14:58:17 10.8 C 26 %
235 02-03-2020 15:08:18 10.9 C 26 %
236 02-03-2020 15:18:18 10.9 C 26 %
237 02-03-2020 15:28:18 10.2 C 26 %
238 02-03-2020 15:38:18 9.2 C 30 %
239 02-03-2020 15:48:17 8.7 C 33 %
240 02-03-2020 15:58:18 8.4 C 36 %
241 02-03-2020 16:08:18 8 C 40 %
242 02-03-2020 16:18:18 7.6 C 41 %
243 02-03-2020 16:28:18 7.3 C 42 %
244 02-03-2020 16:38:18 7.2 C 43 %
245 02-03-2020 16:48:17 7.1 C 43 %
246 02-03-2020 16:58:17 7 C 44 %
247 02-03-2020 17:08:17 6.9 C 45 %
248 02-03-2020 17:18:17 6.6 C 45 %
249 02-03-2020 17:28:17 6.6 C 45 %
250 02-03-2020 17:38:18 6.4 C 45 %
Sensor: Nr:Datum:Temp:Feuchte:
Aussen-T/F 251 02-03-2020 17:48:17 6.3 C 45 %
252 02-03-2020 17:58:18 6.3 C 45 %
253 02-03-2020 18:08:18 6.2 C 45 %
254 02-03-2020 18:18:18 6.1 C 45 %
255 02-03-2020 18:28:18 6 C 45 %
256 02-03-2020 18:38:18 5.9 C 46 %
257 02-03-2020 18:48:17 5.9 C 46 %
258 02-03-2020 18:58:18 5.8 C 46 %
259 02-03-2020 19:08:18 5.7 C 46 %
260 02-03-2020 19:18:18 5.7 C 46 %
261 02-03-2020 19:28:18 5.7 C 46 %
262 02-03-2020 19:38:18 5.7 C 46 %
263 02-03-2020 19:48:17 5.7 C 45 %
264 02-03-2020 19:58:18 5.7 C 45 %
265 02-03-2020 20:08:18 5.7 C 45 %
266 02-03-2020 20:18:17 5.7 C 45 %
267 02-03-2020 20:28:18 5.6 C 45 %
268 02-03-2020 20:38:18 5.6 C 45 %
269 02-03-2020 20:48:17 5.6 C 45 %
270 02-03-2020 20:58:17 5.5 C 45 %
271 02-03-2020 21:08:18 5.4 C 45 %
272 02-03-2020 21:18:18 5.4 C 45 %
273 02-03-2020 21:28:18 5.4 C 45 %
274 02-03-2020 21:38:18 5.4 C 45 %
275 02-03-2020 21:48:18 5.4 C 45 %
Sensor: Nr:Datum:Temp:Feuchte:
Aussen-T/F 276 02-03-2020 21:58:18 5.4 C 45 %
277 02-03-2020 22:08:18 5.4 C 45 %
278 02-03-2020 22:18:17 5.4 C 45 %
279 02-03-2020 22:28:17 5.5 C 45 %
280 02-03-2020 22:38:17 5.4 C 45 %
281 02-03-2020 22:48:17 5.5 C 45 %
282 02-03-2020 22:58:17 5.5 C 45 %
283 02-03-2020 23:08:17 5.5 C 45 %
284 02-03-2020 23:18:17 5.2 C 45 %
285 02-03-2020 23:28:17 5.2 C 45 %
286 02-03-2020 23:38:17 5.2 C 45 %
287 02-03-2020 23:48:17 5.3 C 45 %
288 02-03-2020 23:58:17 5.3 C 45 %
289 03-03-2020 00:08:18 5.2 C 45 %
290 03-03-2020 00:18:18 5.1 C 44 %
291 03-03-2020 00:28:18 5 C 44 %
292 03-03-2020 00:38:18 5 C 44 %
293 03-03-2020 00:48:17 4.9 C 45 %
294 03-03-2020 00:58:17 4.9 C 45 %
295 03-03-2020 01:08:17 5.1 C 44 %
296 03-03-2020 01:18:17 5 C 43 %
297 03-03-2020 01:28:17 5 C 43 %
298 03-03-2020 01:38:18 4.6 C 41 %
299 03-03-2020 01:48:17 4.5 C 42 %
300 03-03-2020 01:58:17 4.4 C 43 %
Sensor: Nr:Datum:Temp:Feuchte:
Aussen-T/F 301 03-03-2020 02:08:17 4.4 C 43 %
302 03-03-2020 02:18:17 4.2 C 42 %
303 03-03-2020 02:28:17 4.1 C 41 %
304 03-03-2020 02:38:18 4.1 C 41 %
305 03-03-2020 02:48:18 4.1 C 41 %
306 03-03-2020 02:58:18 3.9 C 42 %
307 03-03-2020 03:08:17 3.8 C 41 %
308 03-03-2020 03:18:17 3.7 C 40 %
309 03-03-2020 03:28:17 3.4 C 41 %
310 03-03-2020 03:38:18 3.5 C 41 %
311 03-03-2020 03:48:18 3 C 42 %
312 03-03-2020 03:58:18 3.1 C 42 %
313 03-03-2020 04:08:17 2.8 C 43 %
314 03-03-2020 04:18:17 3.2 C 41 %
315 03-03-2020 04:28:17 3.2 C 41 %
316 03-03-2020 04:38:18 2.9 C 42 %
317 03-03-2020 04:48:17 2.9 C 43 %
318 03-03-2020 04:58:18 3.2 C 41 %
319 03-03-2020 05:08:18 3.1 C 41 %
320 03-03-2020 05:18:18 2.7 C 43 %
321 03-03-2020 05:28:18 2.3 C 44 %
322 03-03-2020 05:38:17 2.6 C 43 %
323 03-03-2020 05:48:18 2.7 C 42 %
324 03-03-2020 05:58:18 2.4 C 44 %
325 03-03-2020 06:08:17 3 C 42 %
Sensor: Nr:Datum:Temp:Feuchte:
Aussen-T/F 326 03-03-2020 06:18:18 3.1 C 41 %
327 03-03-2020 06:28:18 2.8 C 42 %
328 03-03-2020 06:38:17 2.6 C 43 %
329 03-03-2020 06:48:18 2.7 C 42 %
330 03-03-2020 06:58:18 2.8 C 42 %
331 03-03-2020 07:08:18 2.8 C 42 %
332 03-03-2020 07:18:18 2.6 C 43 %
333 03-03-2020 07:28:18 2.7 C 43 %
334 03-03-2020 07:38:18 2.6 C 43 %
335 03-03-2020 07:48:17 2.5 C 43 %
336 03-03-2020 07:58:17 2.5 C 43 %
337 03-03-2020 08:08:18 2.7 C 43 %
338 03-03-2020 08:18:18 3.3 C 41 %
339 03-03-2020 08:28:18 3.2 C 41 %
340 03-03-2020 08:38:17 3.5 C 40 %
341 03-03-2020 08:48:17 3.6 C 40 %
342 03-03-2020 08:58:18 3.4 C 40 %
343 03-03-2020 09:08:18 3.5 C 40 %
344 03-03-2020 09:18:17 3.2 C 40 %
345 03-03-2020 09:28:17 3.5 C 40 %
346 03-03-2020 09:38:17 3.6 C 40 %
347 03-03-2020 09:48:18 4.1 C 39 %
348 03-03-2020 09:58:18 4.6 C 38 %
349 03-03-2020 10:08:18 5.3 C 36 %
350 03-03-2020 10:18:18 5.1 C 36 %
Sensor: Nr:Datum:Temp:Feuchte:
Aussen-T/F 351 03-03-2020 10:28:18 5.2 C 35 %
352 03-03-2020 10:38:18 5.4 C 35 %
353 03-03-2020 10:48:17 4.9 C 35 %
354 03-03-2020 10:58:18 5 C 35 %
355 03-03-2020 11:08:17 5.2 C 35 %
356 03-03-2020 11:18:17 5.2 C 35 %
357 03-03-2020 11:28:17 5.3 C 35 %
358 03-03-2020 11:38:17 5.1 C 35 %
359 03-03-2020 11:48:17 5.8 C 35 %
360 03-03-2020 11:58:17 5.7 C 35 %
361 03-03-2020 12:08:17 6.1 C 35 %
362 03-03-2020 12:18:17 6.4 C 34 %
363 03-03-2020 12:28:17 6.6 C 34 %
364 03-03-2020 12:38:17 6.5 C 33 %
365 03-03-2020 12:48:17 7.1 C 33 %
366 03-03-2020 12:58:17 6.6 C 33 %
367 03-03-2020 13:08:17 6.6 C 33 %
368 03-03-2020 13:18:17 9.6 C 28 %
369 03-03-2020 13:28:18 9.8 C 27 %
370 03-03-2020 13:38:18 8.9 C 27 %
371 03-03-2020 13:48:17 9.7 C 25 %
372 03-03-2020 13:58:17 6.2 C 31 %
373 03-03-2020 14:08:18 5.8 C 35 %
374 03-03-2020 14:18:18 5.4 C 39 %
375 03-03-2020 14:28:18 5.7 C 38 %
Sensor: Nr:Datum:Temp:Feuchte:
Aussen-T/F 376 03-03-2020 14:38:18 5 C 37 %
377 03-03-2020 14:48:18 4.7 C 39 %
378 03-03-2020 14:58:18 4.7 C 40 %
379 03-03-2020 15:08:18 4.7 C 39 %
380 03-03-2020 15:18:18 6.8 C 36 %
381 03-03-2020 15:28:18 6.9 C 35 %
382 03-03-2020 15:38:18 8.9 C 32 %
383 03-03-2020 15:48:17 8.9 C 30 %
384 03-03-2020 15:58:17 7.4 C 32 %
385 03-03-2020 16:08:18 11.8 C 23 %
386 03-03-2020 16:18:18 9.3 C 25 %
387 03-03-2020 16:28:18 7.4 C 30 %
388 03-03-2020 16:38:18 7.2 C 30 %
389 03-03-2020 16:48:17 7.3 C 31 %
390 03-03-2020 16:58:17 7.6 C 30 %
391 03-03-2020 17:08:17 6.7 C 32 %
392 03-03-2020 17:18:17 6.7 C 33 %
393 03-03-2020 17:28:18 6.5 C 34 %
394 03-03-2020 17:38:18 6.4 C 34 %
395 03-03-2020 17:48:17 6 C 35 %
396 03-03-2020 17:58:18 5.4 C 36 %
397 03-03-2020 18:08:18 4.3 C 38 %
398 03-03-2020 18:18:18 4.4 C 39 %
399 03-03-2020 18:28:18 4 C 39 %
400 03-03-2020 18:38:18 3.7 C 41 %
Sensor: Nr:Datum:Temp:Feuchte:
Aussen-T/F 401 03-03-2020 18:48:17 3.5 C 41 %
402 03-03-2020 18:58:17 3.6 C 41 %
403 03-03-2020 19:08:17 3.6 C 40 %
404 03-03-2020 19:18:17 3.8 C 40 %
405 03-03-2020 19:28:17 3.1 C 41 %
406 03-03-2020 19:38:17 3.2 C 41 %
407 03-03-2020 19:48:17 2.7 C 42 %
408 03-03-2020 19:58:17 2.3 C 42 %
409 03-03-2020 20:08:17 1.7 C 45 %
410 03-03-2020 20:18:17 1.8 C 47 %
411 03-03-2020 20:28:17 1.7 C 47 %
412 03-03-2020 20:38:17 1.3 C 46 %
413 03-03-2020 20:48:17 1.4 C 47 %
414 03-03-2020 20:58:17 1.3 C 47 %
415 03-03-2020 21:08:17 1.2 C 47 %
416 03-03-2020 21:18:17 1.6 C 48 %
417 03-03-2020 21:28:17 2 C 47 %
418 03-03-2020 21:38:17 2.1 C 45 %
419 03-03-2020 21:48:17 2 C 45 %
420 03-03-2020 21:58:17 2.2 C 45 %
421 03-03-2020 22:08:17 1.9 C 46 %
422 03-03-2020 22:18:17 1.5 C 46 %
423 03-03-2020 22:28:17 1.4 C 47 %
424 03-03-2020 22:38:17 1.2 C 47 %
425 03-03-2020 22:48:17 1 C 47 %
Sensor: Nr:Datum:Temp:Feuchte:
Aussen-T/F 426 03-03-2020 22:58:17 1.2 C 48 %
427 03-03-2020 23:08:17 1.7 C 48 %
428 03-03-2020 23:18:18 2.3 C 46 %
429 03-03-2020 23:28:18 2.4 C 44 %
430 03-03-2020 23:38:17 2.6 C 44 %
431 03-03-2020 23:48:17 2.7 C 43 %
432 03-03-2020 23:58:17 2.8 C 43 %
433 04-03-2020 00:08:17 3.1 C 42 %
434 04-03-2020 00:18:18 3 C 41 %
435 04-03-2020 00:28:18 2.9 C 42 %
436 04-03-2020 00:38:18 3.1 C 41 %
437 04-03-2020 00:48:17 2.5 C 42 %
438 04-03-2020 00:58:17 2.3 C 44 %
439 04-03-2020 01:08:17 2.6 C 43 %
440 04-03-2020 01:18:17 2.6 C 42 %
441 04-03-2020 01:28:17 2.4 C 42 %
442 04-03-2020 01:38:17 2.5 C 42 %
443 04-03-2020 01:48:17 2.6 C 42 %
444 04-03-2020 01:58:17 2.6 C 42 %
445 04-03-2020 02:08:17 2.7 C 42 %
446 04-03-2020 02:18:17 2.8 C 42 %
447 04-03-2020 02:28:18 2.7 C 42 %
448 04-03-2020 02:38:18 3.2 C 41 %
449 04-03-2020 02:48:17 3.6 C 40 %
450 04-03-2020 02:58:18 3.4 C 40 %
Sensor: Nr:Datum:Temp:Feuchte:
Aussen-T/F 451 04-03-2020 03:08:17 3.3 C 40 %
452 04-03-2020 03:18:17 3 C 41 %
453 04-03-2020 03:28:17 3.2 C 41 %
454 04-03-2020 03:38:17 2.9 C 42 %
455 04-03-2020 03:48:17 2.6 C 42 %
456 04-03-2020 03:58:18 2.5 C 44 %
457 04-03-2020 04:08:18 3.4 C 41 %
458 04-03-2020 04:18:18 3.4 C 41 %
459 04-03-2020 04:28:18 3.6 C 40 %
460 04-03-2020 04:38:18 3.6 C 40 %
461 04-03-2020 04:48:17 3.7 C 40 %
462 04-03-2020 04:58:18 3.5 C 41 %
463 04-03-2020 05:08:18 3.4 C 41 %
464 04-03-2020 05:18:18 3.2 C 42 %
465 04-03-2020 05:28:18 3.1 C 44 %
466 04-03-2020 05:38:18 3.2 C 44 %
467 04-03-2020 05:48:17 3.2 C 43 %
468 04-03-2020 05:58:18 3.2 C 43 %
469 04-03-2020 06:08:18 3.3 C 43 %
470 04-03-2020 06:18:18 3.3 C 42 %
471 04-03-2020 06:28:18 3.4 C 42 %
472 04-03-2020 06:38:18 3.6 C 42 %
473 04-03-2020 06:48:17 3.6 C 42 %
474 04-03-2020 06:58:17 3.7 C 41 %
475 04-03-2020 07:08:17 3.7 C 41 %
Sensor: Nr:Datum:Temp:Feuchte:
Aussen-T/F 476 04-03-2020 07:18:17 3.9 C 41 %
477 04-03-2020 07:28:17 3.9 C 41 %
478 04-03-2020 07:38:18 4 C 40 %
479 04-03-2020 07:48:17 3.9 C 41 %
480 04-03-2020 07:58:17 3.7 C 41 %
481 04-03-2020 08:08:18 3.3 C 42 %
482 04-03-2020 08:18:17 3.4 C 42 %
483 04-03-2020 08:28:17 3.8 C 41 %
484 04-03-2020 08:38:18 3.7 C 41 %
485 04-03-2020 08:48:18 4.1 C 40 %
486 04-03-2020 08:58:18 3.7 C 41 %
487 04-03-2020 09:08:18 3.9 C 41 %
488 04-03-2020 09:18:18 4.2 C 40 %
489 04-03-2020 09:28:18 4.6 C 40 %
490 04-03-2020 09:38:18 4.7 C 39 %
491 04-03-2020 09:48:17 5.1 C 38 %
492 04-03-2020 09:58:18 5.4 C 37 %
493 04-03-2020 10:08:18 5.6 C 37 %
494 04-03-2020 10:18:18 5.8 C 37 %
495 04-03-2020 10:28:18 6 C 36 %
496 04-03-2020 10:38:17 6.6 C 36 %
497 04-03-2020 10:48:18 6.4 C 36 %
498 04-03-2020 10:58:18 6.5 C 36 %
499 04-03-2020 11:08:18 6.8 C 35 %
500 04-03-2020 11:18:18 7.7 C 34 %
Sensor: Nr:Datum:Temp:Feuchte:
Aussen-T/F 501 04-03-2020 11:28:18 8.2 C 33 %
502 04-03-2020 11:38:18 8.3 C 32 %
503 04-03-2020 11:48:18 8.8 C 32 %
504 04-03-2020 11:58:18 9.5 C 31 %
505 04-03-2020 12:08:18 9.6 C 31 %
506 04-03-2020 12:18:18 10.1 C 30 %
507 04-03-2020 12:28:18 9 C 30 %
508 04-03-2020 12:38:18 9.9 C 29 %
509 04-03-2020 12:48:17 10.9 C 28 %
510 04-03-2020 12:58:17 9.1 C 29 %
511 04-03-2020 13:08:17 9.3 C 28 %
512 04-03-2020 13:18:17 9.4 C 28 %
513 04-03-2020 13:28:17 10.7 C 27 %
514 04-03-2020 13:38:18 9.5 C 28 %
515 04-03-2020 13:48:17 9.6 C 28 %
516 04-03-2020 13:58:17 10.2 C 26 %
517 04-03-2020 14:08:18 10.6 C 26 %
518 04-03-2020 14:18:18 9.6 C 27 %
519 04-03-2020 14:28:18 9.6 C 27 %
520 04-03-2020 14:38:18 10.1 C 26 %
521 04-03-2020 14:48:18 9.5 C 28 %
522 04-03-2020 14:58:18 9 C 28 %
523 04-03-2020 15:08:18 9.4 C 28 %
524 04-03-2020 15:18:18 9.5 C 28 %
525 04-03-2020 15:28:18 9.7 C 27 %
Sensor: Nr:Datum:Temp:Feuchte:
Aussen-T/F 526 04-03-2020 15:38:18 9.4 C 29 %
527 04-03-2020 15:48:17 9.5 C 28 %
528 04-03-2020 15:58:18 10.6 C 26 %
529 04-03-2020 16:08:17 10.1 C 26 %
530 04-03-2020 16:18:17 10.9 C 26 %
531 04-03-2020 16:28:17 10 C 26 %
532 04-03-2020 16:38:17 10.9 C 26 %
533 04-03-2020 16:48:17 11 C 25 %
534 04-03-2020 16:58:17 11.5 C 25 %
535 04-03-2020 17:08:17 10.6 C 25 %
536 04-03-2020 17:18:17 8.8 C 27 %
537 04-03-2020 17:28:18 8 C 29 %
538 04-03-2020 17:38:18 7.3 C 32 %
539 04-03-2020 17:48:17 6.4 C 35 %
540 04-03-2020 17:58:17 5.7 C 36 %
541 04-03-2020 18:08:17 5.2 C 37 %
542 04-03-2020 18:18:17 4.8 C 38 %
543 04-03-2020 18:28:17 4.7 C 39 %
544 04-03-2020 18:38:17 4.5 C 39 %
545 04-03-2020 18:48:17 4.3 C 39 %
546 04-03-2020 18:58:17 4 C 39 %
547 04-03-2020 19:08:17 3.9 C 40 %
548 04-03-2020 19:18:17 4 C 40 %
549 04-03-2020 19:28:17 4.1 C 40 %
550 04-03-2020 19:38:17 4.1 C 40 %
Sensor: Nr:Datum:Temp:Feuchte:
Aussen-T/F 551 04-03-2020 19:48:18 4 C 40 %
552 04-03-2020 19:58:18 3.7 C 41 %
553 04-03-2020 20:08:17 3.8 C 41 %
554 04-03-2020 20:18:17 3.7 C 41 %
555 04-03-2020 20:28:17 3.4 C 41 %
556 04-03-2020 20:38:17 3.1 C 42 %
557 04-03-2020 20:48:18 3.1 C 42 %
558 04-03-2020 20:58:18 2.9 C 43 %
559 04-03-2020 21:08:18 3.3 C 42 %
560 04-03-2020 21:18:18 3 C 42 %
561 04-03-2020 21:28:18 3.1 C 42 %
562 04-03-2020 21:38:18 3.3 C 42 %
563 04-03-2020 21:48:18 3.1 C 42 %
564 04-03-2020 21:58:18 3.1 C 42 %
565 04-03-2020 22:08:18 2.6 C 44 %
566 04-03-2020 22:18:17 2.5 C 45 %
567 04-03-2020 22:28:17 2.4 C 45 %
568 04-03-2020 22:38:17 2.9 C 46 %
569 04-03-2020 22:48:17 2.9 C 46 %
570 04-03-2020 22:58:17 3.2 C 45 %
571 04-03-2020 23:08:17 3.3 C 43 %
572 04-03-2020 23:18:17 3.6 C 43 %
573 04-03-2020 23:28:18 3.5 C 43 %
574 04-03-2020 23:38:18 3.6 C 43 %
575 04-03-2020 23:48:18 3.7 C 45 %
Sensor: Nr:Datum:Temp:Feuchte:
Aussen-T/F 576 04-03-2020 23:58:18 3.6 C 45 %
577 05-03-2020 00:08:18 3.6 C 46 %
578 05-03-2020 00:18:18 3.6 C 46 %
579 05-03-2020 00:28:18 3.8 C 47 %
580 05-03-2020 00:38:17 3.8 C 47 %
581 05-03-2020 00:48:17 3.6 C 47 %
582 05-03-2020 00:58:17 3.5 C 47 %
583 05-03-2020 01:08:17 3.5 C 47 %
584 05-03-2020 01:18:17 3.5 C 47 %
585 05-03-2020 01:28:17 3.4 C 47 %
586 05-03-2020 01:38:17 3.4 C 47 %
587 05-03-2020 01:48:18 3.5 C 47 %
588 05-03-2020 01:58:18 3.5 C 47 %
589 05-03-2020 02:08:18 3.6 C 46 %
590 05-03-2020 02:18:18 3.7 C 46 %
591 05-03-2020 02:28:18 3.7 C 45 %
592 05-03-2020 02:38:18 3.7 C 44 %
593 05-03-2020 02:48:18 3.9 C 43 %
594 05-03-2020 02:58:18 3.9 C 43 %
595 05-03-2020 03:08:18 4 C 42 %
596 05-03-2020 03:18:17 4.1 C 42 %
597 05-03-2020 03:28:17 4 C 41 %
598 05-03-2020 03:38:17 4.1 C 41 %
599 05-03-2020 03:48:17 4 C 42 %
600 05-03-2020 03:58:17 3.8 C 43 %
Sensor: Nr:Datum:Temp:Feuchte:
Aussen-T/F 601 05-03-2020 04:08:17 3.8 C 44 %
602 05-03-2020 04:18:17 3.9 C 44 %
603 05-03-2020 04:28:18 3.9 C 43 %
604 05-03-2020 04:38:18 3.9 C 43 %
605 05-03-2020 04:48:17 3.8 C 43 %
606 05-03-2020 04:58:18 3.8 C 43 %
607 05-03-2020 05:08:18 3.9 C 44 %
608 05-03-2020 05:18:18 3.9 C 44 %
609 05-03-2020 05:28:18 3.8 C 44 %
610 05-03-2020 05:38:18 3.9 C 44 %
611 05-03-2020 05:48:17 3.7 C 44 %
612 05-03-2020 05:58:18 3.9 C 44 %
613 05-03-2020 06:08:18 4 C 43 %
614 05-03-2020 06:18:18 3.9 C 43 %
615 05-03-2020 06:28:18 4 C 42 %
616 05-03-2020 06:38:18 4 C 42 %
617 05-03-2020 06:48:17 4.1 C 42 %
618 05-03-2020 06:58:17 4.1 C 42 %
619 05-03-2020 07:08:18 4.2 C 42 %
620 05-03-2020 07:18:17 4.3 C 42 %
621 05-03-2020 07:28:18 4.4 C 42 %
622 05-03-2020 07:38:18 4.5 C 41 %
623 05-03-2020 07:48:17 4.7 C 41 %
624 05-03-2020 07:58:17 4.8 C 41 %
625 05-03-2020 08:08:18 4.7 C 41 %
Sensor: Nr:Datum:Temp:Feuchte:
Aussen-T/F 626 05-03-2020 08:18:18 4.8 C 41 %
627 05-03-2020 08:28:18 4.8 C 41 %
628 05-03-2020 08:38:17 5.1 C 40 %
629 05-03-2020 08:48:17 5.3 C 40 %
630 05-03-2020 08:58:17 5.4 C 40 %
631 05-03-2020 09:08:17 5.9 C 40 %
632 05-03-2020 09:18:17 6.1 C 38 %
633 05-03-2020 09:28:17 6.4 C 38 %
634 05-03-2020 09:38:17 6.4 C 38 %
635 05-03-2020 09:48:17 6.6 C 38 %
636 05-03-2020 09:58:17 6.6 C 38 %
637 05-03-2020 10:08:18 6.9 C 38 %
638 05-03-2020 10:18:17 6.4 C 38 %
639 05-03-2020 10:28:17 6.3 C 38 %
640 05-03-2020 10:38:18 6.2 C 38 %
641 05-03-2020 10:48:18 6.3 C 39 %
642 05-03-2020 10:58:18 6.7 C 38 %
643 05-03-2020 11:08:17 7 C 38 %
644 05-03-2020 11:18:17 7.1 C 37 %
645 05-03-2020 11:28:17 7.3 C 37 %
646 05-03-2020 11:38:18 7.7 C 37 %
647 05-03-2020 11:48:18 7.8 C 37 %
648 05-03-2020 11:58:18 7.4 C 37 %
649 05-03-2020 12:08:17 7.5 C 37 %
650 05-03-2020 12:18:17 7.5 C 37 %
Sensor: Nr:Datum:Temp:Feuchte:
Aussen-T/F 651 05-03-2020 12:28:18 6.9 C 38 %
652 05-03-2020 12:38:18 7.1 C 38 %
653 05-03-2020 12:48:17 7 C 39 %
654 05-03-2020 12:58:17 6.8 C 40 %
655 05-03-2020 13:08:17 6.8 C 41 %
656 05-03-2020 13:18:17 6.9 C 41 %
657 05-03-2020 13:28:17 6.9 C 41 %
658 05-03-2020 13:38:17 7 C 41 %
659 05-03-2020 13:48:17 6.6 C 42 %
660 05-03-2020 13:58:17 6.4 C 42 %
661 05-03-2020 14:08:17 6.4 C 43 %
662 05-03-2020 14:18:17 6.4 C 43 %
663 05-03-2020 14:28:17 6.3 C 42 %
664 05-03-2020 14:38:17 6.3 C 43 %
665 05-03-2020 14:48:18 6.3 C 44 %
666 05-03-2020 14:58:18 6.3 C 44 %
667 05-03-2020 15:08:18 6.3 C 45 %
668 05-03-2020 15:18:18 6.3 C 45 %
669 05-03-2020 15:28:18 6.3 C 45 %
670 05-03-2020 15:38:18 6.4 C 45 %
671 05-03-2020 15:48:17 6.5 C 45 %
672 05-03-2020 15:58:17 6.7 C 45 %
673 05-03-2020 16:08:17 6.7 C 44 %
674 05-03-2020 16:18:17 6.7 C 43 %
675 05-03-2020 16:28:17 6.5 C 43 %
Sensor: Nr:Datum:Temp:Feuchte:
Aussen-T/F 676 05-03-2020 16:38:17 6.4 C 43 %
677 05-03-2020 16:48:18 6.3 C 44 %
678 05-03-2020 16:58:18 6.2 C 45 %
679 05-03-2020 17:08:17 6.1 C 45 %
680 05-03-2020 17:18:17 6 C 45 %
681 05-03-2020 17:28:17 6 C 45 %
682 05-03-2020 17:38:17 5.9 C 46 %
683 05-03-2020 17:48:17 5.9 C 46 %
684 05-03-2020 17:58:17 5.9 C 46 %
685 05-03-2020 18:08:18 5.8 C 46 %
686 05-03-2020 18:18:17 5.9 C 46 %
687 05-03-2020 18:28:17 5.8 C 46 %
688 05-03-2020 18:38:17 5.7 C 46 %
689 05-03-2020 18:48:17 5.7 C 46 %
690 05-03-2020 18:58:17 5.7 C 46 %
691 05-03-2020 19:08:18 5.7 C 46 %
692 05-03-2020 19:18:17 5.6 C 46 %
693 05-03-2020 19:28:17 5.5 C 46 %
694 05-03-2020 19:38:17 5.5 C 46 %
695 05-03-2020 19:48:18 5.7 C 46 %
696 05-03-2020 19:58:18 5.7 C 46 %
697 05-03-2020 20:08:17 5.8 C 45 %
698 05-03-2020 20:18:17 5.9 C 45 %
699 05-03-2020 20:28:17 6.1 C 45 %
700 05-03-2020 20:38:18 6.1 C 45 %
Sensor: Nr:Datum:Temp:Feuchte:
Aussen-T/F 701 05-03-2020 20:48:17 6 C 45 %
702 05-03-2020 20:58:17 6 C 45 %
703 05-03-2020 21:08:18 6.1 C 45 %
704 05-03-2020 21:18:17 6.1 C 45 %
705 05-03-2020 21:28:17 6.1 C 45 %
706 05-03-2020 21:38:17 6.1 C 45 %
707 05-03-2020 21:48:17 6 C 45 %
708 05-03-2020 21:58:17 6.1 C 45 %
709 05-03-2020 22:08:17 6 C 45 %
710 05-03-2020 22:18:17 6.2 C 45 %
711 05-03-2020 22:28:17 6.1 C 45 %
712 05-03-2020 22:38:18 6 C 45 %
713 05-03-2020 22:48:17 6.1 C 45 %
714 05-03-2020 22:58:17 6 C 45 %
715 05-03-2020 23:08:17 6.2 C 45 %
716 05-03-2020 23:18:17 6.1 C 45 %
717 05-03-2020 23:28:18 6.1 C 45 %
718 05-03-2020 23:38:18 6.1 C 45 %
719 05-03-2020 23:48:18 6.1 C 45 %
720 05-03-2020 23:58:18 6.1 C 44 %
721 06-03-2020 00:08:17 6.1 C 44 %
722 06-03-2020 00:18:17 6.2 C 44 %
723 06-03-2020 00:28:18 6.2 C 44 %
724 06-03-2020 00:38:18 6.2 C 44 %
725 06-03-2020 00:48:17 6.3 C 44 %
Sensor: Nr:Datum:Temp:Feuchte:
Aussen-T/F 726 06-03-2020 00:58:17 6.4 C 44 %
727 06-03-2020 01:08:18 6.6 C 44 %
728 06-03-2020 01:18:17 6.7 C 44 %
729 06-03-2020 01:28:17 7 C 43 %
730 06-03-2020 01:38:18 7.1 C 43 %
731 06-03-2020 01:48:17 7.3 C 40 %
732 06-03-2020 01:58:18 6.9 C 40 %
733 06-03-2020 02:08:18 6.9 C 40 %
734 06-03-2020 02:18:18 6.9 C 40 %
735 06-03-2020 02:28:18 6.5 C 40 %
736 06-03-2020 02:38:17 6.4 C 41 %
737 06-03-2020 02:48:17 6.4 C 40 %
738 06-03-2020 02:58:17 6.4 C 40 %
739 06-03-2020 03:08:17 6.2 C 40 %
740 06-03-2020 03:18:18 6.2 C 40 %
741 06-03-2020 03:28:18 6.4 C 40 %
742 06-03-2020 03:38:18 6 C 40 %
743 06-03-2020 03:48:17 5.8 C 41 %
744 06-03-2020 03:58:18 5.6 C 43 %
745 06-03-2020 04:08:17 5.5 C 44 %
746 06-03-2020 04:18:17 5.4 C 45 %
747 06-03-2020 04:28:17 5.5 C 45 %
748 06-03-2020 04:38:18 5.4 C 45 %
749 06-03-2020 04:48:17 5.4 C 46 %
750 06-03-2020 04:58:18 5.5 C 45 %
Sensor: Nr:Datum:Temp:Feuchte:
Aussen-T/F 751 06-03-2020 05:08:18 5.6 C 44 %
752 06-03-2020 05:18:18 5.6 C 44 %
753 06-03-2020 05:28:18 5.6 C 45 %
754 06-03-2020 05:38:18 5.8 C 44 %
755 06-03-2020 05:48:17 5.8 C 44 %
756 06-03-2020 05:58:17 5.8 C 44 %
757 06-03-2020 06:08:17 5.8 C 45 %
758 06-03-2020 06:18:17 5.8 C 45 %
759 06-03-2020 06:28:17 5.9 C 45 %
760 06-03-2020 06:38:18 6 C 44 %
761 06-03-2020 06:48:17 6 C 44 %
762 06-03-2020 06:58:17 6.1 C 45 %
763 06-03-2020 07:08:17 6 C 45 %
764 06-03-2020 07:18:18 6 C 45 %
765 06-03-2020 07:28:18 6 C 45 %
766 06-03-2020 07:38:18 6 C 45 %
767 06-03-2020 07:48:17 5.9 C 45 %
768 06-03-2020 07:58:18 5.6 C 43 %
769 06-03-2020 08:08:17 5.3 C 42 %
770 06-03-2020 08:18:17 5 C 41 %
771 06-03-2020 08:28:17 4.9 C 42 %
772 06-03-2020 08:38:17 4.9 C 43 %
773 06-03-2020 08:48:18 4.8 C 44 %
774 06-03-2020 08:58:18 4.8 C 44 %
775 06-03-2020 09:08:17 4.9 C 44 %
Sensor: Nr:Datum:Temp:Feuchte:
Aussen-T/F 776 06-03-2020 09:18:17 4.9 C 43 %
777 06-03-2020 09:28:17 4.9 C 42 %
778 06-03-2020 09:38:18 4.8 C 42 %
779 06-03-2020 09:48:18 4.9 C 42 %
780 06-03-2020 09:58:18 4.8 C 41 %
781 06-03-2020 10:08:18 4.9 C 41 %
782 06-03-2020 10:18:18 4.7 C 42 %
783 06-03-2020 10:28:18 4.7 C 41 %
784 06-03-2020 10:38:18 4.7 C 41 %
785 06-03-2020 10:48:17 4.8 C 41 %
786 06-03-2020 10:58:18 4.9 C 41 %
787 06-03-2020 11:08:18 5 C 40 %
788 06-03-2020 11:18:18 5.2 C 40 %
789 06-03-2020 11:28:18 5.3 C 40 %
790 06-03-2020 11:38:18 5.1 C 40 %
791 06-03-2020 11:48:17 4.9 C 41 %
792 06-03-2020 11:58:17 4.7 C 41 %
793 06-03-2020 12:08:17 4.6 C 41 %
794 06-03-2020 12:18:17 4.5 C 41 %
795 06-03-2020 12:28:17 4.6 C 41 %
796 06-03-2020 12:38:18 4.4 C 41 %
797 06-03-2020 12:48:18 4.6 C 41 %
798 06-03-2020 12:58:18 4.5 C 41 %
799 06-03-2020 13:08:18 4.7 C 41 %
800 06-03-2020 13:18:18 5 C 40 %
Sensor: Nr:Datum:Temp:Feuchte:
Aussen-T/F 801 06-03-2020 13:28:18 5.1 C 40 %
802 06-03-2020 13:38:17 5.3 C 40 %
803 06-03-2020 13:48:17 5.1 C 40 %
804 06-03-2020 13:58:17 5 C 40 %
805 06-03-2020 14:08:17 4.8 C 41 %
806 06-03-2020 14:18:17 4.8 C 41 %
807 06-03-2020 14:28:17 4.8 C 41 %
808 06-03-2020 14:38:17 5 C 40 %
809 06-03-2020 14:48:17 5.3 C 40 %
810 06-03-2020 14:58:17 5.3 C 40 %
811 06-03-2020 15:08:17 5.4 C 39 %
812 06-03-2020 15:18:17 5.6 C 39 %
813 06-03-2020 15:28:17 5.8 C 39 %
814 06-03-2020 15:38:18 5.9 C 38 %
815 06-03-2020 15:48:17 5.8 C 38 %
816 06-03-2020 15:58:17 6 C 37 %
817 06-03-2020 16:08:17 6.1 C 37 %
818 06-03-2020 16:18:18 6.1 C 37 %
819 06-03-2020 16:28:18 6.1 C 37 %
820 06-03-2020 16:38:18 6.1 C 38 %
821 06-03-2020 16:48:17 6 C 38 %
822 06-03-2020 16:58:17 6.3 C 38 %
823 06-03-2020 17:08:18 6.5 C 38 %
824 06-03-2020 17:18:18 6.9 C 37 %
825 06-03-2020 17:28:18 6.8 C 37 %
Sensor: Nr:Datum:Temp:Feuchte:
Aussen-T/F 826 06-03-2020 17:38:18 6.8 C 37 %
827 06-03-2020 17:48:17 6.9 C 37 %
828 06-03-2020 17:58:18 6.7 C 37 %
829 06-03-2020 18:08:18 6.8 C 37 %
830 06-03-2020 18:18:18 6.6 C 37 %
831 06-03-2020 18:28:18 5.9 C 38 %
832 06-03-2020 18:38:18 6 C 37 %
833 06-03-2020 18:48:17 6.5 C 37 %
834 06-03-2020 18:58:18 6.4 C 37 %
835 06-03-2020 19:08:18 6.5 C 37 %
836 06-03-2020 19:18:18 6.3 C 37 %
837 06-03-2020 19:28:18 6.2 C 37 %
838 06-03-2020 19:38:18 6.3 C 37 %
839 06-03-2020 19:48:17 6.3 C 37 %
840 06-03-2020 19:58:17 6.2 C 36 %
841 06-03-2020 20:08:18 6.2 C 36 %
842 06-03-2020 20:18:18 5.9 C 37 %
843 06-03-2020 20:28:18 5.7 C 37 %
844 06-03-2020 20:38:18 5.5 C 38 %
845 06-03-2020 20:48:17 5.4 C 38 %
846 06-03-2020 20:58:17 5.2 C 38 %
847 06-03-2020 21:08:17 5.3 C 38 %
848 06-03-2020 21:18:18 5.1 C 38 %
849 06-03-2020 21:28:18 5.2 C 38 %
850 06-03-2020 21:38:18 5.2 C 37 %
Sensor: Nr:Datum:Temp:Feuchte:
Aussen-T/F 851 06-03-2020 21:48:17 4.9 C 38 %
852 06-03-2020 21:58:18 4.7 C 39 %
853 06-03-2020 22:08:17 4.8 C 39 %
854 06-03-2020 22:18:17 5.1 C 38 %
855 06-03-2020 22:28:18 5 C 38 %
856 06-03-2020 22:38:18 5.2 C 38 %
857 06-03-2020 22:48:17 5.3 C 38 %
858 06-03-2020 22:58:17 5.3 C 38 %
859 06-03-2020 23:08:18 5.2 C 38 %
860 06-03-2020 23:18:18 5.3 C 38 %
861 06-03-2020 23:28:18 5.2 C 37 %
862 06-03-2020 23:38:17 5.3 C 37 %
863 06-03-2020 23:48:17 5.3 C 37 %
864 06-03-2020 23:58:17 5.1 C 38 %
865 07-03-2020 00:08:17 5.1 C 37 %
866 07-03-2020 00:18:18 5.1 C 37 %
867 07-03-2020 00:28:18 5.1 C 37 %
868 07-03-2020 00:38:17 5.1 C 37 %
869 07-03-2020 00:48:17 5.1 C 37 %
870 07-03-2020 00:58:17 5 C 37 %
871 07-03-2020 01:08:17 5.1 C 38 %
872 07-03-2020 01:18:17 5.1 C 38 %
873 07-03-2020 01:28:17 5.1 C 38 %
874 07-03-2020 01:38:18 5.3 C 37 %
875 07-03-2020 01:48:18 5.2 C 38 %
Sensor: Nr:Datum:Temp:Feuchte:
Aussen-T/F 876 07-03-2020 01:58:18 5.2 C 38 %
877 07-03-2020 02:08:18 5.2 C 38 %
878 07-03-2020 02:18:17 5.3 C 38 %
879 07-03-2020 02:28:17 5.1 C 38 %
880 07-03-2020 02:38:17 5.1 C 38 %
881 07-03-2020 02:48:18 5.1 C 38 %
882 07-03-2020 02:58:18 5.1 C 38 %
883 07-03-2020 03:08:18 4.9 C 39 %
884 07-03-2020 03:18:17 4.7 C 40 %
885 07-03-2020 03:28:17 4.6 C 40 %
886 07-03-2020 03:38:17 4.7 C 40 %
887 07-03-2020 03:48:17 4.7 C 39 %
888 07-03-2020 03:58:17 4.6 C 40 %
889 07-03-2020 04:08:18 4.6 C 40 %
890 07-03-2020 04:18:17 4.7 C 40 %
891 07-03-2020 04:28:17 4.8 C 39 %
892 07-03-2020 04:38:18 4.7 C 39 %
893 07-03-2020 04:48:17 4.7 C 39 %
894 07-03-2020 04:58:18 4.7 C 39 %
895 07-03-2020 05:08:18 4.6 C 39 %
896 07-03-2020 05:18:18 4.6 C 39 %
897 07-03-2020 05:28:18 4.6 C 39 %
898 07-03-2020 05:38:18 4.6 C 39 %
899 07-03-2020 05:48:18 4.5 C 39 %
900 07-03-2020 05:58:18 4.5 C 39 %
Sensor: Nr:Datum:Temp:Feuchte:
Aussen-T/F 901 07-03-2020 06:08:17 4.6 C 39 %
902 07-03-2020 06:18:17 4.6 C 40 %
903 07-03-2020 06:28:17 4.6 C 39 %
904 07-03-2020 06:38:18 4.5 C 39 %
905 07-03-2020 06:48:17 4.5 C 39 %
906 07-03-2020 06:58:17 4.5 C 39 %
907 07-03-2020 07:08:18 4.5 C 39 %
908 07-03-2020 07:18:18 4.4 C 39 %
909 07-03-2020 07:28:18 4.4 C 39 %
910 07-03-2020 07:38:18 4.3 C 40 %
911 07-03-2020 07:48:17 4 C 40 %
912 07-03-2020 07:58:17 3.7 C 42 %
913 07-03-2020 08:08:18 3.7 C 45 %
914 07-03-2020 08:18:17 3.7 C 44 %
915 07-03-2020 08:28:17 3.9 C 43 %
916 07-03-2020 08:38:17 4 C 42 %
917 07-03-2020 08:48:17 4.4 C 41 %
918 07-03-2020 08:58:17 4.7 C 40 %
919 07-03-2020 09:08:17 5.1 C 38 %
920 07-03-2020 09:18:17 5.3 C 37 %
921 07-03-2020 09:28:17 5.6 C 37 %
922 07-03-2020 09:38:17 5.7 C 36 %
923 07-03-2020 09:48:17 6.3 C 36 %
924 07-03-2020 09:58:17 6.5 C 35 %
925 07-03-2020 10:08:17 6.1 C 35 %
Sensor: Nr:Datum:Temp:Feuchte:
Aussen-T/F 926 07-03-2020 10:18:17 5.7 C 36 %
927 07-03-2020 10:28:17 6.5 C 36 %
928 07-03-2020 10:38:17 6.4 C 35 %
929 07-03-2020 10:48:18 7 C 35 %
930 07-03-2020 10:58:18 7.3 C 35 %
931 07-03-2020 11:08:18 7.3 C 34 %
932 07-03-2020 11:18:18 7.8 C 32 %
933 07-03-2020 11:28:18 7.6 C 31 %
934 07-03-2020 11:38:18 7.8 C 30 %
935 07-03-2020 11:48:17 9.7 C 25 %
936 07-03-2020 11:58:18 7.6 C 29 %
937 07-03-2020 12:08:18 7.6 C 29 %
938 07-03-2020 12:18:18 7.8 C 29 %
939 07-03-2020 12:28:18 7.8 C 30 %
940 07-03-2020 12:38:17 8.2 C 30 %
941 07-03-2020 12:48:18 7.5 C 28 %
942 07-03-2020 12:58:18 8 C 27 %
943 07-03-2020 13:08:17 9.5 C 26 %
944 07-03-2020 13:18:18 9.1 C 21 %
945 07-03-2020 13:28:18 9.1 C 25 %
946 07-03-2020 13:38:18 8.8 C 26 %
947 07-03-2020 13:48:18 9.1 C 26 %
948 07-03-2020 13:58:18 10 C 25 %
949 07-03-2020 14:08:17 8.9 C 26 %
950 07-03-2020 14:18:17 10.5 C 20 %
Sensor: Nr:Datum:Temp:Feuchte:
Aussen-T/F 951 07-03-2020 14:28:17 10.1 C 20 %
952 07-03-2020 14:38:18 9.8 C 20 %
953 07-03-2020 14:48:17 11.6 C 20 %
954 07-03-2020 14:58:18 11.5 C 20 %
955 07-03-2020 15:08:18 12.4 C 20 %
956 07-03-2020 15:18:18 11.1 C 20 %
957 07-03-2020 15:28:18 9.8 C 20 %
958 07-03-2020 15:38:17 12.4 C 20 %
959 07-03-2020 15:48:18 10.8 C 20 %
960 07-03-2020 15:58:18 9.5 C 20 %
961 07-03-2020 16:08:17 11.7 C 20 %
962 07-03-2020 16:18:17 10.4 C 20 %
963 07-03-2020 16:28:17 9.6 C 20 %
964 07-03-2020 16:38:17 9.1 C 20 %
965 07-03-2020 16:48:18 8.9 C 20 %
966 07-03-2020 16:58:18 8.8 C 20 %
967 07-03-2020 17:08:18 8.8 C 20 %
968 07-03-2020 17:18:18 8.5 C 20 %
969 07-03-2020 17:28:18 8.5 C 20 %
970 07-03-2020 17:38:18 8.6 C 25 %
971 07-03-2020 17:48:18 8.4 C 25 %
972 07-03-2020 17:58:18 7.1 C 31 %
973 07-03-2020 18:08:17 6.7 C 31 %
974 07-03-2020 18:19:17 6.3 C 33 %
975 07-03-2020 18:28:17 5.7 C 34 %
Sensor: Nr:Datum:Temp:Feuchte:
Aussen-T/F 976 07-03-2020 18:38:18 5.2 C 35 %
977 07-03-2020 18:48:18 4.9 C 36 %
978 07-03-2020 18:58:18 5 C 35 %
979 07-03-2020 19:08:17 4.9 C 36 %
980 07-03-2020 19:18:17 4.7 C 36 %
981 07-03-2020 19:28:17 4.4 C 37 %
982 07-03-2020 19:38:17 4.5 C 37 %
983 07-03-2020 19:48:18 4.7 C 37 %
984 07-03-2020 19:58:18 4.5 C 37 %
985 07-03-2020 20:08:18 4.2 C 38 %
986 07-03-2020 20:18:17 4.4 C 38 %
987 07-03-2020 20:28:17 4.6 C 39 %
988 07-03-2020 20:38:17 4.6 C 38 %
989 07-03-2020 20:49:17 4.5 C 38 %
990 07-03-2020 20:59:17 4.5 C 38 %
991 07-03-2020 21:09:17 4.5 C 39 %
992 07-03-2020 21:18:17 4.5 C 39 %
993 07-03-2020 21:28:17 4.7 C 39 %
994 07-03-2020 21:38:17 4.7 C 38 %
995 07-03-2020 21:48:18 5.1 C 37 %
996 07-03-2020 21:58:18 5.1 C 37 %
997 07-03-2020 22:08:17 5.3 C 37 %
998 07-03-2020 22:18:18 5.5 C 36 %
999 07-03-2020 22:28:18 5.6 C 36 %
1000 07-03-2020 22:38:17 5.5 C 36 %
Sensor: Nr:Datum:Temp:Feuchte:
Aussen-T/F 1001 07-03-2020 22:49:17 5.5 C 36 %
1002 07-03-2020 22:59:17 5.8 C 36 %
1003 07-03-2020 23:09:17 6.2 C 35 %
1004 07-03-2020 23:19:17 6.3 C 35 %
1005 07-03-2020 23:29:17 6.4 C 35 %
1006 07-03-2020 23:38:17 6.4 C 34 %
1007 07-03-2020 23:48:18 6.4 C 34 %
1008 07-03-2020 23:58:18 6.5 C 34 %
1009 08-03-2020 00:08:18 6.5 C 35 %
1010 08-03-2020 00:18:18 6.4 C 35 %
1011 08-03-2020 00:28:18 6.8 C 35 %
1012 08-03-2020 00:38:18 6.7 C 35 %
1013 08-03-2020 00:48:18 7 C 34 %
1014 08-03-2020 00:58:18 7.1 C 35 %
1015 08-03-2020 01:08:17 7.1 C 34 %
1016 08-03-2020 01:18:17 6.8 C 35 %
1017 08-03-2020 01:28:17 6.9 C 35 %
1018 08-03-2020 01:38:17 6.7 C 35 %
1019 08-03-2020 01:49:17 6.9 C 35 %
1020 08-03-2020 01:59:17 6.7 C 35 %
1021 08-03-2020 02:09:17 6.8 C 35 %
1022 08-03-2020 02:19:17 7 C 35 %
1023 08-03-2020 02:29:17 6.9 C 35 %
1024 08-03-2020 02:38:17 7.3 C 35 %
1025 08-03-2020 02:48:17 7.2 C 35 %
Sensor: Nr:Datum:Temp:Feuchte:
Aussen-T/F 1026 08-03-2020 02:58:17 7 C 35 %
1027 08-03-2020 03:08:18 7.1 C 35 %
1028 08-03-2020 03:19:17 6.7 C 35 %
1029 08-03-2020 03:29:17 6.4 C 36 %
1030 08-03-2020 03:39:17 6.5 C 36 %
1031 08-03-2020 03:48:18 6.6 C 36 %
1032 08-03-2020 03:58:18 6.8 C 35 %
1033 08-03-2020 04:08:18 7 C 35 %
1034 08-03-2020 04:19:17 7.1 C 35 %
1035 08-03-2020 04:29:17 7 C 35 %
1036 08-03-2020 04:39:17 7 C 35 %
1037 08-03-2020 04:49:17 6.8 C 35 %
1038 08-03-2020 04:59:17 6.9 C 35 %
1039 08-03-2020 05:09:17 7 C 35 %
1040 08-03-2020 05:19:17 6.8 C 35 %
1041 08-03-2020 05:29:17 6.5 C 35 %
1042 08-03-2020 05:39:17 6.8 C 35 %
1043 08-03-2020 05:49:17 6.6 C 35 %
1044 08-03-2020 05:59:17 6.4 C 35 %
1045 08-03-2020 06:09:17 6.4 C 35 %
1046 08-03-2020 06:19:17 5.9 C 37 %
1047 08-03-2020 06:29:18 6.3 C 36 %
1048 08-03-2020 06:39:18 6.6 C 36 %
1049 08-03-2020 06:49:17 6.9 C 36 %
1050 08-03-2020 06:59:17 7.3 C 35 %
Sensor: Nr:Datum:Temp:Feuchte:
Aussen-T/F 1051 08-03-2020 07:09:17 7.4 C 35 %
1052 08-03-2020 07:19:17 7.7 C 35 %
1053 08-03-2020 07:29:17 7.8 C 35 %
1054 08-03-2020 07:39:17 7.9 C 35 %
1055 08-03-2020 07:49:17 8 C 35 %
1056 08-03-2020 07:59:17 8.2 C 34 %
1057 08-03-2020 08:09:17 8.2 C 34 %
1058 08-03-2020 08:19:17 8.4 C 34 %
1059 08-03-2020 08:29:17 8.6 C 34 %
1060 08-03-2020 08:39:17 8.5 C 35 %
1061 08-03-2020 08:49:17 8.6 C 34 %
1062 08-03-2020 08:59:17 8.6 C 34 %
1063 08-03-2020 09:09:17 8.6 C 34 %
1064 08-03-2020 09:19:17 8.8 C 34 %
1065 08-03-2020 09:29:18 9.2 C 33 %
1066 08-03-2020 09:39:17 9.6 C 33 %
1067 08-03-2020 09:49:17 10.3 C 32 %
1068 08-03-2020 09:59:17 10.2 C 32 %
1069 08-03-2020 10:09:17 9.9 C 33 %
1070 08-03-2020 10:19:17 10.1 C 32 %
1071 08-03-2020 10:29:17 10.1 C 32 %
1072 08-03-2020 10:39:17 11.4 C 30 %
1073 08-03-2020 10:49:17 11.2 C 30 %
1074 08-03-2020 10:59:18 11.9 C 30 %
1075 08-03-2020 11:09:17 11.9 C 28 %
Sensor: Nr:Datum:Temp:Feuchte:
Aussen-T/F 1076 08-03-2020 11:19:16 11.9 C 29 %
1077 08-03-2020 11:29:16 12.1 C 27 %
1078 08-03-2020 11:39:17 12.5 C 26 %
1079 08-03-2020 11:49:16 12.5 C 26 %
1080 08-03-2020 11:59:16 13.4 C 25 %
1081 08-03-2020 12:09:17 12.8 C 25 %
1082 08-03-2020 12:19:17 13.1 C 25 %
1083 08-03-2020 12:29:17 13.5 C 23 %
1084 08-03-2020 12:39:17 13.2 C 24 %
1085 08-03-2020 12:49:17 14.1 C 22 %
1086 08-03-2020 12:59:18 13.2 C 22 %
1087 08-03-2020 13:09:17 12.2 C 25 %
1088 08-03-2020 13:19:16 12.3 C 25 %
1089 08-03-2020 13:29:16 12.3 C 25 %
1090 08-03-2020 13:39:16 12.7 C 25 %
1091 08-03-2020 13:49:17 12.7 C 25 %
1092 08-03-2020 13:59:17 12.5 C 25 %
1093 08-03-2020 14:09:17 13 C 23 %
1094 08-03-2020 14:19:16 12.8 C 25 %
1095 08-03-2020 14:29:16 12.5 C 25 %
1096 08-03-2020 14:39:16 12.8 C 25 %
1097 08-03-2020 14:49:16 12.7 C 25 %
1098 08-03-2020 14:59:16 12.3 C 25 %
1099 08-03-2020 15:09:16 12.8 C 25 %
1100 08-03-2020 15:19:17 12.5 C 25 %
Sensor: Nr:Datum:Temp:Feuchte:
Aussen-T/F 1101 08-03-2020 15:29:17 12.5 C 25 %
1102 08-03-2020 15:39:17 12.1 C 25 %
1103 08-03-2020 15:49:17 12 C 25 %
1104 08-03-2020 15:59:17 12.1 C 25 %
1105 08-03-2020 16:09:17 12.5 C 25 %
1106 08-03-2020 16:19:17 12.4 C 25 %
1107 08-03-2020 16:29:17 12.1 C 25 %
1108 08-03-2020 16:39:17 12.2 C 26 %
1109 08-03-2020 16:49:17 12.2 C 26 %
1110 08-03-2020 16:59:17 12 C 26 %
1111 08-03-2020 17:09:17 12.6 C 25 %
1112 08-03-2020 17:19:17 12.4 C 26 %
1113 08-03-2020 17:29:17 12.3 C 26 %
1114 08-03-2020 17:39:17 12 C 26 %
1115 08-03-2020 17:49:16 11.5 C 28 %
1116 08-03-2020 17:59:16 11.4 C 29 %
1117 08-03-2020 18:09:17 11.1 C 30 %
1118 08-03-2020 18:19:17 10.9 C 31 %
1119 08-03-2020 18:29:18 10.7 C 31 %
1120 08-03-2020 18:39:17 10.4 C 32 %
1121 08-03-2020 18:49:16 10.2 C 32 %
1122 08-03-2020 18:59:16 9.6 C 35 %
1123 08-03-2020 19:09:17 9.9 C 35 %
1124 08-03-2020 19:19:16 9.8 C 35 %
1125 08-03-2020 19:29:16 9.6 C 36 %
Sensor: Nr:Datum:Temp:Feuchte:
Aussen-T/F 1126 08-03-2020 19:39:17 9.4 C 36 %
1127 08-03-2020 19:49:16 9.5 C 36 %
1128 08-03-2020 19:59:16 9.5 C 36 %
1129 08-03-2020 20:09:16 9.4 C 36 %
1130 08-03-2020 20:19:16 9.3 C 36 %
1131 08-03-2020 20:29:16 9.3 C 37 %
1132 08-03-2020 20:39:17 9.2 C 37 %
1133 08-03-2020 20:49:16 9.2 C 37 %
1134 08-03-2020 20:59:16 9 C 37 %
1135 08-03-2020 21:09:17 9 C 37 %
1136 08-03-2020 21:19:17 9.1 C 37 %
1137 08-03-2020 21:29:17 9.1 C 37 %
1138 08-03-2020 21:39:17 9.3 C 37 %
1139 08-03-2020 21:49:17 9.3 C 37 %
1140 08-03-2020 21:59:17 9.3 C 37 %
1141 08-03-2020 22:09:17 9.3 C 37 %
1142 08-03-2020 22:19:16 9.3 C 37 %
1143 08-03-2020 22:29:16 8.9 C 37 %
1144 08-03-2020 22:39:17 9.2 C 37 %
1145 08-03-2020 22:49:16 8.7 C 37 %
1146 08-03-2020 22:59:16 9 C 37 %
1147 08-03-2020 23:09:16 9.3 C 37 %
1148 08-03-2020 23:19:16 7.9 C 39 %
1149 08-03-2020 23:29:16 7.8 C 40 %
1150 08-03-2020 23:39:16 7.9 C 40 %
Sensor: Nr:Datum:Temp:Feuchte:
Aussen-T/F 1151 08-03-2020 23:49:16 7.9 C 39 %
1152 08-03-2020 23:59:16 7.6 C 40 %
1153 09-03-2020 00:09:17 7.3 C 41 %
1154 09-03-2020 00:19:16 7 C 41 %
1155 09-03-2020 00:29:16 6.8 C 43 %
1156 09-03-2020 00:39:16 6.8 C 44 %
1157 09-03-2020 00:49:16 6.6 C 45 %
1158 09-03-2020 00:59:16 6.8 C 43 %
1159 09-03-2020 01:09:16 6.9 C 42 %
1160 09-03-2020 01:19:16 6.9 C 43 %
1161 09-03-2020 01:29:16 6.7 C 45 %
1162 09-03-2020 01:39:16 6.8 C 43 %
1163 09-03-2020 01:49:16 6.9 C 42 %
1164 09-03-2020 01:59:16 6.7 C 43 %
1165 09-03-2020 02:09:16 6.6 C 43 %
1166 09-03-2020 02:19:16 6.4 C 44 %
1167 09-03-2020 02:29:16 6.3 C 45 %
1168 09-03-2020 02:39:16 6.2 C 45 %
1169 09-03-2020 02:49:17 6.4 C 45 %
1170 09-03-2020 02:59:17 6.4 C 44 %
1171 09-03-2020 03:09:17 6.1 C 44 %
1172 09-03-2020 03:19:17 6.5 C 43 %
1173 09-03-2020 03:29:17 6.7 C 42 %
1174 09-03-2020 03:39:17 6.4 C 42 %
1175 09-03-2020 03:49:17 6.2 C 43 %
Sensor: Nr:Datum:Temp:Feuchte:
Aussen-T/F 1176 09-03-2020 03:59:17 6 C 44 %
1177 09-03-2020 04:09:17 5.7 C 45 %
1178 09-03-2020 04:19:17 5.5 C 45 %
1179 09-03-2020 04:29:17 6.1 C 44 %
1180 09-03-2020 04:39:18 6.3 C 43 %
1181 09-03-2020 04:49:17 6.2 C 43 %
1182 09-03-2020 04:59:17 6.2 C 43 %
1183 09-03-2020 05:09:18 6.2 C 43 %
1184 09-03-2020 05:19:17 6 C 43 %
1185 09-03-2020 05:29:17 5.8 C 44 %
1186 09-03-2020 05:39:17 5.6 C 44 %
1187 09-03-2020 05:49:17 5.2 C 44 %
1188 09-03-2020 05:59:17 5.3 C 43 %
1189 09-03-2020 06:09:17 5 C 43 %
1190 09-03-2020 06:19:17 5.2 C 43 %
1191 09-03-2020 06:29:17 5.1 C 43 %
1192 09-03-2020 06:39:18 5.4 C 42 %
1193 09-03-2020 06:49:17 5.7 C 41 %
1194 09-03-2020 06:59:18 5.7 C 41 %
1195 09-03-2020 07:09:18 5 C 42 %
1196 09-03-2020 07:19:18 4.7 C 44 %
1197 09-03-2020 07:29:18 5.7 C 42 %
1198 09-03-2020 07:39:17 5.8 C 41 %
1199 09-03-2020 07:49:17 5.4 C 41 %
1200 09-03-2020 07:59:17 5.4 C 42 %
Sensor: Nr:Datum:Temp:Feuchte:
Aussen-T/F 1201 09-03-2020 08:09:17 5.4 C 42 %
1202 09-03-2020 08:19:17 5 C 43 %
1203 09-03-2020 08:29:17 5.3 C 43 %
1204 09-03-2020 08:39:18 6.1 C 41 %
1205 09-03-2020 08:49:17 6.8 C 40 %
1206 09-03-2020 08:59:17 7.3 C 38 %
1207 09-03-2020 09:09:17 7.4 C 38 %
1208 09-03-2020 09:19:17 7.7 C 37 %
1209 09-03-2020 09:29:17 8 C 37 %
1210 09-03-2020 09:39:17 8.1 C 37 %
1211 09-03-2020 09:49:17 8 C 37 %
1212 09-03-2020 09:59:17 7.8 C 37 %
1213 09-03-2020 10:09:17 8.3 C 36 %
1214 09-03-2020 10:19:17 8.2 C 36 %
1215 09-03-2020 10:29:17 8.5 C 36 %
1216 09-03-2020 10:39:17 8.6 C 36 %
1217 09-03-2020 10:49:17 8.5 C 36 %
1218 09-03-2020 10:59:17 8.1 C 36 %
1219 09-03-2020 11:09:17 8.1 C 36 %
1220 09-03-2020 11:19:17 8.5 C 36 %
1221 09-03-2020 11:29:17 9.7 C 34 %
1222 09-03-2020 11:39:17 9.1 C 34 %
1223 09-03-2020 11:49:17 10.1 C 33 %
1224 09-03-2020 11:59:17 10.6 C 29 %
1225 09-03-2020 12:09:18 10.9 C 27 %
Sensor: Nr:Datum:Temp:Feuchte:
Aussen-T/F 1226 09-03-2020 12:19:18 11.2 C 25 %
1227 09-03-2020 12:29:18 10.1 C 26 %
1228 09-03-2020 12:39:18 10.3 C 26 %
1229 09-03-2020 12:49:17 11 C 25 %
1230 09-03-2020 12:59:17 10.1 C 26 %
1231 09-03-2020 13:09:17 11.6 C 26 %
1232 09-03-2020 13:19:17 9.8 C 29 %
1233 09-03-2020 13:29:17 9.5 C 31 %
1234 09-03-2020 13:39:17 10.5 C 30 %
1235 09-03-2020 13:49:17 10.4 C 29 %
1236 09-03-2020 13:59:17 10.5 C 29 %
1237 09-03-2020 14:09:17 11.6 C 27 %
1238 09-03-2020 14:19:17 11.5 C 26 %
1239 09-03-2020 14:29:17 10.4 C 27 %
1240 09-03-2020 14:39:17 11.6 C 26 %
1241 09-03-2020 14:49:17 12.8 C 20 %
1242 09-03-2020 14:59:17 13.6 C 20 %
1243 09-03-2020 15:09:18 12.6 C 20 %
1244 09-03-2020 15:19:18 13 C 20 %
1245 09-03-2020 15:29:18 12.9 C 20 %
1246 09-03-2020 15:39:18 14.4 C 20 %
1247 09-03-2020 15:49:17 14 C 20 %
1248 09-03-2020 15:59:17 12.5 C 20 %
1249 09-03-2020 16:09:18 11.2 C 20 %
1250 09-03-2020 16:19:17 10.5 C 22 %
Sensor: Nr:Datum:Temp:Feuchte:
Aussen-T/F 1251 09-03-2020 16:29:17 10.7 C 23 %
1252 09-03-2020 16:39:17 13.3 C 20 %
1253 09-03-2020 16:49:17 14.2 C 20 %
1254 09-03-2020 16:59:18 14.1 C 20 %
1255 09-03-2020 17:09:18 12.2 C 20 %
1256 09-03-2020 17:19:17 10.1 C 20 %
1257 09-03-2020 17:29:17 9.9 C 25 %
1258 09-03-2020 17:39:18 9.8 C 25 %
1259 09-03-2020 17:49:17 9.7 C 27 %
1260 09-03-2020 17:59:18 9.7 C 26 %
1261 09-03-2020 18:09:18 9.5 C 27 %
1262 09-03-2020 18:19:17 9.2 C 28 %
1263 09-03-2020 18:29:17 8.9 C 30 %
1264 09-03-2020 18:39:17 8.7 C 30 %
1265 09-03-2020 18:49:17 8.1 C 30 %
1266 09-03-2020 18:59:17 7.7 C 32 %
1267 09-03-2020 19:09:18 7.5 C 33 %
1268 09-03-2020 19:19:17 7.4 C 33 %
1269 09-03-2020 19:29:17 7.6 C 33 %
1270 09-03-2020 19:39:17 7.4 C 34 %
1271 09-03-2020 19:49:18 7.3 C 33 %
1272 09-03-2020 19:59:18 7.2 C 34 %
1273 09-03-2020 20:09:17 6.5 C 36 %
1274 09-03-2020 20:19:17 6.9 C 35 %
1275 09-03-2020 20:29:17 6.5 C 36 %
Sensor: Nr:Datum:Temp:Feuchte:
Aussen-T/F 1276 09-03-2020 20:39:18 6.5 C 36 %
1277 09-03-2020 20:49:18 6.7 C 36 %
1278 09-03-2020 20:59:18 6.8 C 35 %
1279 09-03-2020 21:09:17 5.9 C 37 %
1280 09-03-2020 21:19:17 5.6 C 38 %
1281 09-03-2020 21:29:17 5.5 C 38 %
1282 09-03-2020 21:39:17 5.4 C 38 %
1283 09-03-2020 21:49:18 5.4 C 38 %
1284 09-03-2020 21:59:18 5.6 C 38 %
1285 09-03-2020 22:09:18 5.4 C 38 %
1286 09-03-2020 22:19:17 5.6 C 38 %
1287 09-03-2020 22:29:17 5.8 C 38 %
1288 09-03-2020 22:39:17 5.8 C 38 %
1289 09-03-2020 22:49:17 5.4 C 38 %
1290 09-03-2020 22:59:17 5.1 C 39 %
1291 09-03-2020 23:09:18 5.1 C 39 %
1292 09-03-2020 23:19:17 5.2 C 39 %
1293 09-03-2020 23:29:17 5 C 39 %
1294 09-03-2020 23:39:17 4.6 C 40 %
1295 09-03-2020 23:49:17 4.6 C 41 %
1296 09-03-2020 23:59:17 4.5 C 41 %
1297 10-03-2020 00:09:17 4.6 C 41 %
1298 10-03-2020 00:19:18 4.7 C 41 %
1299 10-03-2020 00:29:18 5.1 C 40 %
1300 10-03-2020 00:39:18 5.5 C 40 %
Sensor: Nr:Datum:Temp:Feuchte:
Aussen-T/F 1301 10-03-2020 00:49:18 5.5 C 40 %
1302 10-03-2020 00:59:18 5.8 C 39 %
1303 10-03-2020 01:09:18 5.8 C 39 %
1304 10-03-2020 01:19:17 5.9 C 39 %
1305 10-03-2020 01:29:18 6 C 38 %
1306 10-03-2020 01:39:18 6.3 C 38 %
1307 10-03-2020 01:49:17 6.7 C 37 %
1308 10-03-2020 01:59:17 6.6 C 37 %
1309 10-03-2020 02:09:18 6.7 C 37 %
1310 10-03-2020 02:19:17 6.6 C 37 %
1311 10-03-2020 02:29:18 6.7 C 37 %
1312 10-03-2020 02:39:18 6.8 C 37 %
1313 10-03-2020 02:49:17 6.9 C 37 %
1314 10-03-2020 02:59:17 7.1 C 37 %
1315 10-03-2020 03:09:18 6.6 C 38 %
1316 10-03-2020 03:19:18 6.5 C 38 %
1317 10-03-2020 03:29:18 6.3 C 39 %
1318 10-03-2020 03:39:18 6.2 C 39 %
1319 10-03-2020 03:49:17 6 C 40 %
1320 10-03-2020 03:59:17 6 C 40 %
1321 10-03-2020 04:09:17 5.8 C 40 %
1322 10-03-2020 04:19:17 5.8 C 40 %
1323 10-03-2020 04:29:17 5.6 C 41 %
1324 10-03-2020 04:39:17 5.9 C 40 %
1325 10-03-2020 04:49:17 5.6 C 41 %
Sensor: Nr:Datum:Temp:Feuchte:
Aussen-T/F 1326 10-03-2020 04:59:17 5.5 C 41 %
1327 10-03-2020 05:09:17 5.5 C 41 %
1328 10-03-2020 05:19:17 5.2 C 41 %
1329 10-03-2020 05:29:18 5.2 C 41 %
1330 10-03-2020 05:39:18 5.1 C 42 %
1331 10-03-2020 05:49:18 5.1 C 42 %
1332 10-03-2020 05:59:18 5 C 42 %
1333 10-03-2020 06:09:17 4.9 C 43 %
1334 10-03-2020 06:19:17 5 C 42 %
1335 10-03-2020 06:29:17 4.9 C 43 %
1336 10-03-2020 06:39:18 5 C 44 %
1337 10-03-2020 06:49:17 5.1 C 43 %
1338 10-03-2020 06:59:17 5 C 43 %
1339 10-03-2020 07:09:18 5.1 C 42 %
1340 10-03-2020 07:19:18 5.3 C 42 %
1341 10-03-2020 07:29:18 5.8 C 41 %
1342 10-03-2020 07:39:18 5.8 C 42 %
1343 10-03-2020 07:49:18 5.7 C 41 %
1344 10-03-2020 07:59:18 5.9 C 41 %
1345 10-03-2020 08:09:18 6 C 41 %
1346 10-03-2020 08:19:18 6 C 41 %
1347 10-03-2020 08:29:18 6.3 C 41 %
1348 10-03-2020 08:39:18 6.5 C 40 %
1349 10-03-2020 08:49:18 6.3 C 41 %
1350 10-03-2020 08:59:18 6.5 C 41 %
Sensor: Nr:Datum:Temp:Feuchte:
Aussen-T/F 1351 10-03-2020 09:09:17 6.6 C 41 %
1352 10-03-2020 09:19:17 6.6 C 41 %
1353 10-03-2020 09:29:17 6.7 C 42 %
1354 10-03-2020 09:39:17 6.8 C 42 %
1355 10-03-2020 09:49:17 6.9 C 42 %
1356 10-03-2020 09:59:17 7.1 C 41 %
1357 10-03-2020 10:09:18 7.2 C 41 %
1358 10-03-2020 10:19:18 7.3 C 41 %
1359 10-03-2020 10:29:18 7.4 C 41 %
1360 10-03-2020 10:39:18 7.5 C 41 %
1361 10-03-2020 10:49:18 7.8 C 41 %
1362 10-03-2020 10:59:18 7.9 C 41 %
1363 10-03-2020 11:09:18 8.1 C 41 %
1364 10-03-2020 11:19:18 8.2 C 40 %
1365 10-03-2020 11:29:18 8.4 C 40 %
1366 10-03-2020 11:39:18 8.5 C 41 %
1367 10-03-2020 11:49:17 8.7 C 41 %
1368 10-03-2020 11:59:17 8.9 C 41 %
1369 10-03-2020 12:09:17 8.9 C 40 %
1370 10-03-2020 12:19:17 8.9 C 41 %
1371 10-03-2020 12:29:18 9 C 41 %
1372 10-03-2020 12:39:18 9.1 C 41 %
1373 10-03-2020 12:49:17 9.1 C 41 %
1374 10-03-2020 12:59:17 9.3 C 41 %
1375 10-03-2020 13:09:18 9.4 C 40 %
Sensor: Nr:Datum:Temp:Feuchte:
Aussen-T/F 1376 10-03-2020 13:19:17 9.5 C 41 %
1377 10-03-2020 13:29:18 9.5 C 41 %
1378 10-03-2020 13:39:18 9.5 C 41 %
1379 10-03-2020 13:49:17 9.7 C 41 %
1380 10-03-2020 13:59:18 9.8 C 41 %
1381 10-03-2020 14:09:18 9.9 C 41 %
1382 10-03-2020 14:19:18 10.2 C 40 %
1383 10-03-2020 14:29:18 10.5 C 40 %
1384 10-03-2020 14:39:18 10.8 C 40 %
1385 10-03-2020 14:49:17 10.9 C 40 %
1386 10-03-2020 14:59:17 11.3 C 38 %
1387 10-03-2020 15:09:18 11.3 C 38 %
1388 10-03-2020 15:19:18 11.4 C 38 %
1389 10-03-2020 15:29:18 11.8 C 38 %
1390 10-03-2020 15:39:18 12.3 C 37 %
1391 10-03-2020 15:49:17 12.3 C 36 %
1392 10-03-2020 15:59:18 12.5 C 37 %
1393 10-03-2020 16:09:18 13 C 35 %
1394 10-03-2020 16:19:18 12.6 C 36 %
1395 10-03-2020 16:29:18 12.5 C 37 %
1396 10-03-2020 16:39:18 12.4 C 37 %
1397 10-03-2020 16:49:17 12.5 C 37 %
1398 10-03-2020 16:59:18 12.5 C 37 %
1399 10-03-2020 17:09:18 12.7 C 37 %
1400 10-03-2020 17:19:17 12.6 C 37 %
Sensor: Nr:Datum:Temp:Feuchte:
Aussen-T/F 1401 10-03-2020 17:29:18 12.7 C 37 %
1402 10-03-2020 17:39:18 12.6 C 37 %
1403 10-03-2020 17:49:17 12.5 C 37 %
1404 10-03-2020 17:59:18 12.5 C 38 %
1405 10-03-2020 18:09:18 12.3 C 38 %
1406 10-03-2020 18:19:17 12.3 C 38 %
1407 10-03-2020 18:29:18 12.3 C 38 %
1408 10-03-2020 18:39:18 12.5 C 38 %
1409 10-03-2020 18:49:17 12.4 C 38 %
1410 10-03-2020 18:59:17 12.3 C 38 %
1411 10-03-2020 19:09:18 12.5 C 38 %
1412 10-03-2020 19:19:17 12.3 C 38 %
1413 10-03-2020 19:29:17 12.4 C 38 %
1414 10-03-2020 19:39:17 12.5 C 38 %
1415 10-03-2020 19:49:17 12.5 C 38 %
1416 10-03-2020 19:59:17 12.5 C 38 %
1417 10-03-2020 20:09:17 12.5 C 38 %
1418 10-03-2020 20:19:17 12.7 C 38 %
1419 10-03-2020 20:29:18 12.8 C 38 %
1420 10-03-2020 20:39:18 12.8 C 38 %
1421 10-03-2020 20:49:17 12.9 C 38 %
1422 10-03-2020 20:59:17 13.1 C 37 %
1423 10-03-2020 21:09:18 12.8 C 38 %
1424 10-03-2020 21:19:17 13.2 C 37 %
1425 10-03-2020 21:29:18 13.2 C 37 %
Sensor: Nr:Datum:Temp:Feuchte:
Aussen-T/F 1426 10-03-2020 21:39:18 13.2 C 37 %
1427 10-03-2020 21:49:17 13.2 C 37 %
1428 10-03-2020 21:59:18 13.1 C 37 %
1429 10-03-2020 22:09:18 12.8 C 39 %
1430 10-03-2020 22:19:18 12.5 C 40 %
1431 10-03-2020 22:29:18 12.5 C 40 %
1432 10-03-2020 22:39:18 12.7 C 40 %
1433 10-03-2020 22:49:17 12.5 C 40 %
1434 10-03-2020 22:59:17 12.5 C 40 %
1435 10-03-2020 23:09:18 12.8 C 40 %
1436 10-03-2020 23:19:18 12.8 C 39 %
1437 10-03-2020 23:29:18 12.8 C 39 %
1438 10-03-2020 23:39:18 12.8 C 39 %
1439 10-03-2020 23:49:17 12.9 C 39 %
1440 10-03-2020 23:59:17 13.1 C 37 %
1441 11-03-2020 00:09:17 13.5 C 36 %
1442 11-03-2020 00:19:17 13.5 C 36 %
1443 11-03-2020 00:29:17 13.6 C 36 %
1444 11-03-2020 00:39:18 13.7 C 36 %
1445 11-03-2020 00:49:17 13.7 C 36 %
1446 11-03-2020 00:59:17 13.7 C 36 %
1447 11-03-2020 01:09:17 13.5 C 36 %
1448 11-03-2020 01:19:17 13.4 C 37 %
1449 11-03-2020 01:29:17 13.4 C 37 %
1450 11-03-2020 01:39:17 13.3 C 37 %
Sensor: Nr:Datum:Temp:Feuchte:
Aussen-T/F 1451 11-03-2020 01:49:17 13 C 38 %
1452 11-03-2020 01:59:17 12.9 C 39 %
1453 11-03-2020 02:09:17 13.2 C 38 %
1454 11-03-2020 02:19:17 13.1 C 38 %
1455 11-03-2020 02:29:17 13.1 C 38 %
1456 11-03-2020 02:39:17 13.2 C 37 %
1457 11-03-2020 02:49:17 13.4 C 37 %
1458 11-03-2020 02:59:17 13.5 C 37 %
1459 11-03-2020 03:09:17 13.1 C 37 %
1460 11-03-2020 03:19:18 13 C 38 %
1461 11-03-2020 03:29:18 13.2 C 37 %
1462 11-03-2020 03:39:18 13.4 C 37 %
1463 11-03-2020 03:49:17 13.5 C 37 %
1464 11-03-2020 03:59:18 13.4 C 37 %
1465 11-03-2020 04:09:18 13.4 C 37 %
1466 11-03-2020 04:19:18 13.4 C 37 %
1467 11-03-2020 04:29:18 13.4 C 37 %
1468 11-03-2020 04:39:17 13.4 C 37 %
1469 11-03-2020 04:49:17 13.5 C 36 %
1470 11-03-2020 04:59:17 13.4 C 37 %
1471 11-03-2020 05:09:17 13.1 C 37 %
1472 11-03-2020 05:19:17 13.1 C 37 %
1473 11-03-2020 05:29:17 13.1 C 37 %
1474 11-03-2020 05:39:17 13.1 C 37 %
1475 11-03-2020 05:49:18 13 C 37 %
Sensor: Nr:Datum:Temp:Feuchte:
Aussen-T/F 1476 11-03-2020 05:59:18 12.9 C 38 %
1477 11-03-2020 06:09:18 13.1 C 37 %
1478 11-03-2020 06:19:17 13.2 C 37 %
1479 11-03-2020 06:29:17 13.2 C 36 %
1480 11-03-2020 06:39:18 13.2 C 36 %
1481 11-03-2020 06:49:17 13.6 C 36 %
1482 11-03-2020 06:59:17 13.4 C 36 %
1483 11-03-2020 07:09:17 13.2 C 36 %
1484 11-03-2020 07:19:17 13.1 C 36 %
1485 11-03-2020 07:29:17 13.1 C 36 %
1486 11-03-2020 07:39:17 13.1 C 36 %
1487 11-03-2020 07:49:17 13.1 C 36 %
1488 11-03-2020 07:59:18 12.9 C 37 %
1489 11-03-2020 08:09:18 12.8 C 37 %
1490 11-03-2020 08:19:18 12.6 C 37 %
1491 11-03-2020 08:29:18 12.6 C 37 %
1492 11-03-2020 08:39:18 12.7 C 37 %
1493 11-03-2020 08:49:18 12.8 C 37 %
1494 11-03-2020 08:59:18 12.7 C 37 %
1495 11-03-2020 09:09:18 13 C 36 %
1496 11-03-2020 09:19:18 13.2 C 36 %
1497 11-03-2020 09:29:18 13.6 C 36 %
1498 11-03-2020 09:39:18 13.8 C 36 %
1499 11-03-2020 09:49:18 14 C 35 %
1500 11-03-2020 09:59:18 13.9 C 35 %
Sensor: Nr:Datum:Temp:Feuchte:
Aussen-T/F 1501 11-03-2020 10:09:18 13.7 C 36 %
1502 11-03-2020 10:19:17 13.8 C 36 %
1503 11-03-2020 10:29:17 14 C 35 %
1504 11-03-2020 10:39:18 14.3 C 35 %
1505 11-03-2020 10:49:18 14.4 C 35 %
1506 11-03-2020 10:59:18 14.5 C 35 %
1507 11-03-2020 11:09:17 14.9 C 35 %
1508 11-03-2020 11:19:17 14.6 C 35 %
1509 11-03-2020 11:29:17 15.8 C 33 %
1510 11-03-2020 11:39:17 15.8 C 33 %
1511 11-03-2020 11:49:17 15.6 C 33 %
1512 11-03-2020 11:59:17 15.9 C 33 %
1513 11-03-2020 12:09:18 15.9 C 33 %
1514 11-03-2020 12:19:18 16.4 C 32 %
1515 11-03-2020 12:29:18 16.5 C 32 %
1516 11-03-2020 12:39:18 16.3 C 32 %
1517 11-03-2020 12:49:18 16.5 C 32 %
1518 11-03-2020 12:59:18 16.3 C 32 %
1519 11-03-2020 13:09:17 16 C 32 %
1520 11-03-2020 13:19:17 17 C 31 %
1521 11-03-2020 13:29:17 16.8 C 31 %
1522 11-03-2020 13:39:17 17.7 C 31 %
1523 11-03-2020 13:49:17 15.8 C 32 %
1524 11-03-2020 13:59:17 16.1 C 31 %
1525 11-03-2020 14:09:17 16.3 C 31 %
Sensor: Nr:Datum:Temp:Feuchte:
Aussen-T/F 1526 11-03-2020 14:19:17 16.1 C 31 %
1527 11-03-2020 14:29:17 16.6 C 31 %
1528 11-03-2020 14:39:17 15.7 C 31 %
1529 11-03-2020 14:49:17 16.2 C 31 %
1530 11-03-2020 14:59:17 15.8 C 31 %
1531 11-03-2020 15:09:17 16.5 C 31 %
1532 11-03-2020 15:19:17 15.6 C 32 %
1533 11-03-2020 15:29:18 16.4 C 31 %
1534 11-03-2020 15:39:18 17.5 C 30 %
1535 11-03-2020 15:49:17 15.1 C 32 %
1536 11-03-2020 15:59:17 15.6 C 33 %
1537 11-03-2020 16:09:18 15 C 33 %
1538 11-03-2020 16:19:18 14.7 C 35 %
1539 11-03-2020 16:29:18 15.1 C 34 %
1540 11-03-2020 16:39:17 14.5 C 35 %
1541 11-03-2020 16:49:18 14.5 C 35 %
1542 11-03-2020 16:59:18 14.5 C 34 %
1543 11-03-2020 17:09:18 14.1 C 35 %
1544 11-03-2020 17:19:18 14 C 35 %
1545 11-03-2020 17:29:18 13.2 C 38 %
1546 11-03-2020 17:39:17 13.2 C 38 %
1547 11-03-2020 17:49:18 13.2 C 38 %
1548 11-03-2020 17:59:18 13.4 C 37 %
1549 11-03-2020 18:09:18 13.5 C 37 %
1550 11-03-2020 18:19:17 13.5 C 36 %
Sensor: Nr:Datum:Temp:Feuchte:
Aussen-T/F 1551 11-03-2020 18:29:17 13.3 C 36 %
1552 11-03-2020 18:39:17 13.4 C 36 %
1553 11-03-2020 18:49:17 13.5 C 36 %
1554 11-03-2020 18:59:17 13.4 C 36 %
1555 11-03-2020 19:09:17 13.2 C 37 %
1556 11-03-2020 19:19:17 13.1 C 37 %
1557 11-03-2020 19:29:17 13.1 C 37 %
1558 11-03-2020 19:39:18 13.4 C 36 %
1559 11-03-2020 19:49:17 13.3 C 36 %
1560 11-03-2020 19:59:17 13.2 C 36 %
1561 11-03-2020 20:09:17 13.4 C 36 %
1562 11-03-2020 20:19:17 13.6 C 36 %
1563 11-03-2020 20:29:18 13.6 C 36 %
1564 11-03-2020 20:39:18 13.6 C 36 %
1565 11-03-2020 20:49:17 13.5 C 36 %
1566 11-03-2020 20:59:17 13.3 C 36 %
1567 11-03-2020 21:09:18 13.2 C 36 %
1568 11-03-2020 21:19:17 13.4 C 36 %
1569 11-03-2020 21:29:17 13.5 C 36 %
1570 11-03-2020 21:39:18 13.7 C 36 %
1571 11-03-2020 21:49:17 14 C 35 %
1572 11-03-2020 21:59:17 14 C 35 %
1573 11-03-2020 22:09:18 14.1 C 34 %
1574 11-03-2020 22:19:18 14 C 34 %
1575 11-03-2020 22:29:18 13.9 C 35 %
Sensor: Nr:Datum:Temp:Feuchte:
Aussen-T/F 1576 11-03-2020 22:39:17 13.9 C 35 %
1577 11-03-2020 22:49:18 13.8 C 35 %
1578 11-03-2020 22:59:18 13.8 C 35 %
1579 11-03-2020 23:09:18 13.8 C 34 %
1580 11-03-2020 23:19:18 13.9 C 34 %
1581 11-03-2020 23:29:18 13.8 C 34 %
1582 11-03-2020 23:39:17 13.8 C 34 %
1583 11-03-2020 23:49:17 13.8 C 34 %
1584 11-03-2020 23:59:17 13.7 C 34 %
1585 12-03-2020 00:09:17 13.6 C 34 %
1586 12-03-2020 00:19:17 13.6 C 34 %
1587 12-03-2020 00:29:17 13.6 C 34 %
1588 12-03-2020 00:39:18 13.7 C 34 %
1589 12-03-2020 00:49:17 13.8 C 34 %
1590 12-03-2020 00:59:17 13.9 C 34 %
1591 12-03-2020 01:09:18 13.9 C 34 %
1592 12-03-2020 01:19:17 13.8 C 34 %
1593 12-03-2020 01:29:17 13.9 C 34 %
1594 12-03-2020 01:39:18 13.8 C 34 %
1595 12-03-2020 01:49:17 13.7 C 34 %
1596 12-03-2020 01:59:17 13.8 C 34 %
1597 12-03-2020 02:09:18 13.7 C 34 %
1598 12-03-2020 02:19:17 13.7 C 34 %
1599 12-03-2020 02:29:18 13.6 C 34 %
1600 12-03-2020 02:39:18 13.6 C 33 %
Sensor: Nr:Datum:Temp:Feuchte:
Aussen-T/F 1601 12-03-2020 02:49:18 13.6 C 33 %
1602 12-03-2020 02:59:18 13.5 C 33 %
1603 12-03-2020 03:09:18 13.5 C 33 %
1604 12-03-2020 03:19:18 13.5 C 32 %
1605 12-03-2020 03:29:18 13.5 C 32 %
1606 12-03-2020 03:39:17 13.4 C 32 %
1607 12-03-2020 03:49:17 13.2 C 32 %
1608 12-03-2020 03:59:17 13.1 C 32 %
1609 12-03-2020 04:09:17 13.1 C 32 %
1610 12-03-2020 04:19:17 13.1 C 32 %
1611 12-03-2020 04:29:17 13 C 32 %
1612 12-03-2020 04:39:17 13 C 32 %
1613 12-03-2020 04:49:17 13 C 32 %
1614 12-03-2020 04:59:17 13 C 32 %
1615 12-03-2020 05:09:17 12.7 C 33 %
1616 12-03-2020 05:19:17 12.7 C 33 %
1617 12-03-2020 05:29:17 12.6 C 34 %
1618 12-03-2020 05:39:18 12.5 C 34 %
1619 12-03-2020 05:49:17 12.5 C 34 %
1620 12-03-2020 05:59:17 12.3 C 34 %
1621 12-03-2020 06:09:18 12.2 C 34 %
1622 12-03-2020 06:19:18 12.1 C 34 %
1623 12-03-2020 06:29:18 12 C 34 %
1624 12-03-2020 06:39:18 12 C 35 %
1625 12-03-2020 06:49:17 12 C 35 %
Sensor: Nr:Datum:Temp:Feuchte:
Aussen-T/F 1626 12-03-2020 06:59:17 11.9 C 35 %
1627 12-03-2020 07:09:18 11.9 C 35 %
1628 12-03-2020 07:19:18 12 C 35 %
1629 12-03-2020 07:29:18 12 C 35 %
1630 12-03-2020 07:39:18 12 C 35 %
1631 12-03-2020 07:49:17 11.2 C 38 %
1632 12-03-2020 07:59:17 11 C 39 %
1633 12-03-2020 08:09:18 10.8 C 41 %
1634 12-03-2020 08:19:18 10.7 C 42 %
1635 12-03-2020 08:29:18 10.4 C 40 %
1636 12-03-2020 08:39:18 10.1 C 39 %
1637 12-03-2020 08:49:17 10.4 C 38 %
1638 12-03-2020 08:59:17 10.2 C 38 %
1639 12-03-2020 09:09:18 10.4 C 38 %
1640 12-03-2020 09:19:17 10.5 C 37 %
1641 12-03-2020 09:29:17 10.9 C 36 %
1642 12-03-2020 09:39:17 10.8 C 36 %
1643 12-03-2020 09:49:18 11 C 36 %
1644 12-03-2020 09:59:18 11.5 C 35 %
1645 12-03-2020 10:09:18 11.7 C 34 %
1646 12-03-2020 10:19:17 11.5 C 34 %
1647 12-03-2020 10:29:17 11.5 C 34 %
1648 12-03-2020 10:39:17 11.8 C 33 %
1649 12-03-2020 10:49:17 11.3 C 33 %
1650 12-03-2020 10:59:17 11.3 C 32 %
Sensor: Nr:Datum:Temp:Feuchte:
Aussen-T/F 1651 12-03-2020 11:09:18 11.6 C 28 %
1652 12-03-2020 11:19:17 11.5 C 27 %
1653 12-03-2020 11:29:17 11.7 C 26 %
1654 12-03-2020 11:39:17 11.9 C 23 %
1655 12-03-2020 11:49:18 11.9 C 20 %
1656 12-03-2020 11:59:18 12.3 C 20 %
1657 12-03-2020 12:09:18 12.2 C 20 %
1658 12-03-2020 12:19:18 12.4 C 20 %
1659 12-03-2020 12:29:18 12.8 C 20 %
1660 12-03-2020 12:39:17 12.4 C 20 %
1661 12-03-2020 12:49:17 12.1 C 20 %
1662 12-03-2020 12:59:18 12 C 20 %
1663 12-03-2020 13:09:18 12.2 C 20 %
1664 12-03-2020 13:19:17 12.3 C 20 %
1665 12-03-2020 13:29:17 12.3 C 20 %
1666 12-03-2020 13:39:17 12.7 C 20 %
1667 12-03-2020 13:49:17 12.5 C 20 %
1668 12-03-2020 13:59:17 12.4 C 20 %
1669 12-03-2020 14:09:17 12.2 C 20 %
1670 12-03-2020 14:19:17 12.2 C 20 %
1671 12-03-2020 14:29:18 12.2 C 20 %
1672 12-03-2020 14:39:18 13.4 C 20 %
1673 12-03-2020 14:49:17 13 C 20 %
1674 12-03-2020 14:59:17 11.8 C 20 %
1675 12-03-2020 15:09:17 11.9 C 20 %
Sensor: Nr:Datum:Temp:Feuchte:
Aussen-T/F 1676 12-03-2020 15:19:17 11.8 C 20 %
1677 12-03-2020 15:29:18 11.9 C 20 %
1678 12-03-2020 15:39:18 11.8 C 20 %
1679 12-03-2020 15:49:17 11.7 C 20 %
1680 12-03-2020 15:59:18 11.6 C 20 %
1681 12-03-2020 16:09:18 11.5 C 20 %
1682 12-03-2020 16:19:18 11.7 C 20 %
1683 12-03-2020 16:29:18 11.7 C 20 %
1684 12-03-2020 16:39:18 12.4 C 20 %
1685 12-03-2020 16:49:17 11.8 C 20 %
1686 12-03-2020 16:59:17 11.5 C 20 %
1687 12-03-2020 17:09:17 11.5 C 20 %
1688 12-03-2020 17:19:17 11.5 C 20 %
1689 12-03-2020 17:29:17 11.2 C 20 %
1690 12-03-2020 17:39:18 10.9 C 20 %
1691 12-03-2020 17:49:17 11 C 20 %
1692 12-03-2020 17:59:18 10.8 C 22 %
1693 12-03-2020 18:09:18 10.3 C 25 %
1694 12-03-2020 18:19:18 9.8 C 27 %
1695 12-03-2020 18:29:18 9.3 C 30 %
1696 12-03-2020 18:39:17 8.7 C 31 %
1697 12-03-2020 18:49:17 7.9 C 33 %
1698 12-03-2020 18:59:17 7.6 C 35 %
1699 12-03-2020 19:09:17 7.5 C 34 %
1700 12-03-2020 19:19:17 7 C 35 %
Sensor: Nr:Datum:Temp:Feuchte:
Aussen-T/F 1701 12-03-2020 19:29:17 6.6 C 36 %
1702 12-03-2020 19:39:17 6.5 C 36 %
1703 12-03-2020 19:49:17 7.1 C 35 %
1704 12-03-2020 19:59:17 6.8 C 35 %
1705 12-03-2020 20:09:17 7.6 C 35 %
1706 12-03-2020 20:19:17 7.3 C 35 %
1707 12-03-2020 20:29:17 6.8 C 35 %
1708 12-03-2020 20:39:17 6.8 C 36 %
1709 12-03-2020 20:49:17 6.4 C 36 %
1710 12-03-2020 20:59:17 6.7 C 36 %
1711 12-03-2020 21:09:17 6.3 C 36 %
1712 12-03-2020 21:19:17 7.2 C 35 %
1713 12-03-2020 21:29:17 7.6 C 35 %
1714 12-03-2020 21:39:18 7.4 C 35 %
1715 12-03-2020 21:49:17 7.4 C 35 %
1716 12-03-2020 21:59:17 7.6 C 35 %
1717 12-03-2020 22:09:18 7.6 C 35 %
1718 12-03-2020 22:19:18 7.1 C 35 %
1719 12-03-2020 22:29:18 7.2 C 35 %
1720 12-03-2020 22:39:18 7.5 C 35 %
1721 12-03-2020 22:49:17 7.6 C 35 %
1722 12-03-2020 22:59:17 7.3 C 35 %
1723 12-03-2020 23:09:17 7.2 C 35 %
1724 12-03-2020 23:19:17 7 C 35 %
1725 12-03-2020 23:29:18 6.2 C 35 %
Sensor: Nr:Datum:Temp:Feuchte:
Aussen-T/F 1726 12-03-2020 23:39:18 6.7 C 34 %
1727 12-03-2020 23:49:17 6.5 C 34 %
1728 12-03-2020 23:59:17 6.4 C 32 %
1729 13-03-2020 00:09:17 6.5 C 32 %
1730 13-03-2020 00:19:17 6.5 C 32 %
1731 13-03-2020 00:29:17 6.1 C 32 %
1732 13-03-2020 00:39:17 6.2 C 32 %
1733 13-03-2020 00:49:17 6 C 32 %
1734 13-03-2020 00:59:17 5.9 C 33 %
1735 13-03-2020 01:09:17 5.4 C 33 %
1736 13-03-2020 01:19:17 5.4 C 33 %
1737 13-03-2020 01:29:17 5.1 C 34 %
1738 13-03-2020 01:39:17 5.2 C 34 %
1739 13-03-2020 01:49:17 5.2 C 33 %
1740 13-03-2020 01:59:17 5.2 C 33 %
1741 13-03-2020 02:09:17 4.8 C 35 %
1742 13-03-2020 02:19:17 5 C 34 %
1743 13-03-2020 02:29:17 5.1 C 34 %
1744 13-03-2020 02:39:18 5.1 C 34 %
1745 13-03-2020 02:49:17 5.1 C 34 %
1746 13-03-2020 02:59:17 5.1 C 34 %
1747 13-03-2020 03:09:17 5 C 34 %
1748 13-03-2020 03:19:17 5.2 C 34 %
1749 13-03-2020 03:29:17 5.2 C 34 %
1750 13-03-2020 03:39:18 5.1 C 34 %
Sensor: Nr:Datum:Temp:Feuchte:
Aussen-T/F 1751 13-03-2020 03:49:17 5.1 C 34 %
1752 13-03-2020 03:59:17 5.2 C 34 %
1753 13-03-2020 04:09:17 5 C 34 %
1754 13-03-2020 04:19:17 4.9 C 35 %
1755 13-03-2020 04:29:17 5.1 C 35 %
1756 13-03-2020 04:39:17 5.1 C 35 %
1757 13-03-2020 04:49:17 5 C 34 %
1758 13-03-2020 04:59:17 5.2 C 34 %
1759 13-03-2020 05:09:17 5.2 C 34 %
1760 13-03-2020 05:19:17 5.6 C 34 %
1761 13-03-2020 05:29:17 5.4 C 34 %
1762 13-03-2020 05:39:17 5.4 C 34 %
1763 13-03-2020 05:49:18 5.4 C 34 %
1764 13-03-2020 05:59:18 5.4 C 34 %
1765 13-03-2020 06:09:18 5.6 C 34 %
1766 13-03-2020 06:19:17 5.7 C 34 %
1767 13-03-2020 06:29:17 5.4 C 34 %
1768 13-03-2020 06:39:17 5.4 C 35 %
1769 13-03-2020 06:49:17 5.3 C 34 %
1770 13-03-2020 06:59:17 5.4 C 35 %
1771 13-03-2020 07:09:17 5.3 C 35 %
1772 13-03-2020 07:19:17 5.4 C 35 %
1773 13-03-2020 07:29:17 5.6 C 35 %
1774 13-03-2020 07:39:17 5.7 C 35 %
1775 13-03-2020 07:49:18 5.7 C 35 %
Sensor: Nr:Datum:Temp:Feuchte:
Aussen-T/F 1776 13-03-2020 07:59:18 5.7 C 35 %
1777 13-03-2020 08:09:17 5.8 C 35 %
1778 13-03-2020 08:19:17 6 C 35 %
1779 13-03-2020 08:29:17 5.9 C 35 %
1780 13-03-2020 08:39:18 6 C 35 %
1781 13-03-2020 08:49:17 6.2 C 35 %
1782 13-03-2020 08:59:17 6.4 C 34 %
1783 13-03-2020 09:09:17 6.5 C 35 %
1784 13-03-2020 09:19:17 6.9 C 34 %
1785 13-03-2020 09:29:17 7.1 C 33 %
1786 13-03-2020 09:39:18 7.1 C 33 %
1787 13-03-2020 09:49:17 6.6 C 34 %
1788 13-03-2020 09:59:17 7.1 C 33 %
1789 13-03-2020 10:09:18 7.5 C 33 %
1790 13-03-2020 10:19:17 8.5 C 32 %
1791 13-03-2020 10:29:17 8.1 C 32 %
1792 13-03-2020 10:39:18 8 C 32 %
1793 13-03-2020 10:49:17 7.6 C 33 %
1794 13-03-2020 10:59:17 7.4 C 35 %
1795 13-03-2020 11:09:17 8.9 C 33 %
1796 13-03-2020 11:19:17 9.1 C 31 %
1797 13-03-2020 11:29:17 8 C 32 %
1798 13-03-2020 11:39:17 7.3 C 35 %
1799 13-03-2020 11:49:18 7.4 C 35 %
1800 13-03-2020 11:59:18 8.2 C 33 %
Sensor: Nr:Datum:Temp:Feuchte:
Aussen-T/F 1801 13-03-2020 12:09:18 8.9 C 32 %
1802 13-03-2020 12:19:18 9.7 C 29 %
1803 13-03-2020 12:29:18 9 C 30 %
1804 13-03-2020 12:39:18 9.6 C 30 %
1805 13-03-2020 12:49:18 9 C 31 %
1806 13-03-2020 12:59:18 8.8 C 31 %
1807 13-03-2020 13:09:18 8.4 C 32 %
1808 13-03-2020 13:19:18 8.6 C 33 %
1809 13-03-2020 13:29:18 9.5 C 31 %
1810 13-03-2020 13:39:18 9.9 C 30 %
1811 13-03-2020 13:49:17 9.7 C 30 %
1812 13-03-2020 13:59:17 9.6 C 30 %
1813 13-03-2020 14:09:18 9.3 C 30 %
1814 13-03-2020 14:19:18 9.4 C 30 %
1815 13-03-2020 14:29:18 8.9 C 32 %
1816 13-03-2020 14:39:18 9.5 C 31 %
1817 13-03-2020 14:49:18 10.3 C 28 %
1818 13-03-2020 14:59:18 10.1 C 28 %
1819 13-03-2020 15:09:18 9.5 C 29 %
1820 13-03-2020 15:19:17 9.3 C 29 %
1821 13-03-2020 15:29:17 10.1 C 27 %
1822 13-03-2020 15:39:18 10.4 C 26 %
1823 13-03-2020 15:49:18 10.4 C 26 %
1824 13-03-2020 15:59:18 10.1 C 27 %
1825 13-03-2020 16:09:18 10 C 27 %
Sensor: Nr:Datum:Temp:Feuchte:
Aussen-T/F 1826 13-03-2020 16:19:17 9.8 C 27 %
1827 13-03-2020 16:29:17 9.1 C 29 %
1828 13-03-2020 16:39:17 9 C 30 %
1829 13-03-2020 16:49:17 10 C 27 %
1830 13-03-2020 16:59:17 9.3 C 30 %
1831 13-03-2020 17:09:17 9.1 C 30 %
1832 13-03-2020 17:19:18 9.1 C 30 %
1833 13-03-2020 17:29:18 9.3 C 30 %
1834 13-03-2020 17:39:17 9.4 C 29 %
1835 13-03-2020 17:49:18 9.5 C 30 %
1836 13-03-2020 17:59:18 9.1 C 31 %
1837 13-03-2020 18:09:18 8.7 C 31 %
1838 13-03-2020 18:19:17 8.6 C 31 %
1839 13-03-2020 18:29:17 8.4 C 31 %
1840 13-03-2020 18:39:17 8.2 C 31 %
1841 13-03-2020 18:49:17 8.1 C 32 %
1842 13-03-2020 18:59:17 8 C 32 %
1843 13-03-2020 19:09:17 7.8 C 33 %
1844 13-03-2020 19:19:17 7.3 C 35 %
1845 13-03-2020 19:29:17 7.3 C 35 %
1846 13-03-2020 19:39:18 7.3 C 35 %
1847 13-03-2020 19:49:17 7.3 C 35 %
1848 13-03-2020 19:59:18 7 C 35 %
1849 13-03-2020 20:09:18 6.7 C 36 %
1850 13-03-2020 20:19:17 6.7 C 36 %
Sensor: Nr:Datum:Temp:Feuchte:
Aussen-T/F 1851 13-03-2020 20:29:17 6.9 C 36 %
1852 13-03-2020 20:39:17 6.4 C 36 %
1853 13-03-2020 20:49:17 6.3 C 37 %
1854 13-03-2020 20:59:17 6.2 C 37 %
1855 13-03-2020 21:09:18 5.8 C 38 %
1856 13-03-2020 21:19:18 5.8 C 38 %
1857 13-03-2020 21:29:18 5.8 C 38 %
1858 13-03-2020 21:39:18 6.2 C 37 %
1859 13-03-2020 21:49:17 5.7 C 38 %
1860 13-03-2020 21:59:17 5.8 C 38 %
1861 13-03-2020 22:09:18 5.4 C 39 %
1862 13-03-2020 22:19:17 5.6 C 39 %
1863 13-03-2020 22:29:18 5.4 C 39 %
1864 13-03-2020 22:39:18 5.5 C 40 %
1865 13-03-2020 22:49:17 5.7 C 39 %
1866 13-03-2020 22:59:17 5.8 C 39 %
1867 13-03-2020 23:09:18 5.6 C 39 %
1868 13-03-2020 23:19:17 5.6 C 39 %
1869 13-03-2020 23:29:17 5.5 C 40 %
1870 13-03-2020 23:39:17 5.4 C 40 %
1871 13-03-2020 23:49:17 5.4 C 40 %
1872 13-03-2020 23:59:17 4.8 C 41 %
1873 14-03-2020 00:09:17 4.8 C 41 %
1874 14-03-2020 00:19:18 4.6 C 41 %
1875 14-03-2020 00:29:18 4.4 C 41 %
Sensor: Nr:Datum:Temp:Feuchte:
Aussen-T/F 1876 14-03-2020 00:39:18 3.7 C 42 %
1877 14-03-2020 00:49:17 3.5 C 44 %
1878 14-03-2020 00:59:17 3 C 43 %
1879 14-03-2020 01:09:18 2.6 C 45 %
1880 14-03-2020 01:19:17 2.4 C 46 %
1881 14-03-2020 01:29:18 2 C 45 %
1882 14-03-2020 01:39:18 2 C 46 %
1883 14-03-2020 01:49:17 2.4 C 48 %
1884 14-03-2020 01:59:18 2.8 C 49 %
1885 14-03-2020 02:09:18 3.3 C 47 %
1886 14-03-2020 02:19:18 3.6 C 46 %
1887 14-03-2020 02:29:18 3.3 C 45 %
1888 14-03-2020 02:39:18 3 C 45 %
1889 14-03-2020 02:49:18 2.8 C 45 %
1890 14-03-2020 02:59:18 2.3 C 46 %
1891 14-03-2020 03:09:18 2.2 C 46 %
1892 14-03-2020 03:19:17 1.5 C 47 %
1893 14-03-2020 03:29:17 1.3 C 47 %
1894 14-03-2020 03:39:17 1.4 C 48 %
1895 14-03-2020 03:49:18 1.5 C 48 %
1896 14-03-2020 03:59:18 1.5 C 49 %
1897 14-03-2020 04:09:17 1.7 C 49 %
1898 14-03-2020 04:19:17 1.6 C 48 %
1899 14-03-2020 04:29:17 1.6 C 49 %
1900 14-03-2020 04:39:17 1.5 C 48 %
Sensor: Nr:Datum:Temp:Feuchte:
Aussen-T/F 1901 14-03-2020 04:49:17 1.3 C 48 %
1902 14-03-2020 04:59:17 1.3 C 48 %
1903 14-03-2020 05:09:17 1.3 C 49 %
1904 14-03-2020 05:19:17 1.1 C 48 %
1905 14-03-2020 05:29:17 0.8 C 49 %
1906 14-03-2020 05:39:18 0.9 C 50 %
1907 14-03-2020 05:49:17 1.3 C 49 %
1908 14-03-2020 05:59:17 0.5 C 49 %
1909 14-03-2020 06:09:18 0.3 C 49 %
1910 14-03-2020 06:19:18 0.6 C 50 %
1911 14-03-2020 06:29:18 0.4 C 49 %
1912 14-03-2020 06:39:18 0.4 C 50 %
1913 14-03-2020 06:49:17 0.8 C 50 %
1914 14-03-2020 06:59:17 0.8 C 50 %
1915 14-03-2020 07:09:17 0.7 C 50 %
1916 14-03-2020 07:19:17 0.8 C 50 %
1917 14-03-2020 07:29:17 0.6 C 49 %
1918 14-03-2020 07:39:18 0.6 C 49 %
1919 14-03-2020 07:49:17 0.8 C 49 %
1920 14-03-2020 07:59:17 0.8 C 50 %
1921 14-03-2020 08:09:17 1 C 48 %
1922 14-03-2020 08:19:17 1.4 C 49 %
1923 14-03-2020 08:29:17 1.7 C 49 %
1924 14-03-2020 08:39:18 1.9 C 49 %
1925 14-03-2020 08:49:17 2.2 C 48 %
Sensor: Nr:Datum:Temp:Feuchte:
Aussen-T/F 1926 14-03-2020 08:59:17 2.5 C 48 %
1927 14-03-2020 09:09:17 2.8 C 48 %
1928 14-03-2020 09:19:17 3.4 C 46 %
1929 14-03-2020 09:29:17 3.7 C 45 %
1930 14-03-2020 09:39:18 4.1 C 43 %
1931 14-03-2020 09:49:17 4.5 C 43 %
1932 14-03-2020 09:59:17 5 C 41 %
1933 14-03-2020 10:09:18 5.7 C 41 %
1934 14-03-2020 10:19:18 6 C 39 %
1935 14-03-2020 10:29:18 6.8 C 40 %
1936 14-03-2020 10:39:18 7.7 C 38 %
1937 14-03-2020 10:49:17 7.7 C 37 %
1938 14-03-2020 10:59:17 8.4 C 36 %
1939 14-03-2020 11:09:18 9 C 35 %
1940 14-03-2020 11:19:18 10.4 C 34 %
1941 14-03-2020 11:29:18 11 C 31 %
1942 14-03-2020 11:39:18 10.4 C 31 %
1943 14-03-2020 11:49:17 10.1 C 32 %
1944 14-03-2020 11:59:17 11.3 C 31 %
1945 14-03-2020 12:09:18 13 C 27 %
1946 14-03-2020 12:19:17 12.4 C 27 %
1947 14-03-2020 12:29:18 12 C 27 %
1948 14-03-2020 12:39:18 11.3 C 28 %
1949 14-03-2020 12:49:17 11.5 C 28 %
1950 14-03-2020 12:59:17 13.1 C 26 %
Sensor: Nr:Datum:Temp:Feuchte:
Aussen-T/F 1951 14-03-2020 13:09:18 12.9 C 25 %
1952 14-03-2020 13:19:17 13 C 22 %
1953 14-03-2020 13:29:17 13.3 C 23 %
1954 14-03-2020 13:39:17 12.5 C 22 %
1955 14-03-2020 13:49:17 12.4 C 22 %
1956 14-03-2020 13:59:17 13.8 C 21 %
1957 14-03-2020 14:09:18 12.3 C 22 %
1958 14-03-2020 14:19:17 12.5 C 21 %
1959 14-03-2020 14:29:17 14 C 20 %
1960 14-03-2020 14:39:17 13.7 C 20 %
1961 14-03-2020 14:49:18 12.3 C 20 %
1962 14-03-2020 14:59:18 11.6 C 23 %
1963 14-03-2020 15:09:18 11.4 C 22 %
1964 14-03-2020 15:19:17 12.1 C 21 %
1965 14-03-2020 15:29:17 12.1 C 20 %
1966 14-03-2020 15:39:18 11.7 C 21 %
1967 14-03-2020 15:49:17 12 C 20 %
1968 14-03-2020 15:59:17 11.8 C 21 %
1969 14-03-2020 16:09:18 11.2 C 23 %
1970 14-03-2020 16:19:17 10.6 C 25 %
1971 14-03-2020 16:29:17 10.4 C 26 %
1972 14-03-2020 16:39:18 9.9 C 26 %
1973 14-03-2020 16:49:18 10.1 C 26 %
1974 14-03-2020 16:59:18 9.8 C 27 %
1975 14-03-2020 17:09:18 10.3 C 26 %
Sensor: Nr:Datum:Temp:Feuchte:
Aussen-T/F 1976 14-03-2020 17:19:17 10.3 C 26 %
1977 14-03-2020 17:29:17 10.7 C 26 %
1978 14-03-2020 17:39:17 9.6 C 27 %
1979 14-03-2020 17:49:17 9.3 C 28 %
1980 14-03-2020 17:59:17 8.6 C 30 %
1981 14-03-2020 18:09:17 8.1 C 31 %
1982 14-03-2020 18:19:17 7.3 C 33 %
1983 14-03-2020 18:29:17 7.1 C 33 %
1984 14-03-2020 18:39:17 6.3 C 36 %
1985 14-03-2020 18:49:17 5.9 C 37 %
1986 14-03-2020 18:59:17 5.9 C 38 %
1987 14-03-2020 19:09:17 5.3 C 38 %
1988 14-03-2020 19:19:17 5.5 C 39 %
1989 14-03-2020 19:29:17 5.1 C 39 %
1990 14-03-2020 19:39:17 5.6 C 39 %
1991 14-03-2020 19:49:17 5.2 C 39 %
1992 14-03-2020 19:59:17 5.3 C 39 %
1993 14-03-2020 20:09:18 5.3 C 39 %
1994 14-03-2020 20:19:18 5.3 C 39 %
1995 14-03-2020 20:29:18 5.3 C 39 %
1996 14-03-2020 20:39:18 5.6 C 39 %
1997 14-03-2020 20:49:17 5.5 C 39 %
1998 14-03-2020 20:59:18 5.7 C 39 %
1999 14-03-2020 21:09:18 5.7 C 39 %
2000 14-03-2020 21:19:18 5.7 C 39 %
Sensor: Nr:Datum:Temp:Feuchte:
Aussen-T/F 2001 14-03-2020 21:29:18 5.6 C 38 %
2002 14-03-2020 21:39:17 5.1 C 39 %
2003 14-03-2020 21:49:18 5.2 C 39 %
2004 14-03-2020 21:59:18 5 C 39 %
2005 14-03-2020 22:09:18 5 C 39 %
2006 14-03-2020 22:19:17 5 C 39 %
2007 14-03-2020 22:29:17 5 C 39 %
2008 14-03-2020 22:39:18 5.1 C 39 %
2009 14-03-2020 22:49:18 4.8 C 40 %
2010 14-03-2020 22:59:18 5.1 C 39 %
2011 14-03-2020 23:09:17 5.5 C 39 %
2012 14-03-2020 23:19:17 5.7 C 39 %
2013 14-03-2020 23:29:17 5.6 C 40 %
2014 14-03-2020 23:39:17 5.6 C 39 %
2015 14-03-2020 23:49:18 5.8 C 40 %
2016 14-03-2020 23:59:18 5.8 C 40 %
2017 15-03-2020 00:09:18 5.9 C 39 %
2018 15-03-2020 00:19:17 5.8 C 39 %
2019 15-03-2020 00:29:17 6.1 C 37 %
2020 15-03-2020 00:39:18 6 C 38 %
2021 15-03-2020 00:49:18 5.6 C 39 %
2022 15-03-2020 00:59:18 5.3 C 39 %
2023 15-03-2020 01:09:17 5.1 C 40 %
2024 15-03-2020 01:19:18 5.1 C 39 %
2025 15-03-2020 01:29:18 5.5 C 39 %
Sensor: Nr:Datum:Temp:Feuchte:
Aussen-T/F 2026 15-03-2020 01:39:17 5.2 C 40 %
2027 15-03-2020 01:49:17 5.2 C 40 %
2028 15-03-2020 01:59:17 5.2 C 40 %
2029 15-03-2020 02:09:17 5.1 C 40 %
2030 15-03-2020 02:19:17 5.1 C 40 %
2031 15-03-2020 02:29:17 4.8 C 40 %
2032 15-03-2020 02:39:18 4.5 C 40 %
2033 15-03-2020 02:49:17 4.9 C 40 %
2034 15-03-2020 02:59:17 5 C 40 %
2035 15-03-2020 03:09:17 4.8 C 40 %
2036 15-03-2020 03:19:17 4.2 C 40 %
2037 15-03-2020 03:29:17 4 C 40 %
2038 15-03-2020 03:39:18 4 C 40 %
2039 15-03-2020 03:49:17 3.8 C 41 %
2040 15-03-2020 03:59:17 3.7 C 42 %
2041 15-03-2020 04:09:18 3.7 C 41 %
2042 15-03-2020 04:19:18 3.9 C 41 %
2043 15-03-2020 04:29:18 3.7 C 41 %
2044 15-03-2020 04:39:18 3.8 C 41 %
2045 15-03-2020 04:49:17 3.7 C 41 %
2046 15-03-2020 04:59:18 3.5 C 41 %
2047 15-03-2020 05:09:18 3.5 C 41 %
2048 15-03-2020 05:19:17 3.3 C 41 %
2049 15-03-2020 05:29:18 3.2 C 41 %
2050 15-03-2020 05:39:18 3 C 41 %
Sensor: Nr:Datum:Temp:Feuchte:
Aussen-T/F 2051 15-03-2020 05:49:17 3.1 C 41 %
2052 15-03-2020 05:59:17 3.1 C 41 %
2053 15-03-2020 06:09:18 3.1 C 41 %
2054 15-03-2020 06:19:17 3.1 C 41 %
2055 15-03-2020 06:29:17 2.9 C 43 %
2056 15-03-2020 06:39:18 3.3 C 41 %
2057 15-03-2020 06:49:18 3.6 C 41 %
2058 15-03-2020 06:59:18 3.3 C 41 %
2059 15-03-2020 07:09:18 3 C 42 %
2060 15-03-2020 07:19:18 3.1 C 42 %
2061 15-03-2020 07:29:18 3.6 C 41 %
2062 15-03-2020 07:39:18 3.6 C 41 %
2063 15-03-2020 07:49:18 3.5 C 41 %
2064 15-03-2020 07:59:18 4 C 41 %
2065 15-03-2020 08:09:18 4.8 C 40 %
2066 15-03-2020 08:19:18 5.4 C 39 %
2067 15-03-2020 08:29:18 5.7 C 39 %
2068 15-03-2020 08:39:18 5.9 C 38 %
2069 15-03-2020 08:49:17 6.4 C 38 %
2070 15-03-2020 08:59:17 6.7 C 38 %
2071 15-03-2020 09:09:18 6.8 C 37 %
2072 15-03-2020 09:19:18 6.9 C 38 %
2073 15-03-2020 09:29:18 7.1 C 37 %
2074 15-03-2020 09:39:18 7.8 C 36 %
2075 15-03-2020 09:49:18 9.2 C 33 %
Sensor: Nr:Datum:Temp:Feuchte:
Aussen-T/F 2076 15-03-2020 09:59:18 9.9 C 32 %
2077 15-03-2020 10:09:18 9.9 C 31 %
2078 15-03-2020 10:19:18 9.8 C 32 %
2079 15-03-2020 10:29:18 10 C 32 %
2080 15-03-2020 10:39:18 10.8 C 31 %
2081 15-03-2020 10:49:17 11.8 C 29 %
2082 15-03-2020 10:59:17 12.5 C 27 %
2083 15-03-2020 11:09:17 13.4 C 25 %
2084 15-03-2020 11:19:17 14.7 C 23 %
2085 15-03-2020 11:29:17 16 C 20 %
2086 15-03-2020 11:39:18 15.5 C 20 %
2087 15-03-2020 11:49:17 14.9 C 20 %
2088 15-03-2020 11:59:18 15.2 C 20 %
2089 15-03-2020 12:09:18 14.5 C 20 %
2090 15-03-2020 12:19:18 14.1 C 20 %
2091 15-03-2020 12:29:18 14.4 C 20 %
2092 15-03-2020 12:39:18 14.7 C 20 %
2093 15-03-2020 12:49:17 15.2 C 20 %
2094 15-03-2020 12:59:17 15.4 C 20 %
2095 15-03-2020 13:09:18 14.8 C 20 %
2096 15-03-2020 13:19:17 17 C 20 %
2097 15-03-2020 13:29:17 18.6 C 20 %
2098 15-03-2020 13:39:18 17.4 C 20 %
2099 15-03-2020 13:49:17 16.7 C 20 %
2100 15-03-2020 13:59:17 16.2 C 20 %
Sensor: Nr:Datum:Temp:Feuchte:
Aussen-T/F 2101 15-03-2020 14:09:17 15.5 C 20 %
2102 15-03-2020 14:19:17 16.5 C 20 %
2103 15-03-2020 14:29:17 16.3 C 20 %
2104 15-03-2020 14:39:18 16.6 C 20 %
2105 15-03-2020 14:49:17 16.2 C 20 %
2106 15-03-2020 14:59:17 16 C 20 %
2107 15-03-2020 15:09:17 17.4 C 20 %
2108 15-03-2020 15:19:17 20.3 C 20 %
2109 15-03-2020 15:29:18 20.4 C 20 %
2110 15-03-2020 15:39:18 19.4 C 20 %
2111 15-03-2020 15:49:17 20.7 C 20 %
2112 15-03-2020 15:59:17 19.9 C 20 %
2113 15-03-2020 16:09:17 21.2 C 20 %
2114 15-03-2020 16:19:17 20.2 C 20 %
2115 15-03-2020 16:29:17 20.5 C 20 %
2116 15-03-2020 16:39:17 19.7 C 20 %
2117 15-03-2020 16:49:18 18.1 C 20 %
2118 15-03-2020 16:59:18 16.9 C 20 %
2119 15-03-2020 17:09:18 16 C 20 %
2120 15-03-2020 17:19:18 15.5 C 20 %
2121 15-03-2020 17:29:18 15.5 C 20 %
2122 15-03-2020 17:39:18 14.9 C 20 %
2123 15-03-2020 17:49:18 13.8 C 20 %
2124 15-03-2020 17:59:18 12.6 C 23 %
2125 15-03-2020 18:09:18 12.1 C 25 %
Sensor: Nr:Datum:Temp:Feuchte:
Aussen-T/F 2126 15-03-2020 18:19:18 11.7 C 26 %
2127 15-03-2020 18:29:18 11.1 C 27 %
2128 15-03-2020 18:39:18 10.6 C 28 %
2129 15-03-2020 18:49:17 10.4 C 28 %
2130 15-03-2020 18:59:17 10 C 28 %
2131 15-03-2020 19:09:18 9.6 C 30 %
2132 15-03-2020 19:19:18 9.4 C 30 %
2133 15-03-2020 19:29:18 9.2 C 31 %
2134 15-03-2020 19:39:18 9.1 C 30 %
2135 15-03-2020 19:49:17 9 C 31 %
2136 15-03-2020 19:59:17 8.9 C 31 %
2137 15-03-2020 20:09:18 8.6 C 31 %
2138 15-03-2020 20:19:17 8.5 C 32 %
2139 15-03-2020 20:29:17 8.2 C 32 %
2140 15-03-2020 20:39:18 8.2 C 32 %
2141 15-03-2020 20:49:18 8 C 32 %
2142 15-03-2020 20:59:18 7.4 C 34 %
2143 15-03-2020 21:09:18 7.1 C 35 %
2144 15-03-2020 21:19:17 7 C 35 %
2145 15-03-2020 21:29:17 7.4 C 35 %
2146 15-03-2020 21:39:17 7.5 C 35 %
2147 15-03-2020 21:49:17 7.1 C 35 %
2148 15-03-2020 21:59:17 6.3 C 36 %
2149 15-03-2020 22:09:17 5.8 C 37 %
2150 15-03-2020 22:19:17 5.4 C 37 %
Sensor: Nr:Datum:Temp:Feuchte:
Aussen-T/F 2151 15-03-2020 22:29:18 5 C 38 %
2152 15-03-2020 22:39:17 4.7 C 40 %
2153 15-03-2020 22:49:17 4.7 C 40 %
2154 15-03-2020 22:59:17 4.7 C 40 %
2155 15-03-2020 23:09:17 4.7 C 40 %
2156 15-03-2020 23:19:17 4.6 C 40 %
2157 15-03-2020 23:29:17 4.5 C 40 %
2158 15-03-2020 23:39:17 4.5 C 40 %
2159 15-03-2020 23:49:17 4.3 C 40 %
2160 15-03-2020 23:59:17 4.1 C 40 %
2161 16-03-2020 00:09:17 4 C 40 %
2162 16-03-2020 00:19:17 3.8 C 41 %
2163 16-03-2020 00:29:17 3.4 C 41 %
2164 16-03-2020 00:39:17 3.4 C 42 %
2165 16-03-2020 00:49:17 3.3 C 42 %
2166 16-03-2020 00:59:17 3.3 C 42 %
2167 16-03-2020 01:09:18 2.9 C 43 %
2168 16-03-2020 01:19:17 3 C 43 %
2169 16-03-2020 01:29:17 3 C 42 %
2170 16-03-2020 01:39:17 3.2 C 42 %
2171 16-03-2020 01:49:18 2.8 C 43 %
2172 16-03-2020 01:59:18 2.6 C 44 %
2173 16-03-2020 02:09:17 2.7 C 45 %
2174 16-03-2020 02:19:17 2.7 C 44 %
2175 16-03-2020 02:29:17 2.4 C 44 %
Sensor: Nr:Datum:Temp:Feuchte:
Aussen-T/F 2176 16-03-2020 02:39:17 2.6 C 45 %
2177 16-03-2020 02:49:17 2.8 C 45 %
2178 16-03-2020 02:59:17 2.8 C 44 %
2179 16-03-2020 03:09:18 2.2 C 44 %
2180 16-03-2020 03:19:17 2.3 C 44 %
2181 16-03-2020 03:29:17 2.2 C 45 %
2182 16-03-2020 03:39:17 1.8 C 45 %
2183 16-03-2020 03:49:18 2 C 46 %
2184 16-03-2020 03:59:18 1.8 C 46 %
2185 16-03-2020 04:09:18 1.6 C 46 %
2186 16-03-2020 04:19:18 1.7 C 46 %
2187 16-03-2020 04:29:18 2 C 46 %
2188 16-03-2020 04:39:18 1.5 C 46 %
2189 16-03-2020 04:49:17 1.7 C 46 %
2190 16-03-2020 04:59:18 1.9 C 46 %
2191 16-03-2020 05:09:18 1.7 C 46 %
2192 16-03-2020 05:19:18 1.7 C 46 %
2193 16-03-2020 05:29:18 1.4 C 46 %
2194 16-03-2020 05:39:18 1.3 C 46 %
2195 16-03-2020 05:49:17 1.2 C 46 %
2196 16-03-2020 05:59:17 1.3 C 47 %
2197 16-03-2020 06:09:18 1.1 C 47 %
2198 16-03-2020 06:19:17 0.6 C 48 %
2199 16-03-2020 06:29:17 0.6 C 48 %
2200 16-03-2020 06:39:17 0.6 C 48 %
Sensor: Nr:Datum:Temp:Feuchte:
Aussen-T/F 2201 16-03-2020 06:49:17 0.6 C 48 %
2202 16-03-2020 06:59:17 0.9 C 49 %
2203 16-03-2020 07:09:17 1.2 C 49 %
2204 16-03-2020 07:19:17 1.1 C 47 %
2205 16-03-2020 07:29:17 1 C 47 %
2206 16-03-2020 07:39:17 1.4 C 49 %
2207 16-03-2020 07:49:17 1.4 C 48 %
2208 16-03-2020 07:59:17 1.7 C 48 %
2209 16-03-2020 08:09:18 2 C 47 %
2210 16-03-2020 08:19:17 2.3 C 47 %
2211 16-03-2020 08:29:18 2.4 C 46 %
2212 16-03-2020 08:39:18 2.4 C 46 %
2213 16-03-2020 08:49:17 2.6 C 46 %
2214 16-03-2020 08:59:17 2.9 C 47 %
2215 16-03-2020 09:09:18 3.4 C 46 %
2216 16-03-2020 09:19:18 3.7 C 45 %
2217 16-03-2020 09:29:18 4 C 45 %
2218 16-03-2020 09:39:18 4.6 C 44 %
2219 16-03-2020 09:49:18 5 C 43 %
2220 16-03-2020 09:59:18 5.6 C 42 %
2221 16-03-2020 10:09:18 6.6 C 41 %
2222 16-03-2020 10:19:18 7.3 C 40 %
2223 16-03-2020 10:29:18 8.3 C 39 %
2224 16-03-2020 10:39:17 9.3 C 38 %
2225 16-03-2020 10:49:18 10.4 C 37 %
Sensor: Nr:Datum:Temp:Feuchte:
Aussen-T/F 2226 16-03-2020 10:59:18 12.4 C 34 %
2227 16-03-2020 11:09:17 13.3 C 32 %
2228 16-03-2020 11:19:17 14.3 C 30 %
2229 16-03-2020 11:29:17 15.4 C 27 %
2230 16-03-2020 11:39:18 15.7 C 26 %
2231 16-03-2020 11:49:17 15.6 C 25 %
2232 16-03-2020 11:59:17 16.1 C 25 %
2233 16-03-2020 12:09:17 16.5 C 25 %
2234 16-03-2020 12:19:17 16.8 C 25 %
2235 16-03-2020 12:29:17 16.4 C 24 %
2236 16-03-2020 12:39:17 16.9 C 24 %
2237 16-03-2020 12:49:17 18.3 C 21 %
2238 16-03-2020 12:59:17 18.7 C 20 %
2239 16-03-2020 13:09:17 22.3 C 20 %
2240 16-03-2020 13:19:17 21.2 C 20 %
2241 16-03-2020 13:29:17 21.1 C 20 %
2242 16-03-2020 13:39:17 20.6 C 20 %
2243 16-03-2020 13:49:17 21.1 C 20 %
2244 16-03-2020 13:59:17 19.7 C 20 %
2245 16-03-2020 14:09:17 18.7 C 20 %
2246 16-03-2020 14:19:17 19.7 C 20 %
2247 16-03-2020 14:29:17 19.7 C 20 %
2248 16-03-2020 14:39:17 20 C 20 %
2249 16-03-2020 14:49:17 19.2 C 20 %
2250 16-03-2020 14:59:17 20.8 C 20 %
Sensor: Nr:Datum:Temp:Feuchte:
Aussen-T/F 2251 16-03-2020 15:09:17 20 C 20 %
2252 16-03-2020 15:19:17 19.1 C 20 %
2253 16-03-2020 15:29:17 18.8 C 20 %
2254 16-03-2020 15:39:18 18.8 C 20 %
2255 16-03-2020 15:49:17 19 C 20 %
2256 16-03-2020 15:59:17 19 C 20 %
2257 16-03-2020 16:09:18 18.7 C 20 %
2258 16-03-2020 16:19:18 19 C 20 %
2259 16-03-2020 16:29:18 21.4 C 20 %
2260 16-03-2020 16:39:17 20.8 C 20 %
2261 16-03-2020 16:49:17 20.2 C 20 %
2262 16-03-2020 16:59:17 19.4 C 20 %
2263 16-03-2020 17:09:17 18.4 C 20 %
2264 16-03-2020 17:19:17 17.9 C 20 %
2265 16-03-2020 17:29:18 17.7 C 20 %
2266 16-03-2020 17:39:18 17.5 C 20 %
2267 16-03-2020 17:49:17 16.8 C 21 %
2268 16-03-2020 17:59:18 16 C 23 %
2269 16-03-2020 18:09:18 15 C 26 %
2270 16-03-2020 18:19:18 14.3 C 27 %
2271 16-03-2020 18:29:18 13.7 C 29 %
2272 16-03-2020 18:39:18 13.1 C 30 %
2273 16-03-2020 18:49:18 12.7 C 31 %
2274 16-03-2020 18:59:18 12.4 C 32 %
2275 16-03-2020 19:09:18 12.1 C 32 %
Sensor: Nr:Datum:Temp:Feuchte:
Aussen-T/F 2276 16-03-2020 19:19:18 12.2 C 32 %
2277 16-03-2020 19:29:18 12.2 C 32 %
2278 16-03-2020 19:39:18 11.9 C 34 %
2279 16-03-2020 19:49:17 11.5 C 34 %
2280 16-03-2020 19:59:18 11 C 35 %
2281 16-03-2020 20:09:18 10.7 C 36 %
2282 16-03-2020 20:19:18 11.4 C 35 %
2283 16-03-2020 20:29:18 10.8 C 36 %
2284 16-03-2020 20:39:18 10.3 C 36 %
2285 16-03-2020 20:49:18 9.5 C 38 %
2286 16-03-2020 20:59:18 10.8 C 37 %
2287 16-03-2020 21:09:18 10.1 C 37 %
2288 16-03-2020 21:19:17 10.3 C 38 %
2289 16-03-2020 21:29:17 9.9 C 38 %
2290 16-03-2020 21:39:17 9.7 C 38 %
2291 16-03-2020 21:49:18 10.2 C 37 %
2292 16-03-2020 21:59:18 9.9 C 38 %
2293 16-03-2020 22:09:18 9.7 C 38 %
2294 16-03-2020 22:19:18 9.5 C 38 %
2295 16-03-2020 22:29:18 9.5 C 39 %
2296 16-03-2020 22:39:18 9.2 C 38 %
2297 16-03-2020 22:49:18 8.9 C 39 %
2298 16-03-2020 22:59:18 9.1 C 39 %
2299 16-03-2020 23:09:18 9.4 C 39 %
2300 16-03-2020 23:19:17 9.4 C 39 %
Sensor: Nr:Datum:Temp:Feuchte:
Aussen-T/F 2301 16-03-2020 23:29:17 9.4 C 39 %
2302 16-03-2020 23:39:17 9.5 C 39 %
2303 16-03-2020 23:49:17 9.5 C 40 %
2304 16-03-2020 23:59:17 9.5 C 39 %
2305 17-03-2020 00:09:17 9.3 C 39 %
2306 17-03-2020 00:19:17 9.7 C 40 %
2307 17-03-2020 00:29:17 9.5 C 39 %
2308 17-03-2020 00:39:18 9.3 C 39 %
2309 17-03-2020 00:49:18 9.1 C 40 %
2310 17-03-2020 00:59:18 9 C 40 %
2311 17-03-2020 01:09:18 9.3 C 40 %
2312 17-03-2020 01:19:17 9.2 C 40 %
2313 17-03-2020 01:29:17 8.9 C 40 %
2314 17-03-2020 01:39:17 8.7 C 41 %
2315 17-03-2020 01:49:18 8.8 C 41 %
2316 17-03-2020 01:59:18 8.8 C 41 %
2317 17-03-2020 02:09:18 8.7 C 41 %
2318 17-03-2020 02:19:17 8.7 C 41 %
2319 17-03-2020 02:29:17 8.7 C 41 %
2320 17-03-2020 02:39:17 8.9 C 41 %
2321 17-03-2020 02:49:17 8.9 C 41 %
2322 17-03-2020 02:59:17 8.8 C 41 %
2323 17-03-2020 03:09:18 8.6 C 41 %
2324 17-03-2020 03:19:18 8.6 C 41 %
2325 17-03-2020 03:29:18 8.4 C 41 %
Sensor: Nr:Datum:Temp:Feuchte:
Aussen-T/F 2326 17-03-2020 03:39:17 8.3 C 41 %
2327 17-03-2020 03:49:18 8.1 C 42 %
2328 17-03-2020 03:59:18 8 C 41 %
2329 17-03-2020 04:09:18 8.9 C 42 %
2330 17-03-2020 04:19:18 9.2 C 40 %
2331 17-03-2020 04:29:18 9.3 C 40 %
2332 17-03-2020 04:39:17 9 C 40 %
2333 17-03-2020 04:49:18 9 C 40 %
2334 17-03-2020 04:59:18 8.6 C 41 %
2335 17-03-2020 05:09:17 8.9 C 41 %
2336 17-03-2020 05:19:17 9 C 40 %
2337 17-03-2020 05:29:17 8.6 C 41 %
2338 17-03-2020 05:39:17 8.3 C 41 %
2339 17-03-2020 05:49:17 8.2 C 41 %
2340 17-03-2020 05:59:18 8.2 C 41 %
2341 17-03-2020 06:09:18 8.1 C 41 %
2342 17-03-2020 06:19:18 8.1 C 41 %
2343 17-03-2020 06:29:18 8 C 41 %
2344 17-03-2020 06:39:18 8.2 C 41 %
2345 17-03-2020 06:49:18 8.1 C 41 %
2346 17-03-2020 06:59:18 8.2 C 41 %
2347 17-03-2020 07:09:17 8.8 C 40 %
2348 17-03-2020 07:19:17 9 C 40 %
2349 17-03-2020 07:29:17 9.5 C 39 %
2350 17-03-2020 07:39:17 9.6 C 39 %
Sensor: Nr:Datum:Temp:Feuchte:
Aussen-T/F 2351 17-03-2020 07:49:18 9.6 C 39 %
2352 17-03-2020 07:59:18 9.8 C 38 %
2353 17-03-2020 08:09:18 10.1 C 37 %
2354 17-03-2020 08:19:17 10 C 37 %
2355 17-03-2020 08:29:17 9.8 C 38 %
2356 17-03-2020 08:39:17 9.9 C 38 %
2357 17-03-2020 08:49:17 9.9 C 38 %
2358 17-03-2020 08:59:17 10 C 37 %
2359 17-03-2020 09:09:17 10.2 C 37 %
2360 17-03-2020 09:19:18 10.4 C 37 %
2361 17-03-2020 09:29:18 10.4 C 37 %
2362 17-03-2020 09:39:18 10.6 C 37 %
2363 17-03-2020 09:49:17 10.6 C 37 %
2364 17-03-2020 09:59:17 10.7 C 37 %
2365 17-03-2020 10:09:17 10.7 C 37 %
2366 17-03-2020 10:19:17 10.9 C 36 %
2367 17-03-2020 10:29:17 11 C 35 %
2368 17-03-2020 10:39:17 11.7 C 35 %
2369 17-03-2020 10:49:17 12.4 C 33 %
2370 17-03-2020 10:59:17 12.9 C 33 %
2371 17-03-2020 11:09:17 13.1 C 32 %
2372 17-03-2020 11:19:17 13.3 C 31 %
2373 17-03-2020 11:29:17 13.3 C 31 %
2374 17-03-2020 11:39:17 14.7 C 30 %
2375 17-03-2020 11:49:17 14.1 C 29 %
Sensor: Nr:Datum:Temp:Feuchte:
Aussen-T/F 2376 17-03-2020 11:59:17 15.4 C 28 %
2377 17-03-2020 12:09:17 14.5 C 29 %
2378 17-03-2020 12:19:18 14.6 C 27 %
2379 17-03-2020 12:29:18 15.2 C 26 %
2380 17-03-2020 12:39:18 16.5 C 26 %
2381 17-03-2020 12:49:18 16.6 C 24 %
2382 17-03-2020 12:59:18 19.3 C 20 %
2383 17-03-2020 13:09:17 18.8 C 20 %
2384 17-03-2020 13:19:17 20.4 C 20 %
2385 17-03-2020 13:29:17 19.5 C 20 %
2386 17-03-2020 13:39:17 18.5 C 20 %
2387 17-03-2020 13:49:18 18.8 C 20 %
2388 17-03-2020 13:59:18 19.3 C 20 %
2389 17-03-2020 14:09:17 18.3 C 20 %
2390 17-03-2020 14:19:17 18.5 C 20 %
2391 17-03-2020 14:29:17 17.9 C 20 %
2392 17-03-2020 14:39:18 17.1 C 20 %
2393 17-03-2020 14:49:18 20.5 C 20 %
2394 17-03-2020 14:59:18 22.2 C 20 %
2395 17-03-2020 15:09:17 22.5 C 20 %
2396 17-03-2020 15:19:17 22.1 C 20 %
2397 17-03-2020 15:29:17 23.8 C 20 %
2398 17-03-2020 15:39:18 23.6 C 20 %
2399 17-03-2020 15:49:17 23.8 C 20 %
2400 17-03-2020 15:59:17 23.9 C 20 %
Sensor: Nr:Datum:Temp:Feuchte:
Aussen-T/F 2401 17-03-2020 16:09:18 23.3 C 20 %
2402 17-03-2020 16:19:18 21.8 C 20 %
2403 17-03-2020 16:29:18 23.2 C 20 %
2404 17-03-2020 16:39:17 21.4 C 20 %
2405 17-03-2020 16:49:17 22.3 C 20 %
2406 17-03-2020 16:59:17 20.1 C 20 %
2407 17-03-2020 17:09:17 18.7 C 20 %
2408 17-03-2020 17:19:18 17.7 C 20 %
2409 17-03-2020 17:29:18 17.3 C 20 %
2410 17-03-2020 17:39:18 16.8 C 20 %
2411 17-03-2020 17:49:17 16.1 C 22 %
2412 17-03-2020 17:59:18 15.3 C 24 %
2413 17-03-2020 18:09:18 14.1 C 27 %
2414 17-03-2020 18:19:17 13.5 C 28 %
2415 17-03-2020 18:29:17 13.2 C 29 %
2416 17-03-2020 18:39:18 12.8 C 30 %
2417 17-03-2020 18:49:18 12.4 C 31 %
2418 17-03-2020 18:59:18 12 C 31 %
2419 17-03-2020 19:09:18 11.9 C 32 %
2420 17-03-2020 19:19:17 11.8 C 32 %
2421 17-03-2020 19:29:17 11.1 C 33 %
2422 17-03-2020 19:39:17 11 C 34 %
2423 17-03-2020 19:49:17 10.4 C 35 %
2424 17-03-2020 19:59:17 10.2 C 35 %
2425 17-03-2020 20:09:17 9.9 C 36 %
Sensor: Nr:Datum:Temp:Feuchte:
Aussen-T/F 2426 17-03-2020 20:19:17 10.1 C 36 %
2427 17-03-2020 20:29:17 10.7 C 35 %
2428 17-03-2020 20:39:18 10.4 C 35 %
2429 17-03-2020 20:49:18 9.6 C 37 %
2430 17-03-2020 20:59:18 9.5 C 37 %
2431 17-03-2020 21:09:18 9 C 37 %
2432 17-03-2020 21:19:17 8.4 C 39 %
2433 17-03-2020 21:29:17 8.4 C 39 %
2434 17-03-2020 21:39:17 8.1 C 39 %
2435 17-03-2020 21:49:18 8 C 40 %
2436 17-03-2020 21:59:18 7.6 C 40 %
2437 17-03-2020 22:09:18 7.3 C 40 %
2438 17-03-2020 22:19:18 7.2 C 41 %
2439 17-03-2020 22:29:18 7 C 41 %
2440 17-03-2020 22:39:17 6.9 C 41 %
2441 17-03-2020 22:49:17 6.7 C 42 %
2442 17-03-2020 22:59:17 6.5 C 42 %
2443 17-03-2020 23:09:17 6.4 C 42 %
2444 17-03-2020 23:19:17 6.3 C 42 %
2445 17-03-2020 23:29:17 6.1 C 42 %
2446 17-03-2020 23:39:18 6.1 C 42 %
2447 17-03-2020 23:49:18 6.2 C 43 %
2448 17-03-2020 23:59:18 6.3 C 43 %
2449 18-03-2020 00:09:17 5.9 C 43 %
2450 18-03-2020 00:19:17 5.8 C 44 %
Sensor: Nr:Datum:Temp:Feuchte:
Aussen-T/F 2451 18-03-2020 00:29:17 5.9 C 44 %
2452 18-03-2020 00:39:17 5.8 C 44 %
2453 18-03-2020 00:49:17 6 C 44 %
2454 18-03-2020 00:59:17 6 C 43 %
2455 18-03-2020 01:09:17 5.7 C 44 %
2456 18-03-2020 01:19:17 5.6 C 44 %
2457 18-03-2020 01:29:17 5.3 C 44 %
2458 18-03-2020 01:39:17 5.6 C 45 %
2459 18-03-2020 01:49:17 5.3 C 45 %
2460 18-03-2020 01:59:17 5.6 C 46 %
2461 18-03-2020 02:09:17 5.1 C 44 %
2462 18-03-2020 02:19:17 4.8 C 45 %
2463 18-03-2020 02:29:17 4.8 C 45 %
2464 18-03-2020 02:39:17 4.6 C 46 %
2465 18-03-2020 02:49:18 4.3 C 46 %
2466 18-03-2020 02:59:18 4.3 C 46 %
2467 18-03-2020 03:09:18 4.2 C 46 %
2468 18-03-2020 03:19:17 4.2 C 46 %
2469 18-03-2020 03:29:17 4.1 C 46 %
2470 18-03-2020 03:39:17 4 C 46 %
2471 18-03-2020 03:49:17 3.8 C 47 %
2472 18-03-2020 03:59:17 3.8 C 47 %
2473 18-03-2020 04:09:17 3.8 C 47 %
2474 18-03-2020 04:19:18 3.8 C 47 %
2475 18-03-2020 04:29:18 3.7 C 47 %
Sensor: Nr:Datum:Temp:Feuchte:
Aussen-T/F 2476 18-03-2020 04:39:18 3.7 C 47 %
2477 18-03-2020 04:49:18 3.6 C 47 %
2478 18-03-2020 04:59:18 3.6 C 47 %
2479 18-03-2020 05:09:18 3.7 C 48 %
2480 18-03-2020 05:19:18 3.8 C 48 %
2481 18-03-2020 05:29:18 3.3 C 47 %
2482 18-03-2020 05:39:18 3.2 C 47 %
2483 18-03-2020 05:49:18 3.3 C 47 %
2484 18-03-2020 05:59:18 3.1 C 47 %
2485 18-03-2020 06:09:18 2.9 C 48 %
2486 18-03-2020 06:19:17 3.3 C 47 %
2487 18-03-2020 06:29:18 3.1 C 47 %
2488 18-03-2020 06:39:18 3.1 C 47 %
2489 18-03-2020 06:49:17 3.1 C 47 %
2490 18-03-2020 06:59:18 3.6 C 47 %
2491 18-03-2020 07:09:18 3.5 C 47 %
2492 18-03-2020 07:19:17 3.4 C 47 %
2493 18-03-2020 07:29:17 3.7 C 47 %
2494 18-03-2020 07:39:17 3.9 C 47 %
2495 18-03-2020 07:49:18 4 C 46 %
2496 18-03-2020 07:59:18 4.9 C 46 %
2497 18-03-2020 08:09:18 4.6 C 46 %
2498 18-03-2020 08:19:18 4.5 C 46 %
2499 18-03-2020 08:29:18 4.7 C 46 %
2500 18-03-2020 08:39:17 5 C 45 %
Sensor: Nr:Datum:Temp:Feuchte:
Aussen-T/F 2501 18-03-2020 08:49:18 5.3 C 46 %
2502 18-03-2020 08:59:18 5.6 C 46 %
2503 18-03-2020 09:09:17 6.7 C 45 %
2504 18-03-2020 09:19:17 7.1 C 45 %
2505 18-03-2020 09:29:17 8.5 C 45 %
2506 18-03-2020 09:39:17 9.7 C 41 %
2507 18-03-2020 09:49:18 10.5 C 40 %
2508 18-03-2020 09:59:18 11 C 38 %
2509 18-03-2020 10:09:18 11.1 C 38 %
2510 18-03-2020 10:19:18 11.6 C 38 %
2511 18-03-2020 10:29:18 11.6 C 37 %
2512 18-03-2020 10:39:18 11.7 C 38 %
2513 18-03-2020 10:49:18 12 C 36 %
2514 18-03-2020 10:59:18 12.2 C 35 %
2515 18-03-2020 11:09:18 12.7 C 35 %
2516 18-03-2020 11:19:18 12.8 C 34 %
2517 18-03-2020 11:29:18 13.3 C 34 %
2518 18-03-2020 11:39:18 13.9 C 33 %
2519 18-03-2020 11:49:17 14.7 C 32 %
2520 18-03-2020 11:59:17 15.3 C 30 %
2521 18-03-2020 12:09:18 15.8 C 30 %
2522 18-03-2020 12:19:17 16.6 C 29 %
2523 18-03-2020 12:29:18 17 C 27 %
2524 18-03-2020 12:39:18 17.8 C 26 %
2525 18-03-2020 12:49:17 19.1 C 25 %
Sensor: Nr:Datum:Temp:Feuchte:
Aussen-T/F 2526 18-03-2020 12:59:17 19.8 C 20 %
2527 18-03-2020 13:09:17 21 C 20 %
2528 18-03-2020 13:19:17 21.2 C 20 %
2529 18-03-2020 13:29:17 19.5 C 20 %
2530 18-03-2020 13:39:18 17.7 C 20 %
2531 18-03-2020 13:49:17 16.6 C 22 %
2532 18-03-2020 13:59:17 16 C 22 %
2533 18-03-2020 14:09:17 17.6 C 21 %
2534 18-03-2020 14:19:17 16.7 C 20 %
2535 18-03-2020 14:29:17 17.9 C 20 %
2536 18-03-2020 14:39:18 18.5 C 20 %
2537 18-03-2020 14:49:17 17.4 C 20 %
2538 18-03-2020 14:59:17 17.4 C 20 %
2539 18-03-2020 15:09:17 20.6 C 20 %
2540 18-03-2020 15:19:18 17.9 C 20 %
2541 18-03-2020 15:29:18 18.2 C 20 %
2542 18-03-2020 15:39:18 17.7 C 20 %
2543 18-03-2020 15:49:17 16.9 C 20 %
2544 18-03-2020 15:59:17 16.7 C 21 %
2545 18-03-2020 16:09:17 16.4 C 21 %
2546 18-03-2020 16:19:17 16.4 C 22 %
2547 18-03-2020 16:29:17 16.4 C 20 %
2548 18-03-2020 16:39:17 16.5 C 20 %
2549 18-03-2020 16:49:18 16.2 C 21 %
2550 18-03-2020 16:59:18 16.1 C 21 %
Sensor: Nr:Datum:Temp:Feuchte:
Aussen-T/F 2551 18-03-2020 17:09:17 16 C 21 %
2552 18-03-2020 17:19:17 16 C 21 %
2553 18-03-2020 17:29:17 15.7 C 22 %
2554 18-03-2020 17:39:18 16 C 20 %
2555 18-03-2020 17:49:17 16.3 C 20 %
2556 18-03-2020 17:59:17 15.8 C 22 %
2557 18-03-2020 18:09:17 15.4 C 22 %
2558 18-03-2020 18:19:17 14.7 C 26 %
2559 18-03-2020 18:29:17 13.7 C 26 %
2560 18-03-2020 18:39:17 13.3 C 28 %
2561 18-03-2020 18:49:17 12.7 C 30 %
2562 18-03-2020 18:59:17 12 C 31 %
2563 18-03-2020 19:09:17 11.7 C 32 %
2564 18-03-2020 19:19:18 11.5 C 32 %
2565 18-03-2020 19:29:18 10.5 C 34 %
2566 18-03-2020 19:39:18 10.9 C 34 %
2567 18-03-2020 19:49:18 11.1 C 34 %
2568 18-03-2020 19:59:18 10.9 C 35 %
2569 18-03-2020 20:09:18 10.6 C 35 %
2570 18-03-2020 20:19:17 10.4 C 35 %
2571 18-03-2020 20:29:17 10.4 C 35 %
2572 18-03-2020 20:39:18 10 C 36 %
2573 18-03-2020 20:49:17 9.7 C 37 %
2574 18-03-2020 20:59:17 9.7 C 37 %
2575 18-03-2020 21:09:18 9.7 C 37 %
Sensor: Nr:Datum:Temp:Feuchte:
Aussen-T/F 2576 18-03-2020 21:19:17 9.6 C 37 %
2577 18-03-2020 21:29:17 9.4 C 37 %
2578 18-03-2020 21:39:17 9 C 37 %
2579 18-03-2020 21:49:17 8.7 C 38 %
2580 18-03-2020 21:59:17 8.4 C 39 %
2581 18-03-2020 22:09:17 8.2 C 39 %
2582 18-03-2020 22:19:17 8.1 C 40 %
2583 18-03-2020 22:29:17 8 C 40 %
2584 18-03-2020 22:39:17 8 C 40 %
2585 18-03-2020 22:49:17 8.1 C 40 %
2586 18-03-2020 22:59:17 8.2 C 40 %
2587 18-03-2020 23:09:18 8.3 C 40 %
2588 18-03-2020 23:19:17 8.1 C 40 %
2589 18-03-2020 23:29:17 8 C 40 %
2590 18-03-2020 23:39:18 8 C 40 %
2591 18-03-2020 23:49:18 8.4 C 40 %
2592 18-03-2020 23:59:18 8.9 C 40 %
2593 19-03-2020 00:09:17 8.9 C 39 %
2594 19-03-2020 00:19:18 8.9 C 38 %
2595 19-03-2020 00:29:18 9 C 38 %
2596 19-03-2020 00:39:18 9 C 38 %
2597 19-03-2020 00:49:17 9.1 C 38 %
2598 19-03-2020 00:59:17 9.1 C 38 %
2599 19-03-2020 01:09:18 9 C 38 %
2600 19-03-2020 01:19:17 9.1 C 38 %
Sensor: Nr:Datum:Temp:Feuchte:
Aussen-T/F 2601 19-03-2020 01:29:17 9 C 38 %
2602 19-03-2020 01:39:17 9 C 38 %
2603 19-03-2020 01:49:17 8.9 C 38 %
2604 19-03-2020 01:59:17 8.8 C 39 %
2605 19-03-2020 02:09:18 8.7 C 39 %
2606 19-03-2020 02:19:17 8.7 C 39 %
2607 19-03-2020 02:29:17 8.6 C 39 %
2608 19-03-2020 02:39:17 8.5 C 39 %
2609 19-03-2020 02:49:18 8.5 C 39 %
2610 19-03-2020 02:59:18 8.5 C 39 %
2611 19-03-2020 03:09:18 8.5 C 39 %
2612 19-03-2020 03:19:18 8.6 C 39 %
2613 19-03-2020 03:29:18 8.5 C 39 %
2614 19-03-2020 03:39:17 8.5 C 39 %
2615 19-03-2020 03:49:18 8.4 C 39 %
2616 19-03-2020 03:59:18 8.4 C 40 %
2617 19-03-2020 04:09:18 8.4 C 40 %
2618 19-03-2020 04:19:17 8.5 C 40 %
2619 19-03-2020 04:29:17 8.5 C 39 %
2620 19-03-2020 04:39:17 8.5 C 39 %
2621 19-03-2020 04:49:18 8.5 C 39 %
2622 19-03-2020 04:59:18 8.5 C 39 %
2623 19-03-2020 05:09:18 8.6 C 39 %
2624 19-03-2020 05:19:18 8.9 C 38 %
2625 19-03-2020 05:29:18 8.7 C 39 %
Sensor: Nr:Datum:Temp:Feuchte:
Aussen-T/F 2626 19-03-2020 05:39:18 8.6 C 39 %
2627 19-03-2020 05:49:17 8.5 C 39 %
2628 19-03-2020 05:59:18 8.4 C 39 %
2629 19-03-2020 06:09:18 8.4 C 39 %
2630 19-03-2020 06:19:17 8.3 C 40 %
2631 19-03-2020 06:29:17 8.2 C 39 %
2632 19-03-2020 06:39:17 8.1 C 40 %
2633 19-03-2020 06:49:17 8.1 C 40 %
2634 19-03-2020 06:59:17 8.2 C 40 %
2635 19-03-2020 07:09:17 8.2 C 40 %
2636 19-03-2020 07:19:17 8.5 C 40 %
2637 19-03-2020 07:29:17 8.7 C 39 %
2638 19-03-2020 07:39:18 8.9 C 39 %
2639 19-03-2020 07:49:18 9.1 C 38 %
2640 19-03-2020 07:59:18 9.4 C 38 %
2641 19-03-2020 08:09:18 9.7 C 38 %
2642 19-03-2020 08:19:17 9.9 C 37 %
2643 19-03-2020 08:29:17 9.9 C 37 %
2644 19-03-2020 08:39:17 10.5 C 36 %
2645 19-03-2020 08:49:18 10.4 C 36 %
2646 19-03-2020 08:59:18 10.2 C 36 %
2647 19-03-2020 09:09:17 11.2 C 35 %
2648 19-03-2020 09:19:17 11.7 C 35 %
2649 19-03-2020 09:29:17 11.5 C 35 %
2650 19-03-2020 09:39:18 11.8 C 35 %
Sensor: Nr:Datum:Temp:Feuchte:
Aussen-T/F 2651 19-03-2020 09:49:17 11.6 C 35 %
2652 19-03-2020 09:59:17 12.4 C 33 %
2653 19-03-2020 10:09:18 12.3 C 32 %
2654 19-03-2020 10:19:18 13.1 C 31 %
2655 19-03-2020 10:29:18 13.5 C 30 %
2656 19-03-2020 10:39:17 13.9 C 31 %
2657 19-03-2020 10:49:17 14.2 C 30 %
2658 19-03-2020 10:59:17 15.4 C 29 %
2659 19-03-2020 11:09:17 15.5 C 29 %
2660 19-03-2020 11:19:17 16.4 C 26 %
2661 19-03-2020 11:29:17 17.7 C 26 %
2662 19-03-2020 11:39:17 18.5 C 24 %
2663 19-03-2020 11:49:17 15.8 C 26 %
2664 19-03-2020 11:59:17 15 C 28 %
2665 19-03-2020 12:09:17 15.2 C 28 %
2666 19-03-2020 12:19:17 15.5 C 28 %
2667 19-03-2020 12:29:17 16.8 C 26 %
2668 19-03-2020 12:39:18 18.1 C 22 %
2669 19-03-2020 12:49:17 18.6 C 20 %
2670 19-03-2020 12:59:17 17.9 C 20 %
2671 19-03-2020 13:09:18 20.4 C 20 %
2672 19-03-2020 13:19:18 25.8 C 20 %
2673 19-03-2020 13:29:18 25.6 C 20 %
2674 19-03-2020 13:39:18 19.7 C 20 %
2675 19-03-2020 13:49:17 18.8 C 20 %
Sensor: Nr:Datum:Temp:Feuchte:
Aussen-T/F 2676 19-03-2020 13:59:17 18.2 C 20 %
2677 19-03-2020 14:09:17 18.7 C 20 %
2678 19-03-2020 14:19:17 18.9 C 20 %
2679 19-03-2020 14:29:17 18.8 C 20 %
2680 19-03-2020 14:39:17 18.9 C 20 %
2681 19-03-2020 14:49:17 19.3 C 20 %
2682 19-03-2020 14:59:17 19.1 C 20 %
2683 19-03-2020 15:09:18 18.5 C 20 %
2684 19-03-2020 15:19:18 19.1 C 20 %
2685 19-03-2020 15:29:18 19.3 C 20 %
2686 19-03-2020 15:39:18 19.8 C 20 %
2687 19-03-2020 15:49:17 21.8 C 20 %
2688 19-03-2020 15:59:18 19.5 C 20 %
2689 19-03-2020 16:09:18 19.1 C 20 %
2690 19-03-2020 16:20:17 19.1 C 20 %
2691 19-03-2020 16:29:17 19.1 C 20 %
2692 19-03-2020 16:39:17 19.1 C 20 %
2693 19-03-2020 16:49:17 19.1 C 20 %
2694 19-03-2020 16:59:17 18.4 C 20 %
2695 19-03-2020 17:09:18 17.6 C 20 %
2696 19-03-2020 17:19:18 17.3 C 20 %
2697 19-03-2020 17:29:18 17 C 20 %
2698 19-03-2020 17:39:18 16.8 C 20 %
2699 19-03-2020 17:49:18 16.9 C 20 %
2700 19-03-2020 17:59:18 16.7 C 20 %
Sensor: Nr:Datum:Temp:Feuchte:
Aussen-T/F 2701 19-03-2020 18:09:18 16.3 C 20 %
2702 19-03-2020 18:20:17 15.7 C 23 %
2703 19-03-2020 18:30:17 13.9 C 29 %
2704 19-03-2020 18:40:17 13.5 C 30 %
2705 19-03-2020 18:50:17 12.8 C 31 %
2706 19-03-2020 18:59:18 12.7 C 31 %
2707 19-03-2020 19:09:18 12.3 C 31 %
2708 19-03-2020 19:20:17 12.2 C 31 %
2709 19-03-2020 19:30:17 11.9 C 32 %
2710 19-03-2020 19:40:17 11.7 C 32 %
2711 19-03-2020 19:50:17 11.7 C 33 %
2712 19-03-2020 19:59:17 11.7 C 33 %
2713 19-03-2020 20:09:17 11.7 C 33 %
2714 19-03-2020 20:29:17 11.5 C 34 %
2715 19-03-2020 20:29:17 11.6 C 34 %
2716 19-03-2020 20:39:17 12 C 33 %
2717 19-03-2020 20:49:17 11.8 C 34 %
2718 19-03-2020 20:59:17 11.5 C 35 %
2719 19-03-2020 21:09:18 12 C 33 %
2720 19-03-2020 21:20:17 11.4 C 35 %
2721 19-03-2020 21:30:17 11.3 C 35 %
2722 19-03-2020 21:40:17 10.3 C 36 %
2723 19-03-2020 21:50:17 10.7 C 36 %
2724 19-03-2020 21:59:18 10.6 C 36 %
2725 19-03-2020 22:09:18 10.1 C 37 %
Sensor: Nr:Datum:Temp:Feuchte:
Aussen-T/F 2726 19-03-2020 22:19:18 9.7 C 38 %
2727 19-03-2020 22:29:18 9.8 C 38 %
2728 19-03-2020 22:39:18 9.5 C 39 %
2729 19-03-2020 22:49:18 9.4 C 39 %
2730 19-03-2020 22:59:18 9.5 C 38 %
2731 19-03-2020 23:09:18 9.5 C 38 %
2732 19-03-2020 23:20:17 9.4 C 39 %
2733 19-03-2020 23:30:17 9.2 C 39 %
2734 19-03-2020 23:40:17 9.6 C 38 %
2735 19-03-2020 23:50:17 9.1 C 39 %
2736 19-03-2020 23:59:18 8.7 C 40 %
2737 20-03-2020 00:09:18 8.6 C 40 %
2738 20-03-2020 00:19:18 9.3 C 39 %
2739 20-03-2020 00:29:18 9.1 C 39 %
2740 20-03-2020 00:39:18 9 C 39 %
2741 20-03-2020 00:59:17 8.8 C 40 %
2742 20-03-2020 01:00:18 8.8 C 40 %
2743 20-03-2020 01:10:18 8.7 C 40 %
2744 20-03-2020 01:20:17 8.7 C 40 %
2745 20-03-2020 01:30:18 8.6 C 40 %
2746 20-03-2020 01:40:18 8.4 C 40 %
2747 20-03-2020 01:50:17 8.5 C 40 %
2748 20-03-2020 02:00:18 8.3 C 40 %
2749 20-03-2020 02:10:18 7.9 C 40 %
2750 20-03-2020 02:20:17 7.6 C 41 %
Sensor: Nr:Datum:Temp:Feuchte:
Aussen-T/F 2751 20-03-2020 02:30:17 7.4 C 41 %
2752 20-03-2020 02:40:17 7.4 C 41 %
2753 20-03-2020 02:50:17 7.1 C 41 %
2754 20-03-2020 03:00:17 7.1 C 42 %
2755 20-03-2020 03:10:17 7.1 C 42 %
2756 20-03-2020 03:20:17 7.1 C 42 %
2757 20-03-2020 03:30:18 7.2 C 42 %
2758 20-03-2020 03:40:18 7.3 C 42 %
2759 20-03-2020 03:50:17 7.5 C 42 %
2760 20-03-2020 04:00:18 7.5 C 42 %
2761 20-03-2020 04:10:18 7.7 C 42 %
2762 20-03-2020 04:20:18 7.6 C 41 %
2763 20-03-2020 04:30:18 7.4 C 42 %
2764 20-03-2020 04:40:18 7.2 C 42 %
2765 20-03-2020 04:50:17 7 C 42 %
2766 20-03-2020 05:00:18 6.9 C 43 %
2767 20-03-2020 05:10:18 6.8 C 43 %
2768 20-03-2020 05:20:17 6.5 C 43 %
2769 20-03-2020 05:30:17 6.2 C 43 %
2770 20-03-2020 05:40:17 5.9 C 44 %
2771 20-03-2020 05:50:17 5.6 C 44 %
2772 20-03-2020 06:00:17 5.4 C 45 %
2773 20-03-2020 06:10:17 5.2 C 45 %
2774 20-03-2020 06:20:17 5 C 45 %
2775 20-03-2020 06:30:17 5.1 C 46 %
Sensor: Nr:Datum:Temp:Feuchte:
Aussen-T/F 2776 20-03-2020 06:40:17 5 C 46 %
2777 20-03-2020 06:50:17 5 C 46 %
2778 20-03-2020 07:00:17 5.1 C 46 %
2779 20-03-2020 07:10:17 5.3 C 46 %
2780 20-03-2020 07:20:17 5.5 C 46 %
2781 20-03-2020 07:30:17 5.6 C 46 %
2782 20-03-2020 07:40:17 5.7 C 46 %
2783 20-03-2020 07:50:18 5.8 C 46 %
2784 20-03-2020 08:00:17 6.3 C 46 %
2785 20-03-2020 08:10:17 6.9 C 45 %
2786 20-03-2020 08:20:17 7.2 C 43 %
2787 20-03-2020 08:30:17 7.1 C 43 %
2788 20-03-2020 08:40:17 7.1 C 43 %
2789 20-03-2020 08:50:17 7.3 C 43 %
2790 20-03-2020 09:00:17 8 C 43 %
2791 20-03-2020 09:10:17 8.2 C 42 %
2792 20-03-2020 09:20:17 9.6 C 42 %
2793 20-03-2020 09:30:17 10 C 40 %
2794 20-03-2020 09:40:17 10.2 C 40 %
2795 20-03-2020 09:50:17 10.5 C 39 %
2796 20-03-2020 10:00:18 10.8 C 39 %
2797 20-03-2020 10:10:18 11.2 C 38 %
2798 20-03-2020 10:20:18 11.1 C 37 %
2799 20-03-2020 10:30:18 11 C 37 %
2800 20-03-2020 10:40:18 11.5 C 37 %
Sensor: Nr:Datum:Temp:Feuchte:
Aussen-T/F 2801 20-03-2020 10:50:18 12.6 C 36 %
2802 20-03-2020 11:00:17 13.1 C 35 %
2803 20-03-2020 11:10:18 13.1 C 35 %
2804 20-03-2020 11:20:18 14.2 C 33 %
2805 20-03-2020 11:30:18 14.5 C 32 %
2806 20-03-2020 11:40:18 15.3 C 31 %
2807 20-03-2020 11:50:18 14.6 C 32 %
2808 20-03-2020 12:00:17 15.6 C 31 %
2809 20-03-2020 12:10:17 15.4 C 30 %
2810 20-03-2020 12:20:17 15.6 C 30 %
2811 20-03-2020 12:30:18 14.4 C 31 %
2812 20-03-2020 12:40:18 14.9 C 31 %
2813 20-03-2020 12:50:18 14.9 C 31 %
2814 20-03-2020 13:00:18 14.9 C 31 %
2815 20-03-2020 13:10:18 14.9 C 31 %
2816 20-03-2020 13:20:18 14.9 C 31 %
2817 20-03-2020 13:30:18 14.9 C 31 %
2818 20-03-2020 13:40:18 14.9 C 31 %
2819 20-03-2020 13:50:17 16.4 C 26 %
2820 20-03-2020 14:00:17 16.2 C 27 %
2821 20-03-2020 14:10:17 16.6 C 26 %
2822 20-03-2020 14:20:17 16.2 C 27 %
2823 20-03-2020 14:30:18 17.4 C 26 %
2824 20-03-2020 14:40:18 17.3 C 26 %
2825 20-03-2020 14:50:18 17.9 C 25 %
Sensor: Nr:Datum:Temp:Feuchte:
Aussen-T/F 2826 20-03-2020 15:00:17 17.9 C 25 %
2827 20-03-2020 15:10:17 18.1 C 25 %
2828 20-03-2020 15:20:17 17 C 25 %
2829 20-03-2020 15:30:18 17.9 C 25 %
2830 20-03-2020 15:40:18 18.5 C 25 %
2831 20-03-2020 15:50:18 17 C 25 %
2832 20-03-2020 16:00:17 16.2 C 26 %
2833 20-03-2020 16:10:17 16.1 C 26 %
2834 20-03-2020 16:20:17 15.5 C 26 %
2835 20-03-2020 16:30:18 15.8 C 26 %
2836 20-03-2020 16:40:18 15.3 C 26 %
2837 20-03-2020 16:50:18 17 C 25 %
2838 20-03-2020 17:00:18 16.1 C 26 %
2839 20-03-2020 17:10:18 15.2 C 27 %
2840 20-03-2020 17:20:18 14.3 C 28 %
2841 20-03-2020 17:30:18 13.9 C 30 %
2842 20-03-2020 17:40:18 12.8 C 31 %
2843 20-03-2020 17:50:17 12.5 C 31 %
2844 20-03-2020 18:00:17 12.4 C 32 %
2845 20-03-2020 18:10:17 11.9 C 33 %
2846 20-03-2020 18:20:17 11.8 C 34 %
2847 20-03-2020 18:30:17 11.6 C 34 %
2848 20-03-2020 18:40:17 11.6 C 34 %
2849 20-03-2020 18:50:18 11.5 C 34 %
2850 20-03-2020 19:00:17 11.5 C 34 %
Sensor: Nr:Datum:Temp:Feuchte:
Aussen-T/F 2851 20-03-2020 19:10:17 11.3 C 34 %
2852 20-03-2020 19:20:17 11.1 C 34 %
2853 20-03-2020 19:30:17 11 C 35 %
2854 20-03-2020 19:40:17 10.7 C 35 %
2855 20-03-2020 19:50:17 10.6 C 35 %
2856 20-03-2020 20:00:17 10.4 C 35 %
2857 20-03-2020 20:10:17 10.2 C 35 %
2858 20-03-2020 20:20:17 10.3 C 35 %
2859 20-03-2020 20:30:17 10.3 C 35 %
2860 20-03-2020 20:40:17 10.2 C 35 %
2861 20-03-2020 20:50:18 10.3 C 35 %
2862 20-03-2020 21:00:18 10.1 C 35 %
2863 20-03-2020 21:10:18 9.9 C 35 %
2864 20-03-2020 21:20:17 9.5 C 35 %
2865 20-03-2020 21:30:17 9.2 C 35 %
2866 20-03-2020 21:40:17 9.1 C 35 %
2867 20-03-2020 21:50:17 8.7 C 36 %
2868 20-03-2020 22:00:17 8.5 C 36 %
2869 20-03-2020 22:10:17 8.4 C 36 %
2870 20-03-2020 22:20:18 8.3 C 36 %
2871 20-03-2020 22:30:17 8.2 C 36 %
2872 20-03-2020 22:40:18 8.1 C 36 %
2873 20-03-2020 22:50:17 8.1 C 36 %
2874 20-03-2020 23:00:18 8 C 35 %
2875 20-03-2020 23:10:18 7.9 C 36 %
Sensor: Nr:Datum:Temp:Feuchte:
Aussen-T/F 2876 20-03-2020 23:20:17 7.9 C 36 %
2877 20-03-2020 23:30:18 7.9 C 35 %
2878 20-03-2020 23:40:18 7.8 C 35 %
2879 20-03-2020 23:50:18 7.7 C 35 %
2880 21-03-2020 00:00:17 7.6 C 34 %
2881 21-03-2020 00:10:17 7.6 C 34 %
2882 21-03-2020 00:20:17 7.4 C 34 %
2883 21-03-2020 00:30:17 7.3 C 34 %
2884 21-03-2020 00:40:17 7.3 C 34 %
2885 21-03-2020 00:50:17 7.3 C 34 %
2886 21-03-2020 01:00:17 7.2 C 33 %
2887 21-03-2020 01:10:17 7.1 C 33 %
2888 21-03-2020 01:20:17 6.8 C 35 %
2889 21-03-2020 01:30:18 6.5 C 35 %
2890 21-03-2020 01:40:18 6.2 C 36 %
2891 21-03-2020 01:50:17 5.9 C 38 %
2892 21-03-2020 02:00:18 5.6 C 39 %
2893 21-03-2020 02:10:18 5.3 C 40 %
2894 21-03-2020 02:20:17 5.1 C 41 %
2895 21-03-2020 02:30:18 4.9 C 43 %
2896 21-03-2020 02:40:18 4.9 C 43 %
2897 21-03-2020 02:50:18 4.6 C 43 %
2898 21-03-2020 03:00:17 4.5 C 43 %
2899 21-03-2020 03:10:17 4.4 C 44 %
2900 21-03-2020 03:20:17 4.5 C 45 %
Sensor: Nr:Datum:Temp:Feuchte:
Aussen-T/F 2901 21-03-2020 03:30:18 4.5 C 45 %
2902 21-03-2020 03:40:18 4.4 C 45 %
2903 21-03-2020 03:50:17 4.4 C 45 %
2904 21-03-2020 04:00:18 4.3 C 45 %
2905 21-03-2020 04:10:18 4.2 C 45 %
2906 21-03-2020 04:20:17 4.1 C 45 %
2907 21-03-2020 04:30:18 4.1 C 45 %
2908 21-03-2020 04:40:18 4 C 45 %
2909 21-03-2020 04:50:18 3.9 C 46 %
2910 21-03-2020 05:00:18 3.9 C 46 %
2911 21-03-2020 05:10:18 4 C 46 %
2912 21-03-2020 05:20:18 3.9 C 47 %
2913 21-03-2020 05:30:18 3.9 C 47 %
2914 21-03-2020 05:40:18 3.9 C 47 %
2915 21-03-2020 05:50:17 4 C 46 %
2916 21-03-2020 06:00:18 4 C 47 %
2917 21-03-2020 06:10:18 3.9 C 47 %
2918 21-03-2020 06:20:17 4 C 47 %
2919 21-03-2020 06:30:18 4 C 47 %
2920 21-03-2020 06:40:18 4 C 47 %
2921 21-03-2020 06:50:17 4 C 47 %
2922 21-03-2020 07:00:17 4.1 C 47 %
2923 21-03-2020 07:10:18 4.1 C 47 %
2924 21-03-2020 07:20:18 4.1 C 47 %
2925 21-03-2020 07:30:18 4.2 C 47 %
Sensor: Nr:Datum:Temp:Feuchte:
Aussen-T/F 2926 21-03-2020 07:40:18 4.3 C 47 %
2927 21-03-2020 07:50:17 4.3 C 47 %
2928 21-03-2020 08:00:18 4.4 C 47 %
2929 21-03-2020 08:10:18 4.5 C 47 %
2930 21-03-2020 08:20:17 4.5 C 46 %
2931 21-03-2020 08:30:17 4.6 C 46 %
2932 21-03-2020 08:40:17 4.7 C 46 %
2933 21-03-2020 08:50:18 4.8 C 46 %
2934 21-03-2020 09:00:18 4.7 C 46 %
2935 21-03-2020 09:10:18 4.6 C 45 %
2936 21-03-2020 09:20:18 5.2 C 43 %
2937 21-03-2020 09:30:18 5.6 C 42 %
2938 21-03-2020 09:40:18 5.8 C 41 %
2939 21-03-2020 09:50:17 6 C 41 %
2940 21-03-2020 10:00:17 6.2 C 41 %
2941 21-03-2020 10:10:18 6.4 C 39 %
2942 21-03-2020 10:20:18 6.5 C 40 %
2943 21-03-2020 10:30:18 6.7 C 39 %
2944 21-03-2020 10:40:18 6.7 C 38 %
2945 21-03-2020 10:50:17 6.4 C 39 %
2946 21-03-2020 11:00:17 6.5 C 37 %
2947 21-03-2020 11:10:18 7.1 C 36 %
2948 21-03-2020 11:20:18 7.3 C 36 %
2949 21-03-2020 11:30:18 8.1 C 34 %
2950 21-03-2020 11:40:18 8 C 34 %
Sensor: Nr:Datum:Temp:Feuchte:
Aussen-T/F 2951 21-03-2020 11:50:18 8.3 C 32 %
2952 21-03-2020 12:00:18 7.8 C 32 %
2953 21-03-2020 12:10:18 7.6 C 33 %
2954 21-03-2020 12:20:17 7.9 C 31 %
2955 21-03-2020 12:30:17 8.7 C 32 %
2956 21-03-2020 12:40:17 8.2 C 30 %
2957 21-03-2020 12:50:17 7.8 C 31 %
2958 21-03-2020 13:00:17 7.9 C 30 %
2959 21-03-2020 13:10:17 8.7 C 30 %
2960 21-03-2020 13:20:18 8.9 C 28 %
2961 21-03-2020 13:30:18 8.5 C 28 %
2962 21-03-2020 13:40:18 8.2 C 27 %
2963 21-03-2020 13:50:17 8.4 C 27 %
2964 21-03-2020 14:00:18 8.6 C 27 %
2965 21-03-2020 14:10:18 9.1 C 26 %
2966 21-03-2020 14:20:18 8.7 C 27 %
2967 21-03-2020 14:30:18 9.1 C 25 %
2968 21-03-2020 14:40:18 11.1 C 24 %
2969 21-03-2020 14:50:17 9.8 C 23 %
2970 21-03-2020 15:00:18 11 C 20 %
2971 21-03-2020 15:10:18 10.1 C 20 %
2972 21-03-2020 15:20:17 11.2 C 20 %
2973 21-03-2020 15:30:17 11.7 C 20 %
2974 21-03-2020 15:40:17 9.4 C 20 %
2975 21-03-2020 15:50:17 8.6 C 20 %
Sensor: Nr:Datum:Temp:Feuchte:
Aussen-T/F 2976 21-03-2020 16:00:18 9.4 C 20 %
2977 21-03-2020 16:10:18 9.5 C 20 %
2978 21-03-2020 16:20:17 12.1 C 20 %
2979 21-03-2020 16:30:17 12 C 20 %
2980 21-03-2020 16:40:17 13.3 C 20 %
2981 21-03-2020 16:50:17 10.9 C 20 %
2982 21-03-2020 17:00:17 9.2 C 20 %
2983 21-03-2020 17:10:17 8.9 C 20 %
2984 21-03-2020 17:20:17 8.3 C 20 %
2985 21-03-2020 17:30:18 7.8 C 20 %
2986 21-03-2020 17:40:18 7.8 C 20 %
2987 21-03-2020 17:50:17 7.5 C 20 %
2988 21-03-2020 18:00:17 7 C 20 %
2989 21-03-2020 18:10:17 6.9 C 20 %
2990 21-03-2020 18:20:17 6.6 C 21 %
2991 21-03-2020 18:30:17 6.4 C 23 %
2992 21-03-2020 18:40:17 5.9 C 25 %
2993 21-03-2020 18:50:17 5.5 C 27 %
2994 21-03-2020 19:00:17 5.5 C 26 %
2995 21-03-2020 19:10:17 5.1 C 28 %
2996 21-03-2020 19:20:17 4.7 C 30 %
2997 21-03-2020 19:30:18 4.4 C 31 %
2998 21-03-2020 19:40:18 4.5 C 30 %
2999 21-03-2020 19:50:17 4.4 C 29 %
3000 21-03-2020 20:00:18 4.1 C 30 %
Sensor: Nr:Datum:Temp:Feuchte:
Aussen-T/F 3001 21-03-2020 20:10:18 3.7 C 31 %
3002 21-03-2020 20:20:18 3.2 C 33 %
3003 21-03-2020 20:30:18 3.7 C 32 %
3004 21-03-2020 20:40:18 3.9 C 30 %
3005 21-03-2020 20:50:17 3.6 C 31 %
3006 21-03-2020 21:00:18 3.3 C 32 %
3007 21-03-2020 21:10:18 3 C 32 %
3008 21-03-2020 21:20:18 3.4 C 32 %
3009 21-03-2020 21:30:18 3.1 C 31 %
3010 21-03-2020 21:40:18 2.9 C 32 %
3011 21-03-2020 21:50:17 2.6 C 33 %
3012 21-03-2020 22:00:17 1.9 C 36 %
3013 21-03-2020 22:10:17 2.3 C 34 %
3014 21-03-2020 22:20:17 3 C 32 %
3015 21-03-2020 22:30:18 2.7 C 32 %
3016 21-03-2020 22:40:18 2.3 C 33 %
3017 21-03-2020 22:50:18 2.7 C 32 %
3018 21-03-2020 23:00:18 2 C 34 %
3019 21-03-2020 23:10:18 2.2 C 33 %
3020 21-03-2020 23:20:18 1.6 C 35 %
3021 21-03-2020 23:30:18 1.7 C 35 %
3022 21-03-2020 23:40:18 1.8 C 35 %
3023 21-03-2020 23:50:17 1.7 C 35 %
3024 22-03-2020 00:00:18 1.4 C 35 %
3025 22-03-2020 00:10:18 1.5 C 35 %
Sensor: Nr:Datum:Temp:Feuchte:
Aussen-T/F 3026 22-03-2020 00:20:17 0.9 C 37 %
3027 22-03-2020 00:30:17 0.7 C 38 %
3028 22-03-2020 00:40:17 1.2 C 36 %
3029 22-03-2020 00:50:17 0.9 C 37 %
3030 22-03-2020 01:00:18 1.5 C 35 %
3031 22-03-2020 01:10:18 1.5 C 35 %
3032 22-03-2020 01:20:18 1.1 C 35 %
3033 22-03-2020 01:30:18 1.1 C 35 %
3034 22-03-2020 01:40:18 0.9 C 36 %
3035 22-03-2020 01:50:18 1 C 35 %
3036 22-03-2020 02:00:18 1 C 35 %
3037 22-03-2020 02:10:18 0.1 C 38 %
3038 22-03-2020 02:20:17 0.3 C 38 %
3039 22-03-2020 02:30:18 0.5 C 37 %
3040 22-03-2020 02:40:18 0.5 C 37 %
3041 22-03-2020 02:50:18 0.4 C 37 %
3042 22-03-2020 03:00:18 0.2 C 37 %
3043 22-03-2020 03:10:18 0.7 C 37 %
3044 22-03-2020 03:20:18 -0.4 C 38 %
3045 22-03-2020 03:30:18 -0.1 C 38 %
3046 22-03-2020 03:40:18 -0.4 C 39 %
3047 22-03-2020 03:50:17 -0.3 C 39 %
3048 22-03-2020 04:00:17 -0.2 C 38 %
3049 22-03-2020 04:10:17 0 C 37 %
3050 22-03-2020 04:20:17 -0.4 C 38 %
Sensor: Nr:Datum:Temp:Feuchte:
Aussen-T/F 3051 22-03-2020 04:30:17 0.3 C 37 %
3052 22-03-2020 04:40:17 0.1 C 37 %
3053 22-03-2020 04:50:17 -0.2 C 38 %
3054 22-03-2020 05:00:18 0.1 C 37 %
3055 22-03-2020 05:10:18 -0.3 C 37 %
3056 22-03-2020 05:20:17 -0.4 C 37 %
3057 22-03-2020 05:30:18 -0.5 C 38 %
3058 22-03-2020 05:40:18 -0.7 C 38 %
3059 22-03-2020 05:50:17 -1 C 39 %
3060 22-03-2020 06:00:17 -1.1 C 39 %
3061 22-03-2020 06:10:17 -0.8 C 39 %
3062 22-03-2020 06:20:17 0.1 C 37 %
3063 22-03-2020 06:30:17 -0.3 C 37 %
3064 22-03-2020 06:40:17 -0.4 C 37 %
3065 22-03-2020 06:50:18 0 C 36 %
3066 22-03-2020 07:00:18 -0.3 C 37 %
3067 22-03-2020 07:10:18 -0.2 C 37 %
3068 22-03-2020 07:20:18 -0.4 C 37 %
3069 22-03-2020 07:30:18 -0.1 C 36 %
3070 22-03-2020 07:40:18 -0.2 C 37 %
3071 22-03-2020 07:50:17 -0.1 C 36 %
3072 22-03-2020 08:00:18 -0.1 C 36 %
3073 22-03-2020 08:10:18 0.3 C 36 %
3074 22-03-2020 08:20:18 0.3 C 35 %
3075 22-03-2020 08:30:18 0.5 C 35 %
Sensor: Nr:Datum:Temp:Feuchte:
Aussen-T/F 3076 22-03-2020 08:40:18 0.8 C 35 %
3077 22-03-2020 08:50:18 0.4 C 35 %
3078 22-03-2020 09:00:18 0.8 C 35 %
3079 22-03-2020 09:10:18 1.2 C 32 %
3080 22-03-2020 09:20:18 1.6 C 32 %
3081 22-03-2020 09:30:18 2.2 C 30 %
3082 22-03-2020 09:40:18 2.5 C 27 %
3083 22-03-2020 09:50:17 2.8 C 26 %
3084 22-03-2020 10:00:18 3.3 C 25 %
3085 22-03-2020 10:10:18 3.6 C 25 %
3086 22-03-2020 10:20:18 3.9 C 20 %
3087 22-03-2020 10:30:18 4.4 C 20 %
3088 22-03-2020 10:40:18 4.6 C 20 %
3089 22-03-2020 10:50:17 5.2 C 20 %
3090 22-03-2020 11:00:18 5.5 C 20 %
3091 22-03-2020 11:10:18 6.3 C 20 %
3092 22-03-2020 11:20:17 6.5 C 20 %
3093 22-03-2020 11:30:18 6.7 C 20 %
3094 22-03-2020 11:40:18 6.7 C 20 %
3095 22-03-2020 11:50:17 6.5 C 20 %
3096 22-03-2020 12:00:18 7 C 20 %
3097 22-03-2020 12:10:18 7.4 C 20 %
3098 22-03-2020 12:20:18 7.3 C 20 %
3099 22-03-2020 12:30:17 6.9 C 20 %
3100 22-03-2020 12:40:17 8 C 20 %
Sensor: Nr:Datum:Temp:Feuchte:
Aussen-T/F 3101 22-03-2020 12:50:18 8.5 C 20 %
3102 22-03-2020 13:00:18 10.1 C 20 %
3103 22-03-2020 13:10:18 11.1 C 20 %
3104 22-03-2020 13:20:17 11.9 C 20 %
3105 22-03-2020 13:30:18 11.6 C 20 %
3106 22-03-2020 13:40:18 10.9 C 20 %
3107 22-03-2020 13:50:18 10.3 C 20 %
3108 22-03-2020 14:00:17 9.6 C 20 %
3109 22-03-2020 14:10:17 10.2 C 20 %
3110 22-03-2020 14:20:17 12.2 C 20 %
3111 22-03-2020 14:30:17 12.6 C 20 %
3112 22-03-2020 14:40:17 14.4 C 20 %
3113 22-03-2020 14:50:17 14.4 C 20 %
3114 22-03-2020 15:00:18 15 C 20 %
3115 22-03-2020 15:10:18 14.4 C 20 %
3116 22-03-2020 15:20:17 14.7 C 20 %
3117 22-03-2020 15:30:17 13.6 C 20 %
3118 22-03-2020 15:40:17 13.7 C 20 %
3119 22-03-2020 15:50:18 15.4 C 20 %
3120 22-03-2020 16:00:18 16.2 C 20 %
3121 22-03-2020 16:10:18 14.9 C 20 %
3122 22-03-2020 16:20:18 14.1 C 20 %
3123 22-03-2020 16:30:18 13.3 C 20 %
3124 22-03-2020 16:40:18 13.2 C 20 %
3125 22-03-2020 16:50:17 11.7 C 20 %
Sensor: Nr:Datum:Temp:Feuchte:
Aussen-T/F 3126 22-03-2020 17:00:17 10.7 C 20 %
3127 22-03-2020 17:10:17 9.9 C 20 %
3128 22-03-2020 17:20:17 9.7 C 20 %
3129 22-03-2020 17:30:17 9.8 C 20 %
3130 22-03-2020 17:40:17 9.5 C 20 %
3131 22-03-2020 17:50:17 8.9 C 20 %
3132 22-03-2020 18:00:18 8.6 C 20 %
3133 22-03-2020 18:10:18 8.4 C 20 %
3134 22-03-2020 18:20:17 7.9 C 20 %
3135 22-03-2020 18:30:17 7.5 C 20 %
3136 22-03-2020 18:40:17 7 C 20 %
3137 22-03-2020 18:50:17 6.5 C 20 %
3138 22-03-2020 19:00:17 5.6 C 20 %
3139 22-03-2020 19:10:17 4.9 C 21 %
3140 22-03-2020 19:20:17 5.2 C 20 %
3141 22-03-2020 19:30:17 4.3 C 26 %
3142 22-03-2020 19:40:17 3.8 C 27 %
3143 22-03-2020 19:50:18 3.7 C 28 %
3144 22-03-2020 20:00:18 3.6 C 28 %
3145 22-03-2020 20:10:18 3.6 C 27 %
3146 22-03-2020 20:20:17 3.6 C 26 %
3147 22-03-2020 20:30:17 3.2 C 26 %
3148 22-03-2020 20:40:17 3 C 26 %
3149 22-03-2020 20:50:17 2.5 C 30 %
3150 22-03-2020 21:00:17 2.9 C 26 %
Sensor: Nr:Datum:Temp:Feuchte:
Aussen-T/F 3151 22-03-2020 21:10:17 2.7 C 27 %
3152 22-03-2020 21:20:17 2.3 C 30 %
3153 22-03-2020 21:30:17 2.2 C 29 %
3154 22-03-2020 21:40:17 1.8 C 30 %
3155 22-03-2020 21:50:18 1.5 C 31 %
3156 22-03-2020 22:00:18 2 C 30 %
3157 22-03-2020 22:10:18 2.5 C 26 %
3158 22-03-2020 22:20:17 1.8 C 30 %
3159 22-03-2020 22:30:17 1.5 C 29 %
3160 22-03-2020 22:40:17 1.3 C 31 %
3161 22-03-2020 22:50:17 1.4 C 30 %
3162 22-03-2020 23:00:17 0.7 C 33 %
3163 22-03-2020 23:10:17 1.1 C 30 %
3164 22-03-2020 23:20:17 0.8 C 32 %
3165 22-03-2020 23:30:18 0.3 C 33 %
3166 22-03-2020 23:40:18 0.3 C 34 %
3167 22-03-2020 23:50:18 0.6 C 33 %
3168 23-03-2020 00:00:18 0.4 C 34 %
3169 23-03-2020 00:10:18 0 C 33 %
3170 23-03-2020 00:20:17 -0.2 C 33 %
3171 23-03-2020 00:30:17 -0.5 C 35 %
3172 23-03-2020 00:40:17 -0.7 C 36 %
3173 23-03-2020 00:50:18 -1.1 C 36 %
3174 23-03-2020 01:00:17 -0.6 C 35 %
3175 23-03-2020 01:10:17 -0.7 C 36 %
Sensor: Nr:Datum:Temp:Feuchte:
Aussen-T/F 3176 23-03-2020 01:20:17 -0.9 C 35 %
3177 23-03-2020 01:30:18 -0.8 C 35 %
3178 23-03-2020 01:40:18 -1.1 C 35 %
3179 23-03-2020 01:50:18 -0.8 C 35 %
3180 23-03-2020 02:00:18 -1.1 C 35 %
3181 23-03-2020 02:10:18 -1.4 C 35 %
3182 23-03-2020 02:20:17 -1.2 C 35 %
3183 23-03-2020 02:30:17 -1.2 C 35 %
3184 23-03-2020 02:40:17 -1.2 C 35 %
3185 23-03-2020 02:50:17 -1.3 C 35 %
3186 23-03-2020 03:00:17 -1.6 C 35 %
3187 23-03-2020 03:10:18 -1.9 C 35 %
3188 23-03-2020 03:20:18 -1.6 C 35 %
3189 23-03-2020 03:30:18 -1.7 C 35 %
3190 23-03-2020 03:40:18 -1.9 C 35 %
3191 23-03-2020 03:50:18 -1.8 C 35 %
3192 23-03-2020 04:00:18 -1.8 C 35 %
3193 23-03-2020 04:10:18 -2.1 C 35 %
3194 23-03-2020 04:20:17 -1.9 C 35 %
3195 23-03-2020 04:30:17 -2 C 35 %
3196 23-03-2020 04:40:17 -2.1 C 35 %
3197 23-03-2020 04:50:17 -2.7 C 36 %
3198 23-03-2020 05:00:18 -2.5 C 36 %
3199 23-03-2020 05:10:18 -2.4 C 36 %
3200 23-03-2020 05:20:17 -2.3 C 36 %
Sensor: Nr:Datum:Temp:Feuchte:
Aussen-T/F 3201 23-03-2020 05:30:18 -2.4 C 35 %
3202 23-03-2020 05:40:18 -2.7 C 36 %
3203 23-03-2020 05:50:17 -2.7 C 36 %
3204 23-03-2020 06:00:18 -2.6 C 36 %
3205 23-03-2020 06:10:18 -2.9 C 36 %
3206 23-03-2020 06:20:17 -2.6 C 36 %
3207 23-03-2020 06:30:18 -2.8 C 36 %
3208 23-03-2020 06:40:18 -3.2 C 36 %
3209 23-03-2020 06:50:18 -3 C 36 %
3210 23-03-2020 07:00:18 -3 C 36 %
3211 23-03-2020 07:10:18 -3.1 C 36 %
3212 23-03-2020 07:20:18 -2.5 C 35 %
3213 23-03-2020 07:30:18 -2.7 C 36 %
3214 23-03-2020 07:40:18 -2.6 C 36 %
3215 23-03-2020 07:50:18 -1.9 C 34 %
3216 23-03-2020 08:00:18 -2 C 35 %
3217 23-03-2020 08:10:18 -1.4 C 32 %
3218 23-03-2020 08:20:17 -1.1 C 31 %
3219 23-03-2020 08:30:18 -0.2 C 27 %
3220 23-03-2020 08:40:18 -0.2 C 26 %
3221 23-03-2020 08:50:18 -0.3 C 25 %
3222 23-03-2020 09:00:18 0 C 23 %
3223 23-03-2020 09:10:18 0.2 C 23 %
3224 23-03-2020 09:20:18 0.5 C 20 %
3225 23-03-2020 09:30:17 0.7 C 20 %
Sensor: Nr:Datum:Temp:Feuchte:
Aussen-T/F 3226 23-03-2020 09:40:17 1.5 C 20 %
3227 23-03-2020 09:50:18 1.8 C 20 %
3228 23-03-2020 10:00:18 2.4 C 20 %
3229 23-03-2020 10:10:18 2.7 C 20 %
3230 23-03-2020 10:20:18 3 C 20 %
3231 23-03-2020 10:30:17 3.8 C 20 %
3232 23-03-2020 10:40:17 4.1 C 20 %
3233 23-03-2020 10:50:17 4.7 C 20 %
3234 23-03-2020 11:00:17 5.5 C 20 %
3235 23-03-2020 11:10:17 5.5 C 20 %
3236 23-03-2020 11:20:17 6 C 20 %
3237 23-03-2020 11:30:18 6.7 C 20 %
3238 23-03-2020 11:40:18 6.2 C 20 %
3239 23-03-2020 11:50:17 6.3 C 20 %
3240 23-03-2020 12:00:18 7 C 20 %
3241 23-03-2020 12:10:18 7.4 C 20 %
3242 23-03-2020 12:20:18 7.8 C 20 %
3243 23-03-2020 12:30:18 7.5 C 20 %
3244 23-03-2020 12:40:18 8.1 C 20 %
3245 23-03-2020 12:50:18 8.7 C 20 %
3246 23-03-2020 13:00:17 10.4 C 20 %
3247 23-03-2020 13:10:17 10.7 C 20 %
3248 23-03-2020 13:20:17 11.9 C 20 %
3249 23-03-2020 13:30:17 11.4 C 20 %
3250 23-03-2020 13:40:17 10 C 20 %
Sensor: Nr:Datum:Temp:Feuchte:
Aussen-T/F 3251 23-03-2020 13:50:17 9.8 C 20 %
3252 23-03-2020 14:00:18 9.2 C 20 %
3253 23-03-2020 14:10:18 10.5 C 20 %
3254 23-03-2020 14:20:18 12.9 C 20 %
3255 23-03-2020 14:30:18 13 C 20 %
3256 23-03-2020 14:40:18 14.2 C 20 %
3257 23-03-2020 14:50:18 14.3 C 20 %
3258 23-03-2020 15:00:18 14.3 C 20 %
3259 23-03-2020 15:10:18 14.4 C 20 %
3260 23-03-2020 15:20:17 14.7 C 20 %
3261 23-03-2020 15:30:17 13.5 C 20 %
3262 23-03-2020 15:40:17 14.4 C 20 %
3263 23-03-2020 15:50:17 14.1 C 20 %
3264 23-03-2020 16:00:17 13.8 C 20 %
3265 23-03-2020 16:10:17 14.7 C 20 %
3266 23-03-2020 16:20:17 15.3 C 20 %
3267 23-03-2020 16:30:18 14.7 C 20 %
3268 23-03-2020 16:40:18 14.8 C 20 %
3269 23-03-2020 16:50:17 11.4 C 20 %
3270 23-03-2020 17:00:18 10.1 C 20 %
3271 23-03-2020 17:10:18 9.7 C 20 %
3272 23-03-2020 17:20:18 9.4 C 20 %
3273 23-03-2020 17:30:18 9 C 20 %
3274 23-03-2020 17:40:18 9 C 20 %
3275 23-03-2020 17:50:17 8.6 C 20 %
Sensor: Nr:Datum:Temp:Feuchte:
Aussen-T/F 3276 23-03-2020 18:00:18 8.3 C 20 %
3277 23-03-2020 18:10:18 7.6 C 20 %
3278 23-03-2020 18:20:17 7.4 C 20 %
3279 23-03-2020 18:30:18 7 C 20 %
3280 23-03-2020 18:40:18 5.3 C 20 %
3281 23-03-2020 18:50:18 4.4 C 20 %
3282 23-03-2020 19:00:18 4.2 C 20 %
3283 23-03-2020 19:10:18 4.1 C 20 %
3284 23-03-2020 19:20:17 3.7 C 20 %
3285 23-03-2020 19:30:18 3.6 C 20 %
3286 23-03-2020 19:40:18 3.4 C 20 %
3287 23-03-2020 19:50:18 2.7 C 20 %
3288 23-03-2020 20:00:17 2.9 C 20 %
3289 23-03-2020 20:10:17 2.6 C 20 %
3290 23-03-2020 20:20:17 2.5 C 20 %
3291 23-03-2020 20:30:18 2.3 C 20 %
3292 23-03-2020 20:40:18 2.4 C 20 %
3293 23-03-2020 20:50:18 2.3 C 20 %
3294 23-03-2020 21:00:18 2.1 C 20 %
3295 23-03-2020 21:10:18 0.9 C 27 %
3296 23-03-2020 21:20:17 1 C 26 %
3297 23-03-2020 21:30:18 1.1 C 28 %
3298 23-03-2020 21:40:18 0.7 C 29 %
3299 23-03-2020 21:50:18 0.2 C 30 %
3300 23-03-2020 22:00:17 -0.4 C 31 %
Sensor: Nr:Datum:Temp:Feuchte:
Aussen-T/F 3301 23-03-2020 22:10:18 -0.9 C 35 %
3302 23-03-2020 22:20:18 -0.2 C 34 %
3303 23-03-2020 22:30:18 -0.9 C 35 %
3304 23-03-2020 22:40:18 -0.9 C 35 %
3305 23-03-2020 22:50:18 -1.3 C 35 %
3306 23-03-2020 23:00:18 -1.4 C 36 %
3307 23-03-2020 23:10:18 -1.6 C 36 %
3308 23-03-2020 23:20:17 -1.7 C 36 %
3309 23-03-2020 23:30:17 -1.7 C 37 %
3310 23-03-2020 23:40:17 -1.9 C 37 %
3311 23-03-2020 23:50:18 -1.8 C 37 %
3312 24-03-2020 00:00:18 -1.9 C 36 %
3313 24-03-2020 00:10:18 -2 C 36 %
3314 24-03-2020 00:20:17 -2.2 C 36 %
3315 24-03-2020 00:30:18 -2.4 C 37 %
3316 24-03-2020 00:40:18 -2.4 C 38 %
3317 24-03-2020 00:50:18 -2.5 C 38 %
3318 24-03-2020 01:00:18 -2.3 C 37 %
3319 24-03-2020 01:10:18 -2.6 C 37 %
3320 24-03-2020 01:20:18 -2.7 C 38 %
3321 24-03-2020 01:30:18 -2.7 C 38 %
3322 24-03-2020 01:40:18 -3 C 38 %
3323 24-03-2020 01:50:18 -2.5 C 37 %
3324 24-03-2020 02:00:18 -2.6 C 38 %
3325 24-03-2020 02:10:18 -2.8 C 38 %
Sensor: Nr:Datum:Temp:Feuchte:
Aussen-T/F 3326 24-03-2020 02:20:17 -3.1 C 38 %
3327 24-03-2020 02:30:17 -3.2 C 38 %
3328 24-03-2020 02:40:17 -3.3 C 38 %
3329 24-03-2020 02:50:17 -3.2 C 38 %
3330 24-03-2020 03:00:17 -3.4 C 38 %
3331 24-03-2020 03:10:17 -3.5 C 38 %
3332 24-03-2020 03:20:17 -3.6 C 39 %
3333 24-03-2020 03:30:17 -3.6 C 38 %
3334 24-03-2020 03:40:17 -3.7 C 38 %
3335 24-03-2020 03:50:17 -3.9 C 39 %
3336 24-03-2020 04:00:18 -3.7 C 39 %
3337 24-03-2020 04:10:18 -3.9 C 38 %
3338 24-03-2020 04:20:18 -4 C 38 %
3339 24-03-2020 04:30:18 -4 C 38 %
3340 24-03-2020 04:40:18 -4 C 38 %
3341 24-03-2020 04:50:17 -3.9 C 38 %
3342 24-03-2020 05:00:17 -4.2 C 38 %
3343 24-03-2020 05:10:17 -4.3 C 39 %
3344 24-03-2020 05:20:17 -4.2 C 38 %
3345 24-03-2020 05:30:18 -4.3 C 38 %
3346 24-03-2020 05:40:18 -4.4 C 38 %
3347 24-03-2020 05:50:18 -4.6 C 39 %
3348 24-03-2020 06:00:17 -4.7 C 39 %
3349 24-03-2020 06:10:18 -4.7 C 38 %
3350 24-03-2020 06:20:17 -4.7 C 39 %
Sensor: Nr:Datum:Temp:Feuchte:
Aussen-T/F 3351 24-03-2020 06:30:18 -4.7 C 38 %
3352 24-03-2020 06:40:18 -4.6 C 39 %
3353 24-03-2020 06:50:18 -4.4 C 38 %
3354 24-03-2020 07:00:18 -4.5 C 39 %
3355 24-03-2020 07:10:18 -4.4 C 39 %
3356 24-03-2020 07:20:18 -4.3 C 39 %
3357 24-03-2020 07:30:18 -4.2 C 39 %
3358 24-03-2020 07:40:18 -4 C 39 %
3359 24-03-2020 07:50:17 -3.8 C 39 %
3360 24-03-2020 08:00:17 -3.7 C 39 %
3361 24-03-2020 08:10:17 -3.5 C 38 %
3362 24-03-2020 08:20:17 -3.3 C 38 %
3363 24-03-2020 08:30:17 -2.5 C 38 %
3364 24-03-2020 08:40:17 -2.4 C 37 %
3365 24-03-2020 08:50:17 -2 C 37 %
3366 24-03-2020 09:00:17 -1.6 C 36 %
3367 24-03-2020 09:10:17 -0.7 C 35 %
3368 24-03-2020 09:20:17 -0.2 C 34 %
3369 24-03-2020 09:30:17 0.4 C 30 %
3370 24-03-2020 09:40:17 1 C 27 %
3371 24-03-2020 09:50:18 1.7 C 23 %
3372 24-03-2020 10:00:18 3 C 20 %
3373 24-03-2020 10:10:18 3.3 C 20 %
3374 24-03-2020 10:20:17 3.9 C 20 %
3375 24-03-2020 10:30:17 4.3 C 20 %
Sensor: Nr:Datum:Temp:Feuchte:
Aussen-T/F 3376 24-03-2020 10:40:17 4.7 C 20 %
3377 24-03-2020 10:50:17 5.7 C 20 %
3378 24-03-2020 11:00:18 5.7 C 20 %
3379 24-03-2020 11:10:18 6.4 C 20 %
3380 24-03-2020 11:20:17 6.9 C 20 %
3381 24-03-2020 11:30:17 7.9 C 20 %
3382 24-03-2020 11:40:17 7.2 C 20 %
3383 24-03-2020 11:50:18 6.8 C 20 %
3384 24-03-2020 12:00:18 7.8 C 20 %
3385 24-03-2020 12:10:18 8.6 C 20 %
3386 24-03-2020 12:20:17 8.2 C 20 %
3387 24-03-2020 12:30:17 8.2 C 20 %
3388 24-03-2020 12:40:17 9 C 20 %
3389 24-03-2020 12:50:17 9.2 C 20 %
3390 24-03-2020 13:00:18 10.4 C 20 %
3391 24-03-2020 13:10:18 11.7 C 20 %
3392 24-03-2020 13:20:17 12.5 C 20 %
3393 24-03-2020 13:30:17 13 C 20 %
3394 24-03-2020 13:40:17 11.9 C 20 %
3395 24-03-2020 13:50:18 11 C 20 %
3396 24-03-2020 14:00:17 10.8 C 20 %
3397 24-03-2020 14:10:17 11.3 C 20 %
3398 24-03-2020 14:20:17 13.7 C 20 %
3399 24-03-2020 14:30:17 12.2 C 20 %
3400 24-03-2020 14:40:17 14.4 C 20 %
Sensor: Nr:Datum:Temp:Feuchte:
Aussen-T/F 3401 24-03-2020 14:50:18 13.4 C 20 %
3402 24-03-2020 15:00:18 13.5 C 20 %
3403 24-03-2020 15:10:18 14.1 C 20 %
3404 24-03-2020 15:20:18 15.3 C 20 %
3405 24-03-2020 15:30:18 14.1 C 20 %
3406 24-03-2020 15:40:18 15.4 C 20 %
3407 24-03-2020 15:50:18 14.9 C 20 %
3408 24-03-2020 16:00:18 14.8 C 20 %
3409 24-03-2020 16:10:18 14.8 C 20 %
3410 24-03-2020 16:20:18 14.1 C 20 %
3411 24-03-2020 16:30:18 13.6 C 20 %
3412 24-03-2020 16:40:18 14.3 C 20 %
3413 24-03-2020 16:50:18 11.4 C 20 %
3414 24-03-2020 17:00:18 10.8 C 20 %
3415 24-03-2020 17:10:18 10.4 C 20 %
3416 24-03-2020 17:20:18 10.1 C 20 %
3417 24-03-2020 17:30:18 9.9 C 20 %
3418 24-03-2020 17:40:18 9.6 C 20 %
3419 24-03-2020 17:50:17 9.3 C 20 %
3420 24-03-2020 18:00:17 9 C 20 %
3421 24-03-2020 18:10:17 8.6 C 20 %
3422 24-03-2020 18:20:17 8.4 C 20 %
3423 24-03-2020 18:30:17 7.6 C 20 %
3424 24-03-2020 18:40:18 6.4 C 20 %
3425 24-03-2020 18:50:17 5.4 C 20 %
Sensor: Nr:Datum:Temp:Feuchte:
Aussen-T/F 3426 24-03-2020 19:00:18 4.9 C 20 %
3427 24-03-2020 19:10:18 4.6 C 20 %
3428 24-03-2020 19:20:18 4.5 C 20 %
3429 24-03-2020 19:30:18 4.1 C 20 %
3430 24-03-2020 19:40:18 3.9 C 20 %
3431 24-03-2020 19:50:17 3.6 C 20 %
3432 24-03-2020 20:00:18 3.6 C 20 %
3433 24-03-2020 20:10:18 3.5 C 20 %
3434 24-03-2020 20:20:17 3.4 C 20 %
3435 24-03-2020 20:30:18 3.4 C 20 %
3436 24-03-2020 20:40:18 2.9 C 20 %
3437 24-03-2020 20:50:18 2.7 C 20 %
3438 24-03-2020 21:00:18 2.7 C 20 %
3439 24-03-2020 21:10:18 2.6 C 20 %
3440 24-03-2020 21:20:17 2.3 C 20 %
3441 24-03-2020 21:30:17 2.3 C 20 %
3442 24-03-2020 21:40:17 2.2 C 20 %
3443 24-03-2020 21:50:17 2.2 C 20 %
3444 24-03-2020 22:00:18 1.7 C 20 %
3445 24-03-2020 22:10:18 1.6 C 20 %
3446 24-03-2020 22:20:17 1.6 C 20 %
3447 24-03-2020 22:30:18 0.3 C 25 %
3448 24-03-2020 22:40:18 -0.2 C 30 %
3449 24-03-2020 22:50:17 -0.7 C 30 %
3450 24-03-2020 23:00:18 -1.2 C 32 %
Sensor: Nr:Datum:Temp:Feuchte:
Aussen-T/F 3451 24-03-2020 23:10:18 -1.1 C 31 %
3452 24-03-2020 23:20:17 -1.4 C 31 %
3453 24-03-2020 23:30:18 -1.7 C 30 %
3454 24-03-2020 23:40:18 -0.9 C 30 %
3455 24-03-2020 23:50:18 -1.2 C 30 %
3456 25-03-2020 00:00:17 -1.6 C 30 %
3457 25-03-2020 00:10:17 -1.6 C 31 %
3458 25-03-2020 00:20:17 -1.8 C 32 %
3459 25-03-2020 00:30:17 -1.8 C 30 %
3460 25-03-2020 00:40:18 -1.9 C 31 %
3461 25-03-2020 00:50:17 -1.8 C 32 %
3462 25-03-2020 01:00:17 -1.6 C 32 %
3463 25-03-2020 01:10:18 -1.3 C 31 %
3464 25-03-2020 01:20:17 -1.1 C 30 %
3465 25-03-2020 01:30:18 -1.1 C 29 %
3466 25-03-2020 01:40:18 -0.9 C 28 %
3467 25-03-2020 01:50:17 -1.1 C 28 %
3468 25-03-2020 02:00:17 -1.1 C 28 %
3469 25-03-2020 02:10:18 -1.3 C 27 %
3470 25-03-2020 02:20:18 -1.4 C 29 %
3471 25-03-2020 02:30:18 -1.6 C 27 %
3472 25-03-2020 02:40:18 -1.5 C 27 %
3473 25-03-2020 02:50:18 -1.4 C 27 %
3474 25-03-2020 03:00:18 -1.4 C 26 %
3475 25-03-2020 03:10:18 -1.4 C 26 %
Sensor: Nr:Datum:Temp:Feuchte:
Aussen-T/F 3476 25-03-2020 03:20:17 -1.5 C 27 %
3477 25-03-2020 03:30:17 -2.3 C 30 %
3478 25-03-2020 03:40:17 -2.6 C 31 %
3479 25-03-2020 03:50:17 -2.8 C 32 %
3480 25-03-2020 04:00:17 -3.1 C 33 %
3481 25-03-2020 04:10:17 -3.2 C 34 %
3482 25-03-2020 04:20:17 -3.3 C 34 %
3483 25-03-2020 04:30:18 -3.3 C 34 %
3484 25-03-2020 04:40:18 -3 C 33 %
3485 25-03-2020 04:50:17 -3.2 C 33 %
3486 25-03-2020 05:00:18 -3 C 32 %
3487 25-03-2020 05:10:18 -2.6 C 32 %
3488 25-03-2020 05:20:17 -2.3 C 30 %
3489 25-03-2020 05:30:17 -2.5 C 30 %
3490 25-03-2020 05:40:17 -3.4 C 33 %
3491 25-03-2020 05:50:17 -4 C 35 %
3492 25-03-2020 06:00:17 -4.4 C 36 %
3493 25-03-2020 06:10:17 -4.2 C 36 %
3494 25-03-2020 06:20:17 -4.2 C 36 %
3495 25-03-2020 06:30:17 -4.4 C 36 %
3496 25-03-2020 06:40:17 -4.3 C 36 %
3497 25-03-2020 06:50:17 -4.3 C 36 %
3498 25-03-2020 07:00:17 -4.3 C 37 %
3499 25-03-2020 07:10:17 -4.3 C 37 %
3500 25-03-2020 07:20:17 -4.1 C 37 %
Sensor: Nr:Datum:Temp:Feuchte:
Aussen-T/F 3501 25-03-2020 07:30:17 -4 C 37 %
3502 25-03-2020 07:40:17 -3.8 C 37 %
3503 25-03-2020 07:50:17 -3.2 C 36 %
3504 25-03-2020 08:00:17 -2.6 C 35 %
3505 25-03-2020 08:10:17 -2 C 32 %
3506 25-03-2020 08:20:17 -2.7 C 35 %
3507 25-03-2020 08:30:17 -2 C 34 %
3508 25-03-2020 08:40:17 -1.9 C 34 %
3509 25-03-2020 08:50:17 -1.6 C 34 %
3510 25-03-2020 09:00:17 -1.5 C 34 %
3511 25-03-2020 09:10:17 -1.3 C 35 %
3512 25-03-2020 09:20:17 -1 C 35 %
3513 25-03-2020 09:30:17 -0.2 C 32 %
3514 25-03-2020 09:40:18 0.7 C 29 %
3515 25-03-2020 09:50:17 2.1 C 20 %
3516 25-03-2020 10:00:18 2.8 C 20 %
3517 25-03-2020 10:10:18 3.2 C 20 %
3518 25-03-2020 10:20:17 3.6 C 20 %
3519 25-03-2020 10:30:17 4.1 C 20 %
3520 25-03-2020 10:40:17 4.7 C 20 %
3521 25-03-2020 10:50:17 5.1 C 20 %
3522 25-03-2020 11:00:17 5.3 C 20 %
3523 25-03-2020 11:10:17 5.7 C 20 %
3524 25-03-2020 11:20:17 7.2 C 20 %
3525 25-03-2020 11:30:18 7.7 C 20 %
Sensor: Nr:Datum:Temp:Feuchte:
Aussen-T/F 3526 25-03-2020 11:40:18 7.3 C 20 %
3527 25-03-2020 11:50:17 6.8 C 20 %
3528 25-03-2020 12:00:17 7.8 C 20 %
3529 25-03-2020 12:10:17 8.3 C 20 %
3530 25-03-2020 12:20:17 8.4 C 20 %
3531 25-03-2020 12:30:17 8.4 C 20 %
3532 25-03-2020 12:40:17 8.6 C 20 %
3533 25-03-2020 12:50:17 10.3 C 20 %
3534 25-03-2020 13:00:17 11.2 C 20 %
3535 25-03-2020 13:10:17 12.2 C 20 %
3536 25-03-2020 13:20:18 13.8 C 20 %
3537 25-03-2020 13:30:18 14.5 C 20 %
3538 25-03-2020 13:40:18 12.4 C 20 %
3539 25-03-2020 13:50:18 12 C 20 %
3540 25-03-2020 14:00:18 11.3 C 20 %
3541 25-03-2020 14:10:18 11.1 C 20 %
3542 25-03-2020 14:20:17 13.2 C 20 %
3543 25-03-2020 14:30:17 13.5 C 20 %
3544 25-03-2020 14:40:17 12.7 C 20 %
3545 25-03-2020 14:50:17 13.5 C 20 %
3546 25-03-2020 15:00:17 13.8 C 20 %
3547 25-03-2020 15:10:17 14.1 C 20 %
3548 25-03-2020 15:20:18 14.9 C 20 %
3549 25-03-2020 15:30:18 14.4 C 20 %
3550 25-03-2020 15:40:18 14.4 C 20 %
Sensor: Nr:Datum:Temp:Feuchte:
Aussen-T/F 3551 25-03-2020 15:50:17 15 C 20 %
3552 25-03-2020 16:00:18 15.3 C 20 %
3553 25-03-2020 16:10:18 14.5 C 20 %
3554 25-03-2020 16:20:17 15.7 C 20 %
3555 25-03-2020 16:30:17 13.8 C 20 %
3556 25-03-2020 16:40:17 12.9 C 20 %
3557 25-03-2020 16:50:18 12.2 C 20 %
3558 25-03-2020 17:00:18 11.9 C 20 %
3559 25-03-2020 17:10:18 11.5 C 20 %
3560 25-03-2020 17:20:17 11.1 C 20 %
3561 25-03-2020 17:30:17 11 C 20 %
3562 25-03-2020 17:40:17 10.7 C 20 %
3563 25-03-2020 17:50:17 10.5 C 20 %
3564 25-03-2020 18:00:18 10.5 C 20 %
3565 25-03-2020 18:10:18 10.1 C 20 %
3566 25-03-2020 18:20:17 9.6 C 20 %
3567 25-03-2020 18:30:18 8.8 C 20 %
3568 25-03-2020 18:40:18 7.7 C 20 %
3569 25-03-2020 18:50:18 7 C 20 %
3570 25-03-2020 19:00:18 6.3 C 20 %
3571 25-03-2020 19:10:18 6.1 C 20 %
3572 25-03-2020 19:20:17 5.4 C 20 %
3573 25-03-2020 19:30:18 5.8 C 20 %
3574 25-03-2020 19:40:18 5.1 C 20 %
3575 25-03-2020 19:50:17 4.6 C 20 %
Sensor: Nr:Datum:Temp:Feuchte:
Aussen-T/F 3576 25-03-2020 20:00:17 4.5 C 20 %
3577 25-03-2020 20:10:17 4.1 C 20 %
3578 25-03-2020 20:20:17 4 C 20 %
3579 25-03-2020 20:30:18 4.7 C 20 %
3580 25-03-2020 20:40:18 4.3 C 20 %
3581 25-03-2020 20:50:17 3.8 C 20 %
3582 25-03-2020 21:00:18 4.6 C 20 %
3583 25-03-2020 21:10:18 4.6 C 20 %
3584 25-03-2020 21:20:17 4.3 C 20 %
3585 25-03-2020 21:30:17 4.3 C 20 %
3586 25-03-2020 21:40:17 4 C 20 %
3587 25-03-2020 21:50:17 3.6 C 20 %
3588 25-03-2020 22:00:17 2.8 C 20 %
3589 25-03-2020 22:10:17 2.6 C 20 %
3590 25-03-2020 22:20:17 2.6 C 20 %
3591 25-03-2020 22:30:18 2.1 C 20 %
3592 25-03-2020 22:40:18 2.3 C 20 %
3593 25-03-2020 22:50:18 2.1 C 20 %
3594 25-03-2020 23:00:18 1.7 C 20 %
3595 25-03-2020 23:10:18 1.7 C 23 %
3596 25-03-2020 23:20:17 1.6 C 23 %
3597 25-03-2020 23:30:18 1.5 C 21 %
3598 25-03-2020 23:40:18 1.8 C 20 %
3599 25-03-2020 23:50:18 1.8 C 20 %
3600 26-03-2020 00:00:18 1.4 C 21 %
Sensor: Nr:Datum:Temp:Feuchte:
Aussen-T/F 3601 26-03-2020 00:10:18 1.2 C 21 %
3602 26-03-2020 00:20:18 1.3 C 21 %
3603 26-03-2020 00:30:18 0.9 C 23 %
3604 26-03-2020 00:40:18 0.9 C 25 %
3605 26-03-2020 00:50:18 1 C 23 %
3606 26-03-2020 01:00:18 0.7 C 25 %
3607 26-03-2020 01:10:18 0.4 C 25 %
3608 26-03-2020 01:20:17 0.5 C 25 %
3609 26-03-2020 01:30:17 0.7 C 25 %
3610 26-03-2020 01:40:17 0.7 C 23 %
3611 26-03-2020 01:50:17 0.7 C 21 %
3612 26-03-2020 02:00:17 0.6 C 23 %
3613 26-03-2020 02:10:17 0.7 C 21 %
3614 26-03-2020 02:20:17 0.7 C 21 %
3615 26-03-2020 02:30:17 0.6 C 21 %
3616 26-03-2020 02:40:18 0.4 C 21 %
3617 26-03-2020 02:50:17 0.3 C 23 %
3618 26-03-2020 03:00:17 0 C 23 %
3619 26-03-2020 03:10:18 0.1 C 23 %
3620 26-03-2020 03:20:18 0 C 23 %
3621 26-03-2020 03:30:18 -0.3 C 25 %
3622 26-03-2020 03:40:18 -0.3 C 27 %
3623 26-03-2020 03:50:17 -0.4 C 27 %
3624 26-03-2020 04:00:17 -0.1 C 26 %
3625 26-03-2020 04:10:17 -0.3 C 25 %
Sensor: Nr:Datum:Temp:Feuchte:
Aussen-T/F 3626 26-03-2020 04:20:17 -0.3 C 26 %
3627 26-03-2020 04:30:18 -0.4 C 26 %
3628 26-03-2020 04:40:18 -0.4 C 26 %
3629 26-03-2020 04:50:17 -0.5 C 26 %
3630 26-03-2020 05:00:18 -0.5 C 27 %
3631 26-03-2020 05:10:18 -0.6 C 27 %
3632 26-03-2020 05:20:17 -0.6 C 28 %
3633 26-03-2020 05:30:17 -0.7 C 28 %
3634 26-03-2020 05:40:18 -0.5 C 28 %
3635 26-03-2020 05:50:17 -0.6 C 28 %
3636 26-03-2020 06:00:18 -0.7 C 29 %
3637 26-03-2020 06:10:18 -0.8 C 28 %
3638 26-03-2020 06:20:18 -0.9 C 28 %
3639 26-03-2020 06:30:18 -1 C 28 %
3640 26-03-2020 06:40:18 -0.9 C 30 %
3641 26-03-2020 06:50:18 -1.1 C 30 %
3642 26-03-2020 07:00:18 -0.8 C 30 %
3643 26-03-2020 07:10:18 -1.1 C 30 %
3644 26-03-2020 07:20:18 -0.6 C 30 %
3645 26-03-2020 07:30:18 -0.4 C 30 %
3646 26-03-2020 07:40:18 0.2 C 27 %
3647 26-03-2020 07:50:17 0.5 C 25 %
3648 26-03-2020 08:00:18 0.3 C 28 %
3649 26-03-2020 08:10:18 0.4 C 28 %
3650 26-03-2020 08:20:18 0.7 C 26 %
Sensor: Nr:Datum:Temp:Feuchte:
Aussen-T/F 3651 26-03-2020 08:30:18 1.4 C 21 %
3652 26-03-2020 08:40:18 1.7 C 21 %
3653 26-03-2020 08:50:17 2.2 C 20 %
3654 26-03-2020 09:00:18 2.3 C 20 %
3655 26-03-2020 09:10:18 2.3 C 20 %
3656 26-03-2020 09:20:18 2.7 C 20 %
3657 26-03-2020 09:30:18 3.2 C 20 %
3658 26-03-2020 09:40:18 3.5 C 20 %
3659 26-03-2020 09:50:18 4.1 C 20 %
3660 26-03-2020 10:00:18 4.4 C 20 %
3661 26-03-2020 10:10:18 4.9 C 20 %
3662 26-03-2020 10:20:18 5 C 20 %
3663 26-03-2020 10:30:18 5.4 C 20 %
3664 26-03-2020 10:40:18 5.9 C 20 %
3665 26-03-2020 10:50:17 6 C 20 %
3666 26-03-2020 11:00:18 6.6 C 20 %
3667 26-03-2020 11:10:18 6.9 C 20 %
3668 26-03-2020 11:20:18 7.3 C 20 %
3669 26-03-2020 11:30:18 8.5 C 20 %
3670 26-03-2020 11:40:18 8.3 C 20 %
3671 26-03-2020 11:50:18 7.3 C 20 %
3672 26-03-2020 12:00:18 8 C 20 %
3673 26-03-2020 12:10:18 9.1 C 20 %
3674 26-03-2020 12:20:17 9.6 C 20 %
3675 26-03-2020 12:30:17 9.6 C 20 %
Sensor: Nr:Datum:Temp:Feuchte:
Aussen-T/F 3676 26-03-2020 12:40:17 9.6 C 20 %
3677 26-03-2020 12:50:17 9.7 C 20 %
3678 26-03-2020 13:00:17 10.4 C 20 %
3679 26-03-2020 13:10:17 10.8 C 20 %
3680 26-03-2020 13:20:18 11.5 C 20 %
3681 26-03-2020 13:30:18 11.5 C 20 %
3682 26-03-2020 13:40:18 12.1 C 20 %
3683 26-03-2020 13:50:18 13 C 20 %
3684 26-03-2020 14:00:18 12 C 20 %
3685 26-03-2020 14:10:18 12.2 C 20 %
3686 26-03-2020 14:20:18 11.9 C 20 %
3687 26-03-2020 14:30:18 14.3 C 20 %
3688 26-03-2020 14:40:18 14.2 C 20 %
3689 26-03-2020 14:50:17 14 C 20 %
3690 26-03-2020 15:00:17 15.3 C 20 %
3691 26-03-2020 15:10:18 14.2 C 20 %
3692 26-03-2020 15:20:18 14 C 20 %
3693 26-03-2020 15:30:18 15.6 C 20 %
3694 26-03-2020 15:40:18 15.6 C 20 %
3695 26-03-2020 15:50:18 16.5 C 20 %
3696 26-03-2020 16:00:18 15.6 C 20 %
3697 26-03-2020 16:10:18 15.3 C 20 %
3698 26-03-2020 16:20:18 12.5 C 20 %
3699 26-03-2020 16:30:18 12.3 C 20 %
3700 26-03-2020 16:40:18 13.9 C 20 %
Sensor: Nr:Datum:Temp:Feuchte:
Aussen-T/F 3701 26-03-2020 16:50:18 12.8 C 20 %
3702 26-03-2020 17:00:18 11.4 C 20 %
3703 26-03-2020 17:10:18 11 C 20 %
3704 26-03-2020 17:20:17 10.9 C 20 %
3705 26-03-2020 17:30:17 11 C 20 %
3706 26-03-2020 17:40:17 11.1 C 20 %
3707 26-03-2020 17:50:17 10.7 C 20 %
3708 26-03-2020 18:00:17 10.5 C 20 %
3709 26-03-2020 18:10:17 10.3 C 20 %
3710 26-03-2020 18:20:18 10.1 C 20 %
3711 26-03-2020 18:30:18 9.8 C 20 %
3712 26-03-2020 18:40:18 9.4 C 20 %
3713 26-03-2020 18:50:17 8.6 C 20 %
3714 26-03-2020 19:00:17 8 C 20 %
3715 26-03-2020 19:10:17 7.4 C 20 %
3716 26-03-2020 19:20:17 6.9 C 21 %
3717 26-03-2020 19:30:17 6.7 C 21 %
3718 26-03-2020 19:40:17 6.4 C 21 %
3719 26-03-2020 19:50:17 6.5 C 21 %
3720 26-03-2020 20:00:17 6.2 C 23 %
3721 26-03-2020 20:10:18 6 C 23 %
3722 26-03-2020 20:20:18 5.7 C 25 %
3723 26-03-2020 20:30:17 5.4 C 26 %
3724 26-03-2020 20:40:17 4.9 C 28 %
3725 26-03-2020 20:50:17 4.9 C 28 %
Sensor: Nr:Datum:Temp:Feuchte:
Aussen-T/F 3726 26-03-2020 21:00:17 4.7 C 29 %
3727 26-03-2020 21:10:17 4.5 C 29 %
3728 26-03-2020 21:20:17 4.5 C 30 %
3729 26-03-2020 21:30:18 4.1 C 30 %
3730 26-03-2020 21:40:18 4.6 C 30 %
3731 26-03-2020 21:50:18 4.6 C 30 %
3732 26-03-2020 22:00:18 4.6 C 30 %
3733 26-03-2020 22:10:18 4.6 C 30 %
3734 26-03-2020 22:20:17 4.5 C 30 %
3735 26-03-2020 22:30:17 4.5 C 30 %
3736 26-03-2020 22:40:17 4.5 C 30 %
3737 26-03-2020 22:50:17 4.4 C 30 %
3738 26-03-2020 23:00:18 4.5 C 30 %
3739 26-03-2020 23:10:18 4.2 C 30 %
3740 26-03-2020 23:20:17 4.2 C 30 %
3741 26-03-2020 23:30:18 3.9 C 31 %
3742 26-03-2020 23:40:18 4 C 30 %
3743 26-03-2020 23:50:18 3.9 C 31 %
3744 27-03-2020 00:00:18 4 C 30 %
3745 27-03-2020 00:10:18 3.9 C 31 %
3746 27-03-2020 00:20:17 4 C 30 %
3747 27-03-2020 00:30:17 4 C 30 %
3748 27-03-2020 00:40:17 3.7 C 32 %
3749 27-03-2020 00:50:18 3.6 C 32 %
3750 27-03-2020 01:00:18 2.7 C 35 %
Sensor: Nr:Datum:Temp:Feuchte:
Aussen-T/F 3751 27-03-2020 01:10:18 2.5 C 36 %
3752 27-03-2020 01:20:17 3 C 35 %
3753 27-03-2020 01:30:18 3.1 C 35 %
3754 27-03-2020 01:40:18 2.7 C 36 %
3755 27-03-2020 01:50:18 3 C 35 %
3756 27-03-2020 02:00:18 2.9 C 35 %
3757 27-03-2020 02:10:18 2.8 C 35 %
3758 27-03-2020 02:20:17 2.7 C 35 %
3759 27-03-2020 02:30:17 2.5 C 36 %
3760 27-03-2020 02:40:17 2.5 C 36 %
3761 27-03-2020 02:50:17 2.6 C 35 %
3762 27-03-2020 03:00:17 2.6 C 35 %
3763 27-03-2020 03:10:17 2.2 C 36 %
3764 27-03-2020 03:20:17 2.5 C 35 %
3765 27-03-2020 03:30:17 2.4 C 35 %
3766 27-03-2020 03:40:17 2.6 C 35 %
3767 27-03-2020 03:50:17 2.4 C 36 %
3768 27-03-2020 04:00:18 2.4 C 35 %
3769 27-03-2020 04:10:18 2.4 C 35 %
3770 27-03-2020 04:20:18 1.4 C 38 %
3771 27-03-2020 04:30:18 1.3 C 38 %
3772 27-03-2020 04:40:18 1.6 C 38 %
3773 27-03-2020 04:50:17 1.8 C 37 %
3774 27-03-2020 05:00:18 1.5 C 38 %
3775 27-03-2020 05:10:18 0.7 C 40 %
Sensor: Nr:Datum:Temp:Feuchte:
Aussen-T/F 3776 27-03-2020 05:20:18 0.4 C 40 %
3777 27-03-2020 05:30:18 0 C 41 %
3778 27-03-2020 05:40:18 0 C 42 %
3779 27-03-2020 05:50:18 -0.1 C 42 %
3780 27-03-2020 06:00:18 -0.5 C 42 %
3781 27-03-2020 06:10:18 -0.6 C 43 %
3782 27-03-2020 06:20:18 -0.4 C 43 %
3783 27-03-2020 06:30:18 -0.4 C 43 %
3784 27-03-2020 06:40:18 -0.3 C 43 %
3785 27-03-2020 06:50:17 -0.3 C 43 %
3786 27-03-2020 07:00:18 -0.2 C 43 %
3787 27-03-2020 07:10:18 -0.1 C 43 %
3788 27-03-2020 07:20:18 0.1 C 43 %
3789 27-03-2020 07:30:18 0.3 C 43 %
3790 27-03-2020 07:40:18 0.8 C 43 %
3791 27-03-2020 07:50:17 1.2 C 41 %
3792 27-03-2020 08:00:17 1.1 C 41 %
3793 27-03-2020 08:10:18 1.9 C 40 %
3794 27-03-2020 08:20:18 1.7 C 40 %
3795 27-03-2020 08:30:18 1.6 C 41 %
3796 27-03-2020 08:40:18 1.9 C 41 %
3797 27-03-2020 08:50:17 2.6 C 39 %
3798 27-03-2020 09:00:18 3 C 38 %
3799 27-03-2020 09:10:18 3.3 C 37 %
3800 27-03-2020 09:20:17 3.6 C 37 %
Sensor: Nr:Datum:Temp:Feuchte:
Aussen-T/F 3801 27-03-2020 09:30:18 4.1 C 36 %
3802 27-03-2020 09:40:18 4.5 C 35 %
3803 27-03-2020 09:50:18 5.3 C 35 %
3804 27-03-2020 10:00:18 5.8 C 34 %
3805 27-03-2020 10:10:18 6.5 C 32 %
3806 27-03-2020 10:20:17 7.6 C 30 %
3807 27-03-2020 10:30:17 8.1 C 28 %
3808 27-03-2020 10:40:17 9.1 C 25 %
3809 27-03-2020 10:50:17 9.3 C 25 %
3810 27-03-2020 11:00:17 10.2 C 20 %
3811 27-03-2020 11:10:17 11 C 20 %
3812 27-03-2020 11:20:17 12.4 C 20 %
3813 27-03-2020 11:30:17 14.5 C 20 %
3814 27-03-2020 11:40:17 14.2 C 20 %
3815 27-03-2020 11:50:17 12.5 C 20 %
3816 27-03-2020 12:00:17 13.4 C 20 %
3817 27-03-2020 12:10:17 13.7 C 20 %
3818 27-03-2020 12:20:17 14.4 C 20 %
3819 27-03-2020 12:30:17 14.1 C 20 %
3820 27-03-2020 12:40:18 14.2 C 20 %
3821 27-03-2020 12:50:18 14.6 C 20 %
3822 27-03-2020 13:00:18 16.6 C 20 %
3823 27-03-2020 13:10:18 15.8 C 20 %
3824 27-03-2020 13:20:17 17.6 C 20 %
3825 27-03-2020 13:30:18 18.8 C 20 %
Sensor: Nr:Datum:Temp:Feuchte:
Aussen-T/F 3826 27-03-2020 13:40:18 16.8 C 20 %
3827 27-03-2020 13:50:18 17.3 C 20 %
3828 27-03-2020 14:00:18 16.9 C 20 %
3829 27-03-2020 14:10:18 17.6 C 20 %
3830 27-03-2020 14:20:18 17.7 C 20 %
3831 27-03-2020 14:30:17 20.4 C 20 %
3832 27-03-2020 14:40:17 18.1 C 20 %
3833 27-03-2020 14:50:17 18.4 C 20 %
3834 27-03-2020 15:00:17 18.5 C 20 %
3835 27-03-2020 15:10:17 18.7 C 20 %
3836 27-03-2020 15:20:17 18.9 C 20 %
3837 27-03-2020 15:30:18 19.4 C 20 %
3838 27-03-2020 15:40:18 18.3 C 20 %
3839 27-03-2020 15:50:17 19.5 C 20 %
3840 27-03-2020 16:00:17 18.5 C 20 %
3841 27-03-2020 16:10:17 18.2 C 20 %
3842 27-03-2020 16:20:17 19.2 C 20 %
3843 27-03-2020 16:30:17 18.3 C 20 %
3844 27-03-2020 16:40:17 18 C 20 %
3845 27-03-2020 16:50:17 17 C 20 %
3846 27-03-2020 17:00:18 16.4 C 20 %
3847 27-03-2020 17:10:18 16.3 C 20 %
3848 27-03-2020 17:20:18 16.1 C 20 %
3849 27-03-2020 17:30:18 16 C 20 %
3850 27-03-2020 17:40:18 15.8 C 20 %
Sensor: Nr:Datum:Temp:Feuchte:
Aussen-T/F 3851 27-03-2020 17:50:18 15.7 C 20 %
3852 27-03-2020 18:00:17 15.4 C 20 %
3853 27-03-2020 18:10:17 15 C 20 %
3854 27-03-2020 18:20:17 14.1 C 20 %
3855 27-03-2020 18:30:18 13.5 C 20 %
3856 27-03-2020 18:40:18 12.9 C 20 %
3857 27-03-2020 18:50:18 12.3 C 20 %
3858 27-03-2020 19:00:18 11.8 C 20 %
3859 27-03-2020 19:10:18 11.5 C 20 %
3860 27-03-2020 19:20:17 11.4 C 20 %
3861 27-03-2020 19:30:17 10.7 C 20 %
3862 27-03-2020 19:40:17 10.7 C 21 %
3863 27-03-2020 19:50:17 10.4 C 23 %
3864 27-03-2020 20:00:18 10.4 C 22 %
3865 27-03-2020 20:10:18 9.2 C 26 %
3866 27-03-2020 20:20:17 8.9 C 28 %
3867 27-03-2020 20:30:17 8.4 C 30 %
3868 27-03-2020 20:40:17 8.1 C 30 %
3869 27-03-2020 20:50:18 7.8 C 31 %
3870 27-03-2020 21:00:17 7.4 C 31 %
3871 27-03-2020 21:10:17 7.3 C 32 %
3872 27-03-2020 21:20:17 7.1 C 32 %
3873 27-03-2020 21:30:17 7 C 32 %
3874 27-03-2020 21:40:17 6.6 C 33 %
3875 27-03-2020 21:50:17 6.6 C 34 %
Sensor: Nr:Datum:Temp:Feuchte:
Aussen-T/F 3876 27-03-2020 22:00:17 6.4 C 34 %
3877 27-03-2020 22:10:17 6.3 C 34 %
3878 27-03-2020 22:20:17 6 C 35 %
3879 27-03-2020 22:30:18 5.8 C 35 %
3880 27-03-2020 22:40:18 5.6 C 35 %
3881 27-03-2020 22:50:18 5.5 C 36 %
3882 27-03-2020 23:00:18 5.6 C 36 %
3883 27-03-2020 23:10:18 5.6 C 36 %
3884 27-03-2020 23:20:17 5.3 C 36 %
3885 27-03-2020 23:30:17 5.2 C 36 %
3886 27-03-2020 23:40:17 5.1 C 36 %
3887 27-03-2020 23:50:17 4.8 C 37 %
3888 28-03-2020 00:00:17 4.8 C 38 %
3889 28-03-2020 00:10:17 4.8 C 39 %
3890 28-03-2020 00:20:17 5 C 37 %
3891 28-03-2020 00:30:18 4.9 C 38 %
3892 28-03-2020 00:40:18 4.7 C 38 %
3893 28-03-2020 00:50:17 4.7 C 38 %
3894 28-03-2020 01:00:17 4.6 C 38 %
3895 28-03-2020 01:10:17 4.4 C 39 %
3896 28-03-2020 01:20:17 4.3 C 39 %
3897 28-03-2020 01:30:17 4.1 C 39 %
3898 28-03-2020 01:40:18 3.9 C 40 %
3899 28-03-2020 01:50:17 3.7 C 41 %
3900 28-03-2020 02:00:18 3.6 C 41 %
Sensor: Nr:Datum:Temp:Feuchte:
Aussen-T/F 3901 28-03-2020 02:10:18 3.3 C 41 %
3902 28-03-2020 02:20:18 3.1 C 41 %
3903 28-03-2020 02:30:17 3.7 C 42 %
3904 28-03-2020 02:40:17 3.7 C 41 %
3905 28-03-2020 02:50:18 3.4 C 41 %
3906 28-03-2020 03:00:18 3.1 C 41 %
3907 28-03-2020 03:10:18 2.9 C 42 %
3908 28-03-2020 03:20:17 2.8 C 43 %
3909 28-03-2020 03:30:18 2.6 C 43 %
3910 28-03-2020 03:40:18 2.1 C 43 %
3911 28-03-2020 03:50:17 2.1 C 44 %
3912 28-03-2020 04:00:18 2.2 C 44 %
3913 28-03-2020 04:10:18 2.1 C 44 %
3914 28-03-2020 04:20:18 1.9 C 45 %
3915 28-03-2020 04:30:18 1.7 C 45 %
3916 28-03-2020 04:40:18 1.8 C 46 %
3917 28-03-2020 04:50:17 1.8 C 46 %
3918 28-03-2020 05:00:18 1.7 C 45 %
3919 28-03-2020 05:10:18 1.6 C 45 %
3920 28-03-2020 05:20:17 1.5 C 45 %
3921 28-03-2020 05:30:18 1.3 C 46 %
3922 28-03-2020 05:40:18 1.2 C 46 %
3923 28-03-2020 05:50:18 1.2 C 46 %
3924 28-03-2020 06:00:18 1.2 C 46 %
3925 28-03-2020 06:10:18 1.3 C 46 %
Sensor: Nr:Datum:Temp:Feuchte:
Aussen-T/F 3926 28-03-2020 06:20:17 1.1 C 46 %
3927 28-03-2020 06:30:17 1.1 C 46 %
3928 28-03-2020 06:40:17 1 C 46 %
3929 28-03-2020 06:50:17 1.2 C 47 %
3930 28-03-2020 07:00:17 1.5 C 47 %
3931 28-03-2020 07:10:17 1.7 C 47 %
3932 28-03-2020 07:20:17 1.9 C 47 %
3933 28-03-2020 07:30:18 1.9 C 46 %
3934 28-03-2020 07:40:18 1.9 C 46 %
3935 28-03-2020 07:50:17 2 C 45 %
3936 28-03-2020 08:00:17 2.2 C 45 %
3937 28-03-2020 08:10:18 2.5 C 45 %
3938 28-03-2020 08:20:18 2.8 C 46 %
3939 28-03-2020 08:30:17 3.2 C 45 %
3940 28-03-2020 08:40:17 3.7 C 44 %
3941 28-03-2020 08:50:18 4 C 43 %
3942 28-03-2020 09:00:18 4.6 C 43 %
3943 28-03-2020 09:10:18 5.1 C 41 %
3944 28-03-2020 09:20:17 5.7 C 41 %
3945 28-03-2020 09:30:18 6.3 C 40 %
3946 28-03-2020 09:40:18 6.9 C 40 %
3947 28-03-2020 09:50:18 7.8 C 38 %
3948 28-03-2020 10:00:18 8.4 C 37 %
3949 28-03-2020 10:10:18 9.5 C 35 %
3950 28-03-2020 10:20:17 10.2 C 32 %
Sensor: Nr:Datum:Temp:Feuchte:
Aussen-T/F 3951 28-03-2020 10:30:17 10.9 C 31 %
3952 28-03-2020 10:40:17 11.6 C 30 %
3953 28-03-2020 10:50:18 12.2 C 29 %
3954 28-03-2020 11:00:18 13.4 C 26 %
3955 28-03-2020 11:10:18 13.6 C 25 %
3956 28-03-2020 11:20:17 15.8 C 20 %
3957 28-03-2020 11:30:17 16.7 C 20 %
3958 28-03-2020 11:40:17 16.4 C 20 %
3959 28-03-2020 11:50:18 15.9 C 20 %
3960 28-03-2020 12:00:17 16.6 C 20 %
3961 28-03-2020 12:10:17 17 C 20 %
3962 28-03-2020 12:20:17 17.7 C 20 %
3963 28-03-2020 12:30:17 17.8 C 20 %
3964 28-03-2020 12:40:17 18.1 C 20 %
3965 28-03-2020 12:50:18 18 C 20 %
3966 28-03-2020 13:00:18 18.6 C 20 %
3967 28-03-2020 13:10:18 19.6 C 20 %
3968 28-03-2020 13:20:18 21.7 C 20 %
3969 28-03-2020 13:30:17 21.1 C 20 %
3970 28-03-2020 13:40:17 20.7 C 20 %
3971 28-03-2020 13:50:18 20.6 C 20 %
3972 28-03-2020 14:00:17 21.1 C 20 %
3973 28-03-2020 14:10:17 21.3 C 20 %
3974 28-03-2020 14:20:17 21.9 C 20 %
3975 28-03-2020 14:30:17 23.7 C 20 %
Sensor: Nr:Datum:Temp:Feuchte:
Aussen-T/F 3976 28-03-2020 14:40:17 24.3 C 20 %
3977 28-03-2020 14:50:17 23.2 C 20 %
3978 28-03-2020 15:00:18 22.4 C 20 %
3979 28-03-2020 15:10:18 19.9 C 20 %
3980 28-03-2020 15:20:18 18.6 C 20 %
3981 28-03-2020 15:30:18 19.6 C 20 %
3982 28-03-2020 15:40:18 22.1 C 20 %
3983 28-03-2020 15:50:18 20.5 C 20 %
3984 28-03-2020 16:00:18 21.1 C 20 %
3985 28-03-2020 16:10:18 21.1 C 20 %
3986 28-03-2020 16:20:18 19.9 C 20 %
3987 28-03-2020 16:30:18 19.6 C 20 %
3988 28-03-2020 16:40:18 19.6 C 20 %
3989 28-03-2020 16:50:18 18.5 C 20 %
3990 28-03-2020 17:00:18 17.9 C 20 %
3991 28-03-2020 17:10:18 17 C 20 %
3992 28-03-2020 17:20:18 16.6 C 20 %
3993 28-03-2020 17:30:18 16.2 C 20 %
3994 28-03-2020 17:40:18 16.2 C 20 %
3995 28-03-2020 17:50:17 15.4 C 20 %
3996 28-03-2020 18:00:18 14.9 C 20 %
3997 28-03-2020 18:10:18 14.6 C 20 %
3998 28-03-2020 18:20:17 14 C 20 %
3999 28-03-2020 18:30:17 13.5 C 20 %
4000 28-03-2020 18:40:17 13.1 C 20 %
Sensor: Nr:Datum:Temp:Feuchte:
Aussen-T/F 4001 28-03-2020 18:50:18 12.6 C 20 %
4002 28-03-2020 19:00:18 12.3 C 20 %
4003 28-03-2020 19:10:18 11.7 C 20 %
4004 28-03-2020 19:20:18 11.7 C 20 %
4005 28-03-2020 19:30:18 11.4 C 20 %
4006 28-03-2020 19:40:18 11.2 C 20 %
4007 28-03-2020 19:50:17 10.8 C 20 %
4008 28-03-2020 20:00:18 10.3 C 20 %
4009 28-03-2020 20:10:18 10.7 C 20 %
4010 28-03-2020 20:20:17 10.5 C 20 %
4011 28-03-2020 20:30:18 10 C 20 %
4012 28-03-2020 20:40:18 9.2 C 20 %
4013 28-03-2020 20:50:17 8.7 C 20 %
4014 28-03-2020 21:00:17 8.8 C 20 %
4015 28-03-2020 21:10:17 9.2 C 20 %
4016 28-03-2020 21:20:17 8.7 C 23 %
4017 28-03-2020 21:30:17 8.1 C 25 %
4018 28-03-2020 21:40:17 8.4 C 23 %
4019 28-03-2020 21:50:17 7.6 C 25 %
4020 28-03-2020 22:00:17 8.3 C 25 %
4021 28-03-2020 22:10:17 8.5 C 21 %
4022 28-03-2020 22:20:17 8.4 C 25 %
4023 28-03-2020 22:30:17 8.3 C 26 %
4024 28-03-2020 22:40:17 7.9 C 26 %
4025 28-03-2020 22:50:17 7.4 C 28 %
Sensor: Nr:Datum:Temp:Feuchte:
Aussen-T/F 4026 28-03-2020 23:00:17 7.3 C 30 %
4027 28-03-2020 23:10:17 7.2 C 30 %
4028 28-03-2020 23:20:18 7.1 C 30 %
4029 28-03-2020 23:30:18 7.1 C 31 %
4030 28-03-2020 23:40:18 6.8 C 32 %
4031 28-03-2020 23:50:17 6.7 C 33 %
4032 29-03-2020 00:00:18 6.5 C 33 %
4033 29-03-2020 00:10:18 6.4 C 33 %
4034 29-03-2020 00:20:17 6.2 C 33 %
4035 29-03-2020 00:30:17 6.5 C 33 %
4036 29-03-2020 00:40:17 6.6 C 33 %
4037 29-03-2020 00:50:18 6.5 C 32 %
4038 29-03-2020 01:00:18 6.3 C 32 %
4039 29-03-2020 01:10:18 6.3 C 32 %
4040 29-03-2020 01:20:17 6.2 C 32 %
4041 29-03-2020 01:30:17 6.1 C 32 %
4042 29-03-2020 01:40:17 6 C 31 %
4043 29-03-2020 01:50:17 6 C 31 %
4044 29-03-2020 02:00:17 5.8 C 31 %
4045 29-03-2020 02:10:17 5.7 C 31 %
4046 29-03-2020 02:20:18 5.4 C 31 %
4047 29-03-2020 02:30:18 5 C 31 %
4048 29-03-2020 02:40:18 4.7 C 32 %
4049 29-03-2020 02:50:18 4.7 C 32 %
4050 29-03-2020 04:00:18 4.6 C 31 %
Sensor: Nr:Datum:Temp:Feuchte:
Aussen-T/F 4051 29-03-2020 04:10:18 4.2 C 32 %
4052 29-03-2020 04:20:17 4.1 C 31 %
4053 29-03-2020 04:30:17 4.3 C 31 %
4054 29-03-2020 04:40:17 4.4 C 31 %
4055 29-03-2020 04:50:18 4.3 C 31 %
4056 29-03-2020 05:00:17 4.4 C 32 %
4057 29-03-2020 05:10:17 4.3 C 32 %
4058 29-03-2020 05:20:17 4.2 C 31 %
4059 29-03-2020 05:30:17 4 C 31 %
4060 29-03-2020 05:40:17 3.8 C 32 %
4061 29-03-2020 05:50:18 3.5 C 32 %
4062 29-03-2020 06:00:18 3.1 C 32 %
4063 29-03-2020 06:10:18 2.8 C 33 %
4064 29-03-2020 06:20:17 2.5 C 33 %
4065 29-03-2020 06:30:18 2.9 C 33 %
4066 29-03-2020 06:40:18 3.2 C 32 %
4067 29-03-2020 06:50:17 3.3 C 33 %
4068 29-03-2020 07:00:18 3.4 C 33 %
4069 29-03-2020 07:10:18 3.5 C 34 %
4070 29-03-2020 07:20:17 3.5 C 35 %
4071 29-03-2020 07:30:17 3.6 C 35 %
4072 29-03-2020 07:40:17 3.7 C 35 %
4073 29-03-2020 07:50:17 3.7 C 35 %
4074 29-03-2020 08:00:18 3.8 C 35 %
4075 29-03-2020 08:10:18 3.8 C 35 %
Sensor: Nr:Datum:Temp:Feuchte:
Aussen-T/F 4076 29-03-2020 08:20:17 4.1 C 33 %
4077 29-03-2020 08:30:17 4.1 C 33 %
4078 29-03-2020 08:40:17 4.3 C 33 %
4079 29-03-2020 08:50:17 4 C 33 %
4080 29-03-2020 09:00:17 4.3 C 33 %
4081 29-03-2020 09:10:17 4.2 C 32 %
4082 29-03-2020 09:20:17 4.1 C 33 %
4083 29-03-2020 09:30:17 4.2 C 33 %
4084 29-03-2020 09:40:17 4.5 C 32 %
4085 29-03-2020 09:50:17 4.8 C 32 %
4086 29-03-2020 10:00:17 5 C 31 %
4087 29-03-2020 10:10:17 5.3 C 31 %
4088 29-03-2020 10:20:17 5.8 C 30 %
4089 29-03-2020 10:30:18 5.6 C 30 %
4090 29-03-2020 10:40:18 6.2 C 30 %
4091 29-03-2020 10:50:17 6.2 C 28 %
4092 29-03-2020 11:00:18 6.5 C 25 %
4093 29-03-2020 11:10:18 6.5 C 25 %
4094 29-03-2020 11:20:18 6 C 25 %
4095 29-03-2020 11:30:18 6.1 C 25 %
4096 29-03-2020 11:40:18 6.2 C 25 %
4097 29-03-2020 11:50:17 6.3 C 25 %
4098 29-03-2020 12:00:17 6.2 C 25 %
4099 29-03-2020 12:10:17 5.6 C 27 %
4100 29-03-2020 12:20:17 5.5 C 27 %
Sensor: Nr:Datum:Temp:Feuchte:
Aussen-T/F 4101 29-03-2020 12:30:17 5.7 C 27 %
4102 29-03-2020 12:40:17 5.8 C 26 %
4103 29-03-2020 12:50:18 6.4 C 26 %
4104 29-03-2020 13:00:18 6.3 C 25 %
4105 29-03-2020 13:10:18 6.1 C 25 %
4106 29-03-2020 13:20:17 6.6 C 23 %
4107 29-03-2020 13:30:17 6.8 C 20 %
4108 29-03-2020 13:40:18 8.1 C 20 %
4109 29-03-2020 13:50:17 8.4 C 20 %
4110 29-03-2020 14:00:18 7.6 C 20 %
4111 29-03-2020 14:10:18 7.5 C 20 %
4112 29-03-2020 14:20:17 7 C 20 %
4113 29-03-2020 14:30:17 6.7 C 20 %
4114 29-03-2020 14:40:17 6.5 C 20 %
4115 29-03-2020 14:50:17 6.7 C 20 %
4116 29-03-2020 15:00:17 7.2 C 20 %
4117 29-03-2020 15:10:17 7.4 C 20 %
4118 29-03-2020 15:20:17 7.4 C 20 %
4119 29-03-2020 15:30:18 7.6 C 20 %
4120 29-03-2020 15:40:18 7.6 C 20 %
4121 29-03-2020 15:50:17 8 C 20 %
4122 29-03-2020 16:00:18 7.4 C 20 %
4123 29-03-2020 16:10:18 7 C 20 %
4124 29-03-2020 16:20:17 6.7 C 20 %
4125 29-03-2020 16:30:18 6.5 C 20 %
Sensor: Nr:Datum:Temp:Feuchte:
Aussen-T/F 4126 29-03-2020 16:40:18 6.6 C 20 %
4127 29-03-2020 16:50:18 6.8 C 20 %
4128 29-03-2020 17:00:18 7 C 20 %
4129 29-03-2020 17:10:18 6.8 C 20 %
4130 29-03-2020 17:20:17 7.4 C 20 %
4131 29-03-2020 17:30:17 7 C 20 %
4132 29-03-2020 17:40:17 7 C 20 %
4133 29-03-2020 17:50:18 6.8 C 25 %
4134 29-03-2020 18:00:18 7.1 C 23 %
4135 29-03-2020 18:10:18 6.5 C 25 %
4136 29-03-2020 18:20:18 6.2 C 25 %
4137 29-03-2020 18:30:18 5.3 C 29 %
4138 29-03-2020 18:40:18 4.4 C 35 %
4139 29-03-2020 18:50:18 4.1 C 36 %
4140 29-03-2020 19:00:18 4 C 36 %
4141 29-03-2020 19:10:18 3.6 C 39 %
4142 29-03-2020 19:20:17 3.6 C 40 %
4143 29-03-2020 19:30:17 3.4 C 40 %
4144 29-03-2020 19:40:17 3.2 C 41 %
4145 29-03-2020 19:50:17 3.1 C 41 %
4146 29-03-2020 20:00:17 3 C 41 %
4147 29-03-2020 20:10:17 3 C 41 %
4148 29-03-2020 20:20:18 2.9 C 42 %
4149 29-03-2020 20:30:18 3 C 41 %
4150 29-03-2020 20:40:18 3.3 C 40 %
Sensor: Nr:Datum:Temp:Feuchte:
Aussen-T/F 4151 29-03-2020 20:50:18 3.5 C 40 %
4152 29-03-2020 21:00:18 3.6 C 39 %
4153 29-03-2020 21:10:18 3.7 C 39 %
4154 29-03-2020 21:20:18 3.7 C 38 %
4155 29-03-2020 21:30:17 3.7 C 37 %
4156 29-03-2020 21:40:17 3.8 C 37 %
4157 29-03-2020 21:50:17 3.8 C 37 %
4158 29-03-2020 22:00:17 3.7 C 37 %
4159 29-03-2020 22:10:17 3.7 C 36 %
4160 29-03-2020 22:20:18 3.7 C 36 %
4161 29-03-2020 22:30:18 3.6 C 36 %
4162 29-03-2020 22:40:18 3.6 C 36 %
4163 29-03-2020 22:50:18 3.6 C 35 %
4164 29-03-2020 23:00:18 3.6 C 35 %
4165 29-03-2020 23:10:18 3.5 C 35 %
4166 29-03-2020 23:20:17 3.4 C 34 %
4167 29-03-2020 23:30:17 3.3 C 33 %
4168 29-03-2020 23:40:17 3.1 C 33 %
4169 29-03-2020 23:50:17 2.9 C 33 %
Sensor: Nr:Datum:Temp:Feuchte:
G-T/H 1 01-03-2020 00:08:18 9.9 C 75 %
2 01-03-2020 00:18:18 9.9 C 75 %
3 01-03-2020 00:28:18 9.9 C 75 %
4 01-03-2020 00:38:18 9.9 C 75 %
5 01-03-2020 00:48:17 9.9 C 75 %
6 01-03-2020 00:58:18 9.9 C 75 %
7 01-03-2020 01:08:17 9.9 C 75 %
8 01-03-2020 01:18:18 9.9 C 75 %
9 01-03-2020 01:28:18 9.8 C 75 %
10 01-03-2020 01:38:18 9.8 C 74 %
11 01-03-2020 01:48:17 9.8 C 74 %
12 01-03-2020 01:58:17 9.8 C 74 %
13 01-03-2020 02:08:17 9.8 C 74 %
14 01-03-2020 02:18:17 9.8 C 74 %
15 01-03-2020 02:28:17 9.8 C 74 %
16 01-03-2020 02:38:17 9.8 C 74 %
17 01-03-2020 02:48:17 9.8 C 74 %
18 01-03-2020 02:58:17 9.8 C 74 %
19 01-03-2020 03:08:18 9.8 C 74 %
20 01-03-2020 03:18:17 9.8 C 74 %
21 01-03-2020 03:28:17 9.8 C 74 %
22 01-03-2020 03:38:18 9.8 C 74 %
23 01-03-2020 03:48:17 9.8 C 74 %
24 01-03-2020 03:58:17 9.7 C 74 %
25 01-03-2020 04:08:17 9.7 C 74 %
Sensor: Nr:Datum:Temp:Feuchte:
G-T/H 26 01-03-2020 04:18:17 9.7 C 74 %
27 01-03-2020 04:28:17 9.7 C 74 %
28 01-03-2020 04:38:18 9.7 C 74 %
29 01-03-2020 04:48:17 9.7 C 74 %
30 01-03-2020 04:58:17 9.7 C 74 %
31 01-03-2020 05:08:17 9.7 C 74 %
32 01-03-2020 05:18:18 9.7 C 74 %
33 01-03-2020 05:28:18 9.7 C 74 %
34 01-03-2020 05:38:18 9.7 C 74 %
35 01-03-2020 05:48:17 9.7 C 74 %
36 01-03-2020 05:58:18 9.7 C 74 %
37 01-03-2020 06:08:18 9.7 C 74 %
38 01-03-2020 06:18:17 9.7 C 74 %
39 01-03-2020 06:28:17 9.7 C 74 %
40 01-03-2020 06:38:17 9.7 C 74 %
41 01-03-2020 06:48:17 9.7 C 74 %
42 01-03-2020 06:58:17 9.7 C 74 %
43 01-03-2020 07:08:17 9.7 C 74 %
44 01-03-2020 07:18:17 9.7 C 74 %
45 01-03-2020 07:28:18 9.6 C 74 %
46 01-03-2020 07:38:18 9.7 C 74 %
47 01-03-2020 07:48:18 9.7 C 74 %
48 01-03-2020 07:58:18 9.7 C 74 %
49 01-03-2020 08:08:18 9.7 C 74 %
50 01-03-2020 08:18:17 9.7 C 74 %
Sensor: Nr:Datum:Temp:Feuchte:
G-T/H 51 01-03-2020 08:28:17 9.7 C 74 %
52 01-03-2020 08:38:17 9.6 C 74 %
53 01-03-2020 08:48:17 9.6 C 74 %
54 01-03-2020 08:58:17 9.6 C 74 %
55 01-03-2020 09:08:17 9.6 C 74 %
56 01-03-2020 09:18:17 9.6 C 74 %
57 01-03-2020 09:28:17 9.6 C 74 %
58 01-03-2020 09:38:17 9.6 C 74 %
59 01-03-2020 09:48:18 9.6 C 74 %
60 01-03-2020 09:58:18 9.6 C 74 %
61 01-03-2020 10:08:17 9.6 C 74 %
62 01-03-2020 10:18:17 9.6 C 74 %
63 01-03-2020 10:28:17 9.6 C 74 %
64 01-03-2020 10:38:17 9.6 C 74 %
65 01-03-2020 10:48:17 9.6 C 74 %
66 01-03-2020 10:58:17 9.6 C 74 %
67 01-03-2020 11:08:17 9.6 C 74 %
68 01-03-2020 11:18:17 9.6 C 74 %
69 01-03-2020 11:28:18 9.6 C 74 %
70 01-03-2020 11:38:18 9.6 C 75 %
71 01-03-2020 11:48:17 9.6 C 75 %
72 01-03-2020 11:58:17 9.6 C 75 %
73 01-03-2020 12:08:17 9.6 C 75 %
74 01-03-2020 12:18:17 9.6 C 75 %
75 01-03-2020 12:28:17 9.6 C 75 %
Sensor: Nr:Datum:Temp:Feuchte:
G-T/H 76 01-03-2020 12:38:18 9.6 C 75 %
77 01-03-2020 12:48:18 9.6 C 75 %
78 01-03-2020 12:58:18 9.6 C 75 %
79 01-03-2020 13:08:18 9.6 C 75 %
80 01-03-2020 13:18:17 9.6 C 75 %
81 01-03-2020 13:28:17 9.6 C 75 %
82 01-03-2020 13:38:17 9.7 C 75 %
83 01-03-2020 13:48:17 9.7 C 75 %
84 01-03-2020 13:58:17 9.7 C 75 %
85 01-03-2020 14:08:18 9.7 C 75 %
86 01-03-2020 14:18:18 9.7 C 75 %
87 01-03-2020 14:28:18 9.7 C 75 %
88 01-03-2020 14:38:18 9.7 C 75 %
89 01-03-2020 14:48:17 9.7 C 75 %
90 01-03-2020 14:58:18 9.7 C 75 %
91 01-03-2020 15:08:18 9.8 C 75 %
92 01-03-2020 15:18:17 9.8 C 75 %
93 01-03-2020 15:28:17 9.8 C 75 %
94 01-03-2020 15:38:18 9.8 C 75 %
95 01-03-2020 15:48:18 9.8 C 75 %
96 01-03-2020 15:58:18 9.8 C 75 %
97 01-03-2020 16:08:18 9.9 C 75 %
98 01-03-2020 16:18:18 9.9 C 75 %
99 01-03-2020 16:28:18 9.8 C 75 %
100 01-03-2020 16:38:18 9.9 C 75 %
Sensor: Nr:Datum:Temp:Feuchte:
G-T/H 101 01-03-2020 16:48:18 9.9 C 75 %
102 01-03-2020 16:58:18 9.9 C 75 %
103 01-03-2020 17:08:18 9.9 C 75 %
104 01-03-2020 17:18:17 9.9 C 75 %
105 01-03-2020 17:28:17 9.9 C 75 %
106 01-03-2020 17:38:17 9.9 C 75 %
107 01-03-2020 17:48:17 9.9 C 75 %
108 01-03-2020 17:58:17 9.9 C 75 %
109 01-03-2020 18:08:18 10 C 74 %
110 01-03-2020 18:18:18 10 C 74 %
111 01-03-2020 18:28:18 10 C 74 %
112 01-03-2020 18:38:18 10 C 74 %
113 01-03-2020 18:48:18 10 C 74 %
114 01-03-2020 18:58:18 10 C 74 %
115 01-03-2020 19:08:18 10 C 74 %
116 01-03-2020 19:18:17 10 C 74 %
117 01-03-2020 19:28:17 10 C 74 %
118 01-03-2020 19:38:17 10 C 74 %
119 01-03-2020 19:48:17 10 C 74 %
120 01-03-2020 19:58:17 10 C 74 %
121 01-03-2020 20:08:17 10 C 74 %
122 01-03-2020 20:18:17 10 C 74 %
123 01-03-2020 20:28:17 10.1 C 74 %
124 01-03-2020 20:38:17 10 C 74 %
125 01-03-2020 20:48:17 10 C 75 %
Sensor: Nr:Datum:Temp:Feuchte:
G-T/H 126 01-03-2020 20:58:17 10 C 74 %
127 01-03-2020 21:08:17 10 C 74 %
128 01-03-2020 21:18:17 10.1 C 74 %
129 01-03-2020 21:28:17 10.1 C 74 %
130 01-03-2020 21:38:17 10.1 C 74 %
131 01-03-2020 21:48:17 10.1 C 74 %
132 01-03-2020 21:58:17 10.1 C 74 %
133 01-03-2020 22:08:17 10 C 74 %
134 01-03-2020 22:18:17 10.1 C 74 %
135 01-03-2020 22:28:17 10 C 74 %
136 01-03-2020 22:38:18 10.1 C 74 %
137 01-03-2020 22:48:17 10.1 C 74 %
138 01-03-2020 22:58:17 10.1 C 74 %
139 01-03-2020 23:08:18 10.1 C 74 %
140 01-03-2020 23:18:18 10.1 C 74 %
141 01-03-2020 23:28:18 10 C 74 %
142 01-03-2020 23:38:18 10.1 C 74 %
143 01-03-2020 23:48:18 10.1 C 74 %
144 01-03-2020 23:58:18 10 C 74 %
145 02-03-2020 00:08:18 10 C 74 %
146 02-03-2020 00:18:17 10 C 74 %
147 02-03-2020 00:28:17 10 C 73 %
148 02-03-2020 00:38:17 10 C 73 %
149 02-03-2020 00:48:17 10 C 73 %
150 02-03-2020 00:58:18 10 C 73 %
Sensor: Nr:Datum:Temp:Feuchte:
G-T/H 151 02-03-2020 01:08:18 9.9 C 74 %
152 02-03-2020 01:18:17 9.9 C 74 %
153 02-03-2020 01:28:17 9.9 C 73 %
154 02-03-2020 01:38:17 9.9 C 73 %
155 02-03-2020 01:48:18 9.9 C 73 %
156 02-03-2020 01:58:18 9.9 C 73 %
157 02-03-2020 02:08:18 9.9 C 73 %
158 02-03-2020 02:18:17 9.8 C 73 %
159 02-03-2020 02:28:17 9.8 C 73 %
160 02-03-2020 02:38:17 9.8 C 73 %
161 02-03-2020 02:48:17 9.8 C 72 %
162 02-03-2020 02:58:18 9.8 C 72 %
163 02-03-2020 03:08:18 9.8 C 72 %
164 02-03-2020 03:18:18 9.7 C 72 %
165 02-03-2020 03:28:18 9.7 C 72 %
166 02-03-2020 03:38:18 9.8 C 72 %
167 02-03-2020 03:48:18 9.7 C 72 %
168 02-03-2020 03:58:18 9.7 C 72 %
169 02-03-2020 04:08:18 9.7 C 72 %
170 02-03-2020 04:18:17 9.7 C 72 %
171 02-03-2020 04:28:17 9.7 C 72 %
172 02-03-2020 04:38:18 9.7 C 72 %
173 02-03-2020 04:48:18 9.7 C 72 %
174 02-03-2020 04:58:18 9.7 C 72 %
175 02-03-2020 05:08:18 9.7 C 72 %
Sensor: Nr:Datum:Temp:Feuchte:
G-T/H 176 02-03-2020 05:18:17 9.7 C 72 %
177 02-03-2020 05:28:17 9.7 C 72 %
178 02-03-2020 05:38:18 9.6 C 72 %
179 02-03-2020 05:48:18 9.6 C 72 %
180 02-03-2020 05:58:18 9.6 C 72 %
181 02-03-2020 06:08:18 9.6 C 72 %
182 02-03-2020 06:18:18 9.6 C 72 %
183 02-03-2020 06:28:18 9.6 C 72 %
184 02-03-2020 06:38:18 9.6 C 72 %
185 02-03-2020 06:48:17 9.6 C 72 %
186 02-03-2020 06:58:17 9.5 C 72 %
187 02-03-2020 07:08:18 9.5 C 72 %
188 02-03-2020 07:18:18 9.5 C 72 %
189 02-03-2020 07:28:18 9.5 C 72 %
190 02-03-2020 07:38:18 9.5 C 72 %
191 02-03-2020 07:48:18 9.5 C 72 %
192 02-03-2020 07:58:18 9.5 C 72 %
193 02-03-2020 08:08:18 9.4 C 72 %
194 02-03-2020 08:18:17 9.5 C 72 %
195 02-03-2020 08:28:17 9.5 C 73 %
196 02-03-2020 08:38:18 9.5 C 73 %
197 02-03-2020 08:48:18 9.4 C 73 %
198 02-03-2020 08:58:18 9.4 C 73 %
199 02-03-2020 09:08:17 9.4 C 73 %
200 02-03-2020 09:18:17 9.4 C 73 %
Sensor: Nr:Datum:Temp:Feuchte:
G-T/H 201 02-03-2020 09:28:17 9.4 C 73 %
202 02-03-2020 09:38:17 9.4 C 73 %
203 02-03-2020 09:48:17 9.3 C 73 %
204 02-03-2020 09:58:17 9.3 C 73 %
205 02-03-2020 10:08:17 9.3 C 73 %
206 02-03-2020 10:18:17 9.3 C 73 %
207 02-03-2020 10:28:17 9.4 C 73 %
208 02-03-2020 10:38:18 9.3 C 73 %
209 02-03-2020 10:48:17 9.3 C 73 %
210 02-03-2020 10:58:17 9.3 C 73 %
211 02-03-2020 11:08:17 9.4 C 73 %
212 02-03-2020 11:18:17 9.3 C 73 %
213 02-03-2020 11:28:17 9.4 C 73 %
214 02-03-2020 11:38:17 9.4 C 73 %
215 02-03-2020 11:48:17 9.4 C 73 %
216 02-03-2020 11:58:17 9.4 C 73 %
217 02-03-2020 12:08:17 9.4 C 73 %
218 02-03-2020 12:18:17 9.4 C 73 %
219 02-03-2020 12:28:17 9.4 C 74 %
220 02-03-2020 12:38:18 9.4 C 74 %
221 02-03-2020 12:48:18 9.4 C 74 %
222 02-03-2020 12:58:18 9.5 C 74 %
223 02-03-2020 13:08:18 9.5 C 74 %
224 02-03-2020 13:18:18 9.5 C 74 %
225 02-03-2020 13:28:18 9.5 C 74 %
Sensor: Nr:Datum:Temp:Feuchte:
G-T/H 226 02-03-2020 13:38:17 9.5 C 74 %
227 02-03-2020 13:48:17 9.5 C 74 %
228 02-03-2020 13:58:17 9.5 C 74 %
229 02-03-2020 14:08:17 9.5 C 74 %
230 02-03-2020 14:18:17 9.5 C 74 %
231 02-03-2020 14:28:17 9.6 C 74 %
232 02-03-2020 14:38:17 9.6 C 74 %
233 02-03-2020 14:48:17 9.6 C 74 %
234 02-03-2020 14:58:17 9.6 C 74 %
235 02-03-2020 15:08:18 9.6 C 74 %
236 02-03-2020 15:18:18 9.6 C 74 %
237 02-03-2020 15:28:18 9.6 C 74 %
238 02-03-2020 15:38:18 9.7 C 74 %
239 02-03-2020 15:48:17 9.7 C 74 %
240 02-03-2020 15:58:18 9.7 C 74 %
241 02-03-2020 16:08:18 9.7 C 74 %
242 02-03-2020 16:18:18 9.7 C 74 %
243 02-03-2020 16:28:18 9.7 C 74 %
244 02-03-2020 16:38:18 9.7 C 74 %
245 02-03-2020 16:48:17 9.7 C 75 %
246 02-03-2020 16:58:17 9.7 C 75 %
247 02-03-2020 17:08:17 9.7 C 75 %
248 02-03-2020 17:18:17 9.8 C 75 %
249 02-03-2020 17:28:17 9.8 C 75 %
250 02-03-2020 17:38:18 9.8 C 75 %
Sensor: Nr:Datum:Temp:Feuchte:
G-T/H 251 02-03-2020 17:48:17 9.8 C 75 %
252 02-03-2020 17:58:18 9.8 C 75 %
253 02-03-2020 18:08:18 9.8 C 75 %
254 02-03-2020 18:18:18 9.8 C 75 %
255 02-03-2020 18:28:18 9.8 C 75 %
256 02-03-2020 18:38:18 9.8 C 75 %
257 02-03-2020 18:48:17 9.8 C 75 %
258 02-03-2020 18:58:18 9.8 C 75 %
259 02-03-2020 19:08:18 9.9 C 75 %
260 02-03-2020 19:18:18 9.8 C 75 %
261 02-03-2020 19:28:18 9.9 C 75 %
262 02-03-2020 19:38:18 9.9 C 75 %
263 02-03-2020 19:48:17 9.9 C 75 %
264 02-03-2020 19:58:18 9.8 C 75 %
265 02-03-2020 20:08:18 9.9 C 75 %
266 02-03-2020 20:18:17 9.9 C 75 %
267 02-03-2020 20:28:18 9.9 C 75 %
268 02-03-2020 20:38:18 9.9 C 75 %
269 02-03-2020 20:48:17 9.9 C 75 %
270 02-03-2020 20:58:17 9.9 C 75 %
271 02-03-2020 21:08:18 9.9 C 75 %
272 02-03-2020 21:18:18 9.9 C 75 %
273 02-03-2020 21:28:18 9.9 C 75 %
274 02-03-2020 21:38:18 9.9 C 75 %
275 02-03-2020 21:48:18 9.9 C 75 %
Sensor: Nr:Datum:Temp:Feuchte:
G-T/H 276 02-03-2020 21:58:18 9.9 C 75 %
277 02-03-2020 22:08:18 9.9 C 75 %
278 02-03-2020 22:18:17 9.9 C 75 %
279 02-03-2020 22:28:17 9.9 C 75 %
280 02-03-2020 22:38:17 9.9 C 75 %
281 02-03-2020 22:48:17 9.9 C 75 %
282 02-03-2020 22:58:17 9.9 C 75 %
283 02-03-2020 23:08:17 9.9 C 75 %
284 02-03-2020 23:18:17 9.9 C 75 %
285 02-03-2020 23:28:17 9.9 C 75 %
286 02-03-2020 23:38:17 9.9 C 75 %
287 02-03-2020 23:48:17 9.9 C 75 %
288 02-03-2020 23:58:17 9.9 C 75 %
289 03-03-2020 00:08:18 9.9 C 75 %
290 03-03-2020 00:18:18 9.9 C 75 %
291 03-03-2020 00:28:18 9.9 C 75 %
292 03-03-2020 00:38:18 9.9 C 75 %
293 03-03-2020 00:48:17 9.9 C 75 %
294 03-03-2020 00:58:17 9.9 C 75 %
295 03-03-2020 01:08:17 9.9 C 75 %
296 03-03-2020 01:18:17 9.9 C 75 %
297 03-03-2020 01:28:17 9.9 C 75 %
298 03-03-2020 01:38:18 9.9 C 75 %
299 03-03-2020 01:48:17 9.9 C 75 %
300 03-03-2020 01:58:17 9.9 C 75 %
Sensor: Nr:Datum:Temp:Feuchte:
G-T/H 301 03-03-2020 02:08:17 9.9 C 75 %
302 03-03-2020 02:18:17 9.9 C 75 %
303 03-03-2020 02:28:17 9.9 C 75 %
304 03-03-2020 02:38:18 9.9 C 75 %
305 03-03-2020 02:48:18 9.9 C 75 %
306 03-03-2020 02:58:18 9.9 C 75 %
307 03-03-2020 03:08:17 9.9 C 75 %
308 03-03-2020 03:18:17 9.9 C 75 %
309 03-03-2020 03:28:17 9.9 C 74 %
310 03-03-2020 03:38:18 9.9 C 74 %
311 03-03-2020 03:48:18 9.8 C 74 %
312 03-03-2020 03:58:18 9.9 C 74 %
313 03-03-2020 04:08:17 9.8 C 74 %
314 03-03-2020 04:18:17 9.8 C 74 %
315 03-03-2020 04:28:17 9.8 C 74 %
316 03-03-2020 04:38:18 9.8 C 74 %
317 03-03-2020 04:48:17 9.8 C 74 %
318 03-03-2020 04:58:18 9.8 C 74 %
319 03-03-2020 05:08:18 9.8 C 74 %
320 03-03-2020 05:18:18 9.8 C 74 %
321 03-03-2020 05:28:18 9.8 C 74 %
322 03-03-2020 05:38:17 9.7 C 74 %
323 03-03-2020 05:48:18 9.8 C 74 %
324 03-03-2020 05:58:18 9.7 C 74 %
325 03-03-2020 06:08:17 9.7 C 74 %
Sensor: Nr:Datum:Temp:Feuchte:
G-T/H 326 03-03-2020 06:18:18 9.7 C 74 %
327 03-03-2020 06:28:18 9.7 C 74 %
328 03-03-2020 06:38:17 9.7 C 74 %
329 03-03-2020 06:48:18 9.7 C 74 %
330 03-03-2020 06:58:18 9.6 C 74 %
331 03-03-2020 07:08:18 9.7 C 73 %
332 03-03-2020 07:18:18 9.7 C 73 %
333 03-03-2020 07:28:18 9.6 C 73 %
334 03-03-2020 07:38:18 9.6 C 73 %
335 03-03-2020 07:48:17 9.6 C 73 %
336 03-03-2020 07:58:17 9.6 C 73 %
337 03-03-2020 08:08:18 9.6 C 73 %
338 03-03-2020 08:18:18 9.6 C 73 %
339 03-03-2020 08:28:18 9.6 C 73 %
340 03-03-2020 08:38:17 9.6 C 73 %
341 03-03-2020 08:48:17 9.6 C 73 %
342 03-03-2020 08:58:18 9.5 C 73 %
343 03-03-2020 09:08:18 9.5 C 73 %
344 03-03-2020 09:18:17 9.5 C 73 %
345 03-03-2020 09:28:17 9.5 C 73 %
346 03-03-2020 09:38:17 9.5 C 73 %
347 03-03-2020 09:48:18 9.5 C 73 %
348 03-03-2020 09:58:18 9.5 C 73 %
349 03-03-2020 10:08:18 9.5 C 73 %
350 03-03-2020 10:18:18 9.5 C 73 %
Sensor: Nr:Datum:Temp:Feuchte:
G-T/H 351 03-03-2020 10:28:18 9.5 C 73 %
352 03-03-2020 10:38:18 9.5 C 73 %
353 03-03-2020 10:48:17 9.5 C 73 %
354 03-03-2020 10:58:18 9.5 C 73 %
355 03-03-2020 11:08:17 9.5 C 73 %
356 03-03-2020 11:18:17 9.4 C 73 %
357 03-03-2020 11:28:17 9.5 C 73 %
358 03-03-2020 11:38:17 9.5 C 73 %
359 03-03-2020 11:48:17 9.4 C 73 %
360 03-03-2020 11:58:17 9.5 C 73 %
361 03-03-2020 12:08:17 9.4 C 73 %
362 03-03-2020 12:18:17 9.4 C 73 %
363 03-03-2020 12:28:17 9.4 C 73 %
364 03-03-2020 12:38:17 9.4 C 73 %
365 03-03-2020 12:48:17 9.4 C 73 %
366 03-03-2020 12:58:17 9.4 C 73 %
367 03-03-2020 13:08:17 9.4 C 73 %
368 03-03-2020 13:18:17 9.4 C 73 %
369 03-03-2020 13:28:18 9.4 C 74 %
370 03-03-2020 13:38:18 9.5 C 74 %
371 03-03-2020 13:48:17 9.4 C 74 %
372 03-03-2020 13:58:17 9.4 C 74 %
373 03-03-2020 14:08:18 9.4 C 74 %
374 03-03-2020 14:18:18 9.5 C 74 %
375 03-03-2020 14:28:18 9.5 C 74 %
Sensor: Nr:Datum:Temp:Feuchte:
G-T/H 376 03-03-2020 14:38:18 9.5 C 74 %
377 03-03-2020 14:48:18 9.5 C 74 %
378 03-03-2020 14:58:18 9.5 C 74 %
379 03-03-2020 15:08:18 9.5 C 74 %
380 03-03-2020 15:18:18 9.5 C 74 %
381 03-03-2020 15:28:18 9.4 C 74 %
382 03-03-2020 15:38:18 9.4 C 74 %
383 03-03-2020 15:48:17 9.4 C 74 %
384 03-03-2020 15:58:17 9.4 C 74 %
385 03-03-2020 16:08:18 9.5 C 74 %
386 03-03-2020 16:18:18 9.5 C 74 %
387 03-03-2020 16:28:18 9.5 C 74 %
388 03-03-2020 16:38:18 9.5 C 74 %
389 03-03-2020 16:48:17 9.5 C 74 %
390 03-03-2020 16:58:17 9.3 C 73 %
391 03-03-2020 17:08:17 9.2 C 71 %
392 03-03-2020 17:18:17 9.3 C 71 %
393 03-03-2020 17:28:18 9.3 C 71 %
394 03-03-2020 17:38:18 9.3 C 71 %
395 03-03-2020 17:48:17 9.4 C 71 %
396 03-03-2020 17:58:18 9.4 C 72 %
397 03-03-2020 18:08:18 9.4 C 72 %
398 03-03-2020 18:18:18 9.4 C 72 %
399 03-03-2020 18:28:18 9.4 C 72 %
400 03-03-2020 18:38:18 9.4 C 72 %
Sensor: Nr:Datum:Temp:Feuchte:
G-T/H 401 03-03-2020 18:48:17 9.4 C 72 %
402 03-03-2020 18:58:17 9.4 C 72 %
403 03-03-2020 19:08:17 9.4 C 72 %
404 03-03-2020 19:18:17 9.4 C 72 %
405 03-03-2020 19:28:17 9.4 C 73 %
406 03-03-2020 19:38:17 9.4 C 73 %
407 03-03-2020 19:48:17 9.4 C 73 %
408 03-03-2020 19:58:17 9.3 C 73 %
409 03-03-2020 20:08:17 9.4 C 73 %
410 03-03-2020 20:18:17 9.3 C 73 %
411 03-03-2020 20:28:17 9.3 C 73 %
412 03-03-2020 20:38:17 9.3 C 73 %
413 03-03-2020 20:48:17 9.3 C 73 %
414 03-03-2020 20:58:17 9.3 C 73 %
415 03-03-2020 21:08:17 9.3 C 72 %
416 03-03-2020 21:18:17 9.3 C 72 %
417 03-03-2020 21:28:17 9.3 C 72 %
418 03-03-2020 21:38:17 9.3 C 72 %
419 03-03-2020 21:48:17 9.3 C 72 %
420 03-03-2020 21:58:17 9.3 C 72 %
421 03-03-2020 22:08:17 9.3 C 72 %
422 03-03-2020 22:18:17 9.3 C 72 %
423 03-03-2020 22:28:17 9.3 C 72 %
424 03-03-2020 22:38:17 9.2 C 72 %
425 03-03-2020 22:48:17 9.2 C 72 %
Sensor: Nr:Datum:Temp:Feuchte:
G-T/H 426 03-03-2020 22:58:17 9.2 C 72 %
427 03-03-2020 23:08:17 9.2 C 72 %
428 03-03-2020 23:18:18 9.2 C 72 %
429 03-03-2020 23:28:18 9.2 C 72 %
430 03-03-2020 23:38:17 9.2 C 72 %
431 03-03-2020 23:48:17 9.2 C 72 %
432 03-03-2020 23:58:17 9.2 C 72 %
433 04-03-2020 00:08:17 9.1 C 72 %
434 04-03-2020 00:18:18 9.1 C 72 %
435 04-03-2020 00:28:18 9.1 C 72 %
436 04-03-2020 00:38:18 9.1 C 72 %
437 04-03-2020 00:48:17 9.1 C 72 %
438 04-03-2020 00:58:17 9.1 C 72 %
439 04-03-2020 01:08:17 9.1 C 72 %
440 04-03-2020 01:18:17 9.1 C 72 %
441 04-03-2020 01:28:17 9.1 C 72 %
442 04-03-2020 01:38:17 9 C 72 %
443 04-03-2020 01:48:17 9 C 72 %
444 04-03-2020 01:58:17 9 C 72 %
445 04-03-2020 02:08:17 9 C 72 %
446 04-03-2020 02:18:17 9 C 72 %
447 04-03-2020 02:28:18 9 C 72 %
448 04-03-2020 02:38:18 9 C 72 %
449 04-03-2020 02:48:17 9 C 72 %
450 04-03-2020 02:58:18 9 C 72 %
Sensor: Nr:Datum:Temp:Feuchte:
G-T/H 451 04-03-2020 03:08:17 9 C 72 %
452 04-03-2020 03:18:17 9 C 72 %
453 04-03-2020 03:28:17 8.9 C 73 %
454 04-03-2020 03:38:17 8.9 C 73 %
455 04-03-2020 03:48:17 8.9 C 73 %
456 04-03-2020 03:58:18 8.9 C 73 %
457 04-03-2020 04:08:18 8.9 C 73 %
458 04-03-2020 04:18:18 8.9 C 73 %
459 04-03-2020 04:28:18 8.9 C 73 %
460 04-03-2020 04:38:18 8.9 C 73 %
461 04-03-2020 04:48:17 8.9 C 73 %
462 04-03-2020 04:58:18 8.9 C 73 %
463 04-03-2020 05:08:18 8.8 C 73 %
464 04-03-2020 05:18:18 8.8 C 73 %
465 04-03-2020 05:28:18 8.8 C 73 %
466 04-03-2020 05:38:18 8.8 C 73 %
467 04-03-2020 05:48:17 8.8 C 73 %
468 04-03-2020 05:58:18 8.8 C 73 %
469 04-03-2020 06:08:18 8.7 C 73 %
470 04-03-2020 06:18:18 8.8 C 73 %
471 04-03-2020 06:28:18 8.8 C 73 %
472 04-03-2020 06:38:18 8.8 C 73 %
473 04-03-2020 06:48:17 8.8 C 74 %
474 04-03-2020 06:58:17 8.8 C 74 %
475 04-03-2020 07:08:17 8.7 C 74 %
Sensor: Nr:Datum:Temp:Feuchte:
G-T/H 476 04-03-2020 07:18:17 8.8 C 74 %
477 04-03-2020 07:28:17 8.7 C 74 %
478 04-03-2020 07:38:18 8.7 C 74 %
479 04-03-2020 07:48:17 8.7 C 74 %
480 04-03-2020 07:58:17 8.7 C 74 %
481 04-03-2020 08:08:18 8.7 C 74 %
482 04-03-2020 08:18:17 8.7 C 74 %
483 04-03-2020 08:28:17 8.7 C 74 %
484 04-03-2020 08:38:18 8.7 C 74 %
485 04-03-2020 08:48:18 8.7 C 74 %
486 04-03-2020 08:58:18 8.7 C 74 %
487 04-03-2020 09:08:18 8.7 C 74 %
488 04-03-2020 09:18:18 8.7 C 74 %
489 04-03-2020 09:28:18 8.7 C 74 %
490 04-03-2020 09:38:18 8.7 C 74 %
491 04-03-2020 09:48:17 8.7 C 74 %
492 04-03-2020 09:58:18 8.7 C 74 %
493 04-03-2020 10:08:18 8.6 C 74 %
494 04-03-2020 10:18:18 8.7 C 74 %
495 04-03-2020 10:28:18 8.7 C 74 %
496 04-03-2020 10:38:17 8.7 C 74 %
497 04-03-2020 10:48:18 8.7 C 74 %
498 04-03-2020 10:58:18 8.7 C 74 %
499 04-03-2020 11:08:18 8.7 C 74 %
500 04-03-2020 11:18:18 8.7 C 74 %
Sensor: Nr:Datum:Temp:Feuchte:
G-T/H 501 04-03-2020 11:28:18 8.7 C 74 %
502 04-03-2020 11:38:18 8.7 C 74 %
503 04-03-2020 11:48:18 8.7 C 74 %
504 04-03-2020 11:58:18 8.7 C 74 %
505